<?xml version="1.0" encoding="UTF-8" standalone="no" ?>
<gpx xmlns="http://www.topografix.com/GPX/1/1" xmlns:xsi="http://www.w3.org/2001/XMLSchema-instance" xsi:schemaLocation="http://www.topografix.com/GPX/1/1 http://www.topografix.com/GPX/1/1/gpx.xsd" version="1.1" creator="VisuGPX - https://www.visugpx.com">
  <metadata>
    <name>de la Chapelle sur Erdre aux chateaux de la Gobinière et de la Gaudinière</name>
    <desc><![CDATA[belle sortie avec un regard particulier sur l'arbre scupté au chateau de la Gobinière]]></desc>
  </metadata>
  <trk>
    <name><![CDATA[2016-02-04-01]]></name>
    <trkseg>
      <trkpt lat="47.27015" lon="-1.55219">
        <ele>30.7</ele>
        <time>2016-02-04T13:10:28Z</time>
      </trkpt>
      <trkpt lat="47.27015" lon="-1.55219">
        <ele>30.8</ele>
        <time>2016-02-04T13:10:29Z</time>
      </trkpt>
      <trkpt lat="47.27008" lon="-1.5522">
        <ele>30.8</ele>
        <time>2016-02-04T13:11:38Z</time>
      </trkpt>
      <trkpt lat="47.27" lon="-1.55224">
        <ele>30.1</ele>
        <time>2016-02-04T13:11:46Z</time>
      </trkpt>
      <trkpt lat="47.26992" lon="-1.55229">
        <ele>30.3</ele>
        <time>2016-02-04T13:11:54Z</time>
      </trkpt>
      <trkpt lat="47.26985" lon="-1.55228">
        <ele>29.9</ele>
        <time>2016-02-04T13:12:00Z</time>
      </trkpt>
      <trkpt lat="47.26977" lon="-1.55229">
        <ele>30.2</ele>
        <time>2016-02-04T13:12:07Z</time>
      </trkpt>
      <trkpt lat="47.26969" lon="-1.55232">
        <ele>29.7</ele>
        <time>2016-02-04T13:12:13Z</time>
      </trkpt>
      <trkpt lat="47.26961" lon="-1.55235">
        <ele>29.8</ele>
        <time>2016-02-04T13:12:20Z</time>
      </trkpt>
      <trkpt lat="47.26954" lon="-1.55237">
        <ele>29.3</ele>
        <time>2016-02-04T13:12:26Z</time>
      </trkpt>
      <trkpt lat="47.26946" lon="-1.55241">
        <ele>29.3</ele>
        <time>2016-02-04T13:12:33Z</time>
      </trkpt>
      <trkpt lat="47.26938" lon="-1.55245">
        <ele>28.9</ele>
        <time>2016-02-04T13:12:39Z</time>
      </trkpt>
      <trkpt lat="47.26931" lon="-1.55249">
        <ele>29.1</ele>
        <time>2016-02-04T13:12:45Z</time>
      </trkpt>
      <trkpt lat="47.26923" lon="-1.55252">
        <ele>28.8</ele>
        <time>2016-02-04T13:12:52Z</time>
      </trkpt>
      <trkpt lat="47.26916" lon="-1.55255">
        <ele>29.6</ele>
        <time>2016-02-04T13:12:58Z</time>
      </trkpt>
      <trkpt lat="47.26907" lon="-1.55258">
        <ele>28.4</ele>
        <time>2016-02-04T13:13:05Z</time>
      </trkpt>
      <trkpt lat="47.269" lon="-1.55261">
        <ele>29.2</ele>
        <time>2016-02-04T13:13:11Z</time>
      </trkpt>
      <trkpt lat="47.26893" lon="-1.55264">
        <ele>29.2</ele>
        <time>2016-02-04T13:13:16Z</time>
      </trkpt>
      <trkpt lat="47.26885" lon="-1.55266">
        <ele>29</ele>
        <time>2016-02-04T13:13:22Z</time>
      </trkpt>
      <trkpt lat="47.26877" lon="-1.55268">
        <ele>28.7</ele>
        <time>2016-02-04T13:13:28Z</time>
      </trkpt>
      <trkpt lat="47.2687" lon="-1.55272">
        <ele>28.6</ele>
        <time>2016-02-04T13:13:35Z</time>
      </trkpt>
      <trkpt lat="47.26862" lon="-1.55275">
        <ele>28.9</ele>
        <time>2016-02-04T13:13:42Z</time>
      </trkpt>
      <trkpt lat="47.26853" lon="-1.55278">
        <ele>28.4</ele>
        <time>2016-02-04T13:13:49Z</time>
      </trkpt>
      <trkpt lat="47.26846" lon="-1.55282">
        <ele>28.2</ele>
        <time>2016-02-04T13:13:54Z</time>
      </trkpt>
      <trkpt lat="47.26839" lon="-1.55287">
        <ele>27.9</ele>
        <time>2016-02-04T13:14:00Z</time>
      </trkpt>
      <trkpt lat="47.26832" lon="-1.55291">
        <ele>27.7</ele>
        <time>2016-02-04T13:14:05Z</time>
      </trkpt>
      <trkpt lat="47.26825" lon="-1.55296">
        <ele>28.2</ele>
        <time>2016-02-04T13:14:11Z</time>
      </trkpt>
      <trkpt lat="47.26818" lon="-1.55302">
        <ele>27.7</ele>
        <time>2016-02-04T13:14:17Z</time>
      </trkpt>
      <trkpt lat="47.26811" lon="-1.55307">
        <ele>27.3</ele>
        <time>2016-02-04T13:14:23Z</time>
      </trkpt>
      <trkpt lat="47.26805" lon="-1.55314">
        <ele>28.1</ele>
        <time>2016-02-04T13:14:29Z</time>
      </trkpt>
      <trkpt lat="47.26799" lon="-1.5532">
        <ele>28.1</ele>
        <time>2016-02-04T13:14:34Z</time>
      </trkpt>
      <trkpt lat="47.26793" lon="-1.55326">
        <ele>26.8</ele>
        <time>2016-02-04T13:14:39Z</time>
      </trkpt>
      <trkpt lat="47.26786" lon="-1.55333">
        <ele>26.2</ele>
        <time>2016-02-04T13:14:45Z</time>
      </trkpt>
      <trkpt lat="47.26771" lon="-1.55331">
        <ele>25.9</ele>
        <time>2016-02-04T13:15:00Z</time>
      </trkpt>
      <trkpt lat="47.26764" lon="-1.55326">
        <ele>25.9</ele>
        <time>2016-02-04T13:15:07Z</time>
      </trkpt>
      <trkpt lat="47.26756" lon="-1.55325">
        <ele>26.7</ele>
        <time>2016-02-04T13:15:13Z</time>
      </trkpt>
      <trkpt lat="47.26748" lon="-1.55322">
        <ele>25.6</ele>
        <time>2016-02-04T13:15:20Z</time>
      </trkpt>
      <trkpt lat="47.2674" lon="-1.5532">
        <ele>24.6</ele>
        <time>2016-02-04T13:15:27Z</time>
      </trkpt>
      <trkpt lat="47.26732" lon="-1.55318">
        <ele>25</ele>
        <time>2016-02-04T13:15:35Z</time>
      </trkpt>
      <trkpt lat="47.26725" lon="-1.55316">
        <ele>24.9</ele>
        <time>2016-02-04T13:15:41Z</time>
      </trkpt>
      <trkpt lat="47.26717" lon="-1.55315">
        <ele>25.1</ele>
        <time>2016-02-04T13:15:46Z</time>
      </trkpt>
      <trkpt lat="47.26702" lon="-1.55311">
        <ele>24.9</ele>
        <time>2016-02-04T13:15:59Z</time>
      </trkpt>
      <trkpt lat="47.26695" lon="-1.55308">
        <ele>25.6</ele>
        <time>2016-02-04T13:16:05Z</time>
      </trkpt>
      <trkpt lat="47.26688" lon="-1.55305">
        <ele>25</ele>
        <time>2016-02-04T13:16:11Z</time>
      </trkpt>
      <trkpt lat="47.2668" lon="-1.55301">
        <ele>25.1</ele>
        <time>2016-02-04T13:16:17Z</time>
      </trkpt>
      <trkpt lat="47.26674" lon="-1.55296">
        <ele>25.2</ele>
        <time>2016-02-04T13:16:22Z</time>
      </trkpt>
      <trkpt lat="47.26668" lon="-1.5529">
        <ele>25</ele>
        <time>2016-02-04T13:16:27Z</time>
      </trkpt>
      <trkpt lat="47.26662" lon="-1.55284">
        <ele>24.6</ele>
        <time>2016-02-04T13:16:32Z</time>
      </trkpt>
      <trkpt lat="47.26654" lon="-1.55278">
        <ele>24.6</ele>
        <time>2016-02-04T13:16:38Z</time>
      </trkpt>
      <trkpt lat="47.26648" lon="-1.55274">
        <ele>23.9</ele>
        <time>2016-02-04T13:16:43Z</time>
      </trkpt>
      <trkpt lat="47.26639" lon="-1.5527">
        <ele>25.4</ele>
        <time>2016-02-04T13:16:49Z</time>
      </trkpt>
      <trkpt lat="47.26624" lon="-1.5526">
        <ele>25.1</ele>
        <time>2016-02-04T13:17:01Z</time>
      </trkpt>
      <trkpt lat="47.26618" lon="-1.55254">
        <ele>24.8</ele>
        <time>2016-02-04T13:17:07Z</time>
      </trkpt>
      <trkpt lat="47.26611" lon="-1.55251">
        <ele>26.1</ele>
        <time>2016-02-04T13:17:13Z</time>
      </trkpt>
      <trkpt lat="47.26604" lon="-1.55246">
        <ele>25.3</ele>
        <time>2016-02-04T13:17:20Z</time>
      </trkpt>
      <trkpt lat="47.26597" lon="-1.55243">
        <ele>25</ele>
        <time>2016-02-04T13:17:25Z</time>
      </trkpt>
      <trkpt lat="47.26589" lon="-1.55239">
        <ele>25</ele>
        <time>2016-02-04T13:17:31Z</time>
      </trkpt>
      <trkpt lat="47.26581" lon="-1.55242">
        <ele>25.4</ele>
        <time>2016-02-04T13:17:41Z</time>
      </trkpt>
      <trkpt lat="47.26574" lon="-1.55248">
        <ele>25.9</ele>
        <time>2016-02-04T13:17:47Z</time>
      </trkpt>
      <trkpt lat="47.26569" lon="-1.55257">
        <ele>26.1</ele>
        <time>2016-02-04T13:17:54Z</time>
      </trkpt>
      <trkpt lat="47.2656" lon="-1.55274">
        <ele>25.2</ele>
        <time>2016-02-04T13:18:05Z</time>
      </trkpt>
      <trkpt lat="47.26555" lon="-1.55282">
        <ele>25.1</ele>
        <time>2016-02-04T13:18:11Z</time>
      </trkpt>
      <trkpt lat="47.2655" lon="-1.55292">
        <ele>24.6</ele>
        <time>2016-02-04T13:18:17Z</time>
      </trkpt>
      <trkpt lat="47.26546" lon="-1.55301">
        <ele>24.6</ele>
        <time>2016-02-04T13:18:23Z</time>
      </trkpt>
      <trkpt lat="47.26542" lon="-1.55311">
        <ele>24.2</ele>
        <time>2016-02-04T13:18:29Z</time>
      </trkpt>
      <trkpt lat="47.26537" lon="-1.55319">
        <ele>23.7</ele>
        <time>2016-02-04T13:18:35Z</time>
      </trkpt>
      <trkpt lat="47.26529" lon="-1.55319">
        <ele>23.1</ele>
        <time>2016-02-04T13:18:42Z</time>
      </trkpt>
      <trkpt lat="47.26522" lon="-1.55315">
        <ele>23.7</ele>
        <time>2016-02-04T13:18:50Z</time>
      </trkpt>
      <trkpt lat="47.26515" lon="-1.55311">
        <ele>23.8</ele>
        <time>2016-02-04T13:18:57Z</time>
      </trkpt>
      <trkpt lat="47.26499" lon="-1.55303">
        <ele>24.4</ele>
        <time>2016-02-04T13:19:09Z</time>
      </trkpt>
      <trkpt lat="47.26492" lon="-1.553">
        <ele>24.1</ele>
        <time>2016-02-04T13:19:16Z</time>
      </trkpt>
      <trkpt lat="47.26484" lon="-1.55294">
        <ele>24.1</ele>
        <time>2016-02-04T13:19:23Z</time>
      </trkpt>
      <trkpt lat="47.26477" lon="-1.55289">
        <ele>24</ele>
        <time>2016-02-04T13:19:29Z</time>
      </trkpt>
      <trkpt lat="47.2647" lon="-1.55285">
        <ele>24.3</ele>
        <time>2016-02-04T13:19:35Z</time>
      </trkpt>
      <trkpt lat="47.26463" lon="-1.55279">
        <ele>23.4</ele>
        <time>2016-02-04T13:19:41Z</time>
      </trkpt>
      <trkpt lat="47.26457" lon="-1.55275">
        <ele>23.3</ele>
        <time>2016-02-04T13:19:47Z</time>
      </trkpt>
      <trkpt lat="47.2645" lon="-1.5527">
        <ele>22.8</ele>
        <time>2016-02-04T13:19:54Z</time>
      </trkpt>
      <trkpt lat="47.26443" lon="-1.55266">
        <ele>23.4</ele>
        <time>2016-02-04T13:20:00Z</time>
      </trkpt>
      <trkpt lat="47.2643" lon="-1.55254">
        <ele>23.4</ele>
        <time>2016-02-04T13:20:12Z</time>
      </trkpt>
      <trkpt lat="47.26423" lon="-1.55248">
        <ele>23.1</ele>
        <time>2016-02-04T13:20:18Z</time>
      </trkpt>
      <trkpt lat="47.26416" lon="-1.55241">
        <ele>23.6</ele>
        <time>2016-02-04T13:20:24Z</time>
      </trkpt>
      <trkpt lat="47.26409" lon="-1.55234">
        <ele>23.1</ele>
        <time>2016-02-04T13:20:30Z</time>
      </trkpt>
      <trkpt lat="47.26401" lon="-1.55229">
        <ele>22.1</ele>
        <time>2016-02-04T13:20:36Z</time>
      </trkpt>
      <trkpt lat="47.26393" lon="-1.55224">
        <ele>22.6</ele>
        <time>2016-02-04T13:20:42Z</time>
      </trkpt>
      <trkpt lat="47.26386" lon="-1.5522">
        <ele>21.6</ele>
        <time>2016-02-04T13:20:47Z</time>
      </trkpt>
      <trkpt lat="47.2638" lon="-1.55215">
        <ele>21.4</ele>
        <time>2016-02-04T13:20:52Z</time>
      </trkpt>
      <trkpt lat="47.26373" lon="-1.55209">
        <ele>21.1</ele>
        <time>2016-02-04T13:20:57Z</time>
      </trkpt>
      <trkpt lat="47.26366" lon="-1.55205">
        <ele>20.6</ele>
        <time>2016-02-04T13:21:03Z</time>
      </trkpt>
      <trkpt lat="47.26351" lon="-1.55203">
        <ele>20.6</ele>
        <time>2016-02-04T13:21:16Z</time>
      </trkpt>
      <trkpt lat="47.26346" lon="-1.5521">
        <ele>19.3</ele>
        <time>2016-02-04T13:21:23Z</time>
      </trkpt>
      <trkpt lat="47.26339" lon="-1.55216">
        <ele>20</ele>
        <time>2016-02-04T13:21:30Z</time>
      </trkpt>
      <trkpt lat="47.26332" lon="-1.5522">
        <ele>19.1</ele>
        <time>2016-02-04T13:21:36Z</time>
      </trkpt>
      <trkpt lat="47.26325" lon="-1.55225">
        <ele>17.9</ele>
        <time>2016-02-04T13:21:42Z</time>
      </trkpt>
      <trkpt lat="47.26318" lon="-1.55229">
        <ele>17.8</ele>
        <time>2016-02-04T13:21:48Z</time>
      </trkpt>
      <trkpt lat="47.2631" lon="-1.55233">
        <ele>16.9</ele>
        <time>2016-02-04T13:21:54Z</time>
      </trkpt>
      <trkpt lat="47.26303" lon="-1.5524">
        <ele>16.2</ele>
        <time>2016-02-04T13:22:00Z</time>
      </trkpt>
      <trkpt lat="47.26295" lon="-1.55246">
        <ele>15.7</ele>
        <time>2016-02-04T13:22:06Z</time>
      </trkpt>
      <trkpt lat="47.26281" lon="-1.55257">
        <ele>15.4</ele>
        <time>2016-02-04T13:22:18Z</time>
      </trkpt>
      <trkpt lat="47.26275" lon="-1.55266">
        <ele>15.2</ele>
        <time>2016-02-04T13:22:25Z</time>
      </trkpt>
      <trkpt lat="47.26271" lon="-1.55277">
        <ele>15.4</ele>
        <time>2016-02-04T13:22:32Z</time>
      </trkpt>
      <trkpt lat="47.26265" lon="-1.55285">
        <ele>14.2</ele>
        <time>2016-02-04T13:22:38Z</time>
      </trkpt>
      <trkpt lat="47.2626" lon="-1.55292">
        <ele>14.5</ele>
        <time>2016-02-04T13:22:44Z</time>
      </trkpt>
      <trkpt lat="47.26254" lon="-1.55299">
        <ele>13.7</ele>
        <time>2016-02-04T13:22:49Z</time>
      </trkpt>
      <trkpt lat="47.26249" lon="-1.55307">
        <ele>12.7</ele>
        <time>2016-02-04T13:22:55Z</time>
      </trkpt>
      <trkpt lat="47.26243" lon="-1.55315">
        <ele>13</ele>
        <time>2016-02-04T13:23:01Z</time>
      </trkpt>
      <trkpt lat="47.26237" lon="-1.55321">
        <ele>13</ele>
        <time>2016-02-04T13:23:05Z</time>
      </trkpt>
      <trkpt lat="47.26231" lon="-1.5533">
        <ele>12.1</ele>
        <time>2016-02-04T13:23:11Z</time>
      </trkpt>
      <trkpt lat="47.26219" lon="-1.55343">
        <ele>12.3</ele>
        <time>2016-02-04T13:23:21Z</time>
      </trkpt>
      <trkpt lat="47.26211" lon="-1.55347">
        <ele>11.6</ele>
        <time>2016-02-04T13:23:27Z</time>
      </trkpt>
      <trkpt lat="47.26203" lon="-1.55347">
        <ele>11.8</ele>
        <time>2016-02-04T13:23:33Z</time>
      </trkpt>
      <trkpt lat="47.26196" lon="-1.55345">
        <ele>12.2</ele>
        <time>2016-02-04T13:23:40Z</time>
      </trkpt>
      <trkpt lat="47.26188" lon="-1.55342">
        <ele>11.5</ele>
        <time>2016-02-04T13:23:46Z</time>
      </trkpt>
      <trkpt lat="47.2618" lon="-1.55338">
        <ele>11.4</ele>
        <time>2016-02-04T13:23:53Z</time>
      </trkpt>
      <trkpt lat="47.26173" lon="-1.55336">
        <ele>10.7</ele>
        <time>2016-02-04T13:23:58Z</time>
      </trkpt>
      <trkpt lat="47.26165" lon="-1.55333">
        <ele>11.1</ele>
        <time>2016-02-04T13:24:06Z</time>
      </trkpt>
      <trkpt lat="47.26157" lon="-1.5533">
        <ele>11.3</ele>
        <time>2016-02-04T13:24:11Z</time>
      </trkpt>
      <trkpt lat="47.26149" lon="-1.55327">
        <ele>10.4</ele>
        <time>2016-02-04T13:24:16Z</time>
      </trkpt>
      <trkpt lat="47.26134" lon="-1.55321">
        <ele>10.3</ele>
        <time>2016-02-04T13:24:26Z</time>
      </trkpt>
      <trkpt lat="47.26126" lon="-1.55318">
        <ele>10.2</ele>
        <time>2016-02-04T13:24:31Z</time>
      </trkpt>
      <trkpt lat="47.26118" lon="-1.55315">
        <ele>10.5</ele>
        <time>2016-02-04T13:24:37Z</time>
      </trkpt>
      <trkpt lat="47.26111" lon="-1.55318">
        <ele>9.4</ele>
        <time>2016-02-04T13:24:44Z</time>
      </trkpt>
      <trkpt lat="47.26104" lon="-1.55318">
        <ele>9.2</ele>
        <time>2016-02-04T13:24:49Z</time>
      </trkpt>
      <trkpt lat="47.26095" lon="-1.55315">
        <ele>8.8</ele>
        <time>2016-02-04T13:24:55Z</time>
      </trkpt>
      <trkpt lat="47.26088" lon="-1.55313">
        <ele>9.5</ele>
        <time>2016-02-04T13:25:01Z</time>
      </trkpt>
      <trkpt lat="47.26084" lon="-1.55322">
        <ele>10.3</ele>
        <time>2016-02-04T13:25:08Z</time>
      </trkpt>
      <trkpt lat="47.2608" lon="-1.55332">
        <ele>9.2</ele>
        <time>2016-02-04T13:25:16Z</time>
      </trkpt>
      <trkpt lat="47.26077" lon="-1.55343">
        <ele>9.1</ele>
        <time>2016-02-04T13:25:23Z</time>
      </trkpt>
      <trkpt lat="47.26069" lon="-1.55364">
        <ele>9.7</ele>
        <time>2016-02-04T13:25:36Z</time>
      </trkpt>
      <trkpt lat="47.26065" lon="-1.55375">
        <ele>9.7</ele>
        <time>2016-02-04T13:25:42Z</time>
      </trkpt>
      <trkpt lat="47.26061" lon="-1.55385">
        <ele>9.9</ele>
        <time>2016-02-04T13:25:48Z</time>
      </trkpt>
      <trkpt lat="47.26058" lon="-1.55395">
        <ele>10.1</ele>
        <time>2016-02-04T13:25:53Z</time>
      </trkpt>
      <trkpt lat="47.26055" lon="-1.55405">
        <ele>10.7</ele>
        <time>2016-02-04T13:25:59Z</time>
      </trkpt>
      <trkpt lat="47.26052" lon="-1.55417">
        <ele>10.3</ele>
        <time>2016-02-04T13:26:05Z</time>
      </trkpt>
      <trkpt lat="47.26049" lon="-1.55429">
        <ele>10</ele>
        <time>2016-02-04T13:26:11Z</time>
      </trkpt>
      <trkpt lat="47.26046" lon="-1.5544">
        <ele>9.9</ele>
        <time>2016-02-04T13:26:17Z</time>
      </trkpt>
      <trkpt lat="47.26042" lon="-1.5545">
        <ele>9.1</ele>
        <time>2016-02-04T13:26:23Z</time>
      </trkpt>
      <trkpt lat="47.26039" lon="-1.55461">
        <ele>9.2</ele>
        <time>2016-02-04T13:26:29Z</time>
      </trkpt>
      <trkpt lat="47.26033" lon="-1.55484">
        <ele>9.7</ele>
        <time>2016-02-04T13:26:41Z</time>
      </trkpt>
      <trkpt lat="47.26029" lon="-1.55495">
        <ele>9.7</ele>
        <time>2016-02-04T13:26:47Z</time>
      </trkpt>
      <trkpt lat="47.26025" lon="-1.55505">
        <ele>9.4</ele>
        <time>2016-02-04T13:26:53Z</time>
      </trkpt>
      <trkpt lat="47.26022" lon="-1.55516">
        <ele>9.6</ele>
        <time>2016-02-04T13:26:59Z</time>
      </trkpt>
      <trkpt lat="47.26019" lon="-1.55527">
        <ele>10.5</ele>
        <time>2016-02-04T13:27:05Z</time>
      </trkpt>
      <trkpt lat="47.26014" lon="-1.55537">
        <ele>10.7</ele>
        <time>2016-02-04T13:27:11Z</time>
      </trkpt>
      <trkpt lat="47.2601" lon="-1.55548">
        <ele>10.9</ele>
        <time>2016-02-04T13:27:17Z</time>
      </trkpt>
      <trkpt lat="47.26007" lon="-1.55559">
        <ele>10.6</ele>
        <time>2016-02-04T13:27:23Z</time>
      </trkpt>
      <trkpt lat="47.26004" lon="-1.55568">
        <ele>11.2</ele>
        <time>2016-02-04T13:27:28Z</time>
      </trkpt>
      <trkpt lat="47.26001" lon="-1.55579">
        <ele>11.3</ele>
        <time>2016-02-04T13:27:34Z</time>
      </trkpt>
      <trkpt lat="47.25996" lon="-1.556">
        <ele>12.7</ele>
        <time>2016-02-04T13:27:47Z</time>
      </trkpt>
      <trkpt lat="47.25992" lon="-1.5561">
        <ele>13.4</ele>
        <time>2016-02-04T13:27:53Z</time>
      </trkpt>
      <trkpt lat="47.25984" lon="-1.55615">
        <ele>14.5</ele>
        <time>2016-02-04T13:27:59Z</time>
      </trkpt>
      <trkpt lat="47.25977" lon="-1.55619">
        <ele>14.4</ele>
        <time>2016-02-04T13:28:04Z</time>
      </trkpt>
      <trkpt lat="47.25974" lon="-1.55629">
        <ele>15.3</ele>
        <time>2016-02-04T13:28:10Z</time>
      </trkpt>
      <trkpt lat="47.25969" lon="-1.55638">
        <ele>15.7</ele>
        <time>2016-02-04T13:28:16Z</time>
      </trkpt>
      <trkpt lat="47.25964" lon="-1.55647">
        <ele>15.6</ele>
        <time>2016-02-04T13:28:22Z</time>
      </trkpt>
      <trkpt lat="47.25961" lon="-1.55658">
        <ele>15.4</ele>
        <time>2016-02-04T13:28:29Z</time>
      </trkpt>
      <trkpt lat="47.25957" lon="-1.55668">
        <ele>15.4</ele>
        <time>2016-02-04T13:28:36Z</time>
      </trkpt>
      <trkpt lat="47.25953" lon="-1.55684">
        <ele>15.3</ele>
        <time>2016-02-04T13:28:54Z</time>
      </trkpt>
      <trkpt lat="47.25953" lon="-1.55696">
        <ele>15</ele>
        <time>2016-02-04T13:29:00Z</time>
      </trkpt>
      <trkpt lat="47.25952" lon="-1.55707">
        <ele>14.2</ele>
        <time>2016-02-04T13:29:07Z</time>
      </trkpt>
      <trkpt lat="47.25957" lon="-1.55715">
        <ele>15.2</ele>
        <time>2016-02-04T13:29:15Z</time>
      </trkpt>
      <trkpt lat="47.25961" lon="-1.55724">
        <ele>14.7</ele>
        <time>2016-02-04T13:29:22Z</time>
      </trkpt>
      <trkpt lat="47.25957" lon="-1.55733">
        <ele>14.6</ele>
        <time>2016-02-04T13:29:31Z</time>
      </trkpt>
      <trkpt lat="47.25951" lon="-1.5574">
        <ele>13.6</ele>
        <time>2016-02-04T13:29:45Z</time>
      </trkpt>
      <trkpt lat="47.25936" lon="-1.55746">
        <ele>11.4</ele>
        <time>2016-02-04T13:30:00Z</time>
      </trkpt>
      <trkpt lat="47.25929" lon="-1.55747">
        <ele>11.6</ele>
        <time>2016-02-04T13:30:06Z</time>
      </trkpt>
      <trkpt lat="47.2592" lon="-1.5575">
        <ele>11</ele>
        <time>2016-02-04T13:30:14Z</time>
      </trkpt>
      <trkpt lat="47.25912" lon="-1.55752">
        <ele>11</ele>
        <time>2016-02-04T13:30:19Z</time>
      </trkpt>
      <trkpt lat="47.25905" lon="-1.55757">
        <ele>10.5</ele>
        <time>2016-02-04T13:30:26Z</time>
      </trkpt>
      <trkpt lat="47.25898" lon="-1.55762">
        <ele>10.2</ele>
        <time>2016-02-04T13:30:33Z</time>
      </trkpt>
      <trkpt lat="47.25891" lon="-1.5577">
        <ele>10</ele>
        <time>2016-02-04T13:30:39Z</time>
      </trkpt>
      <trkpt lat="47.25886" lon="-1.55778">
        <ele>9.7</ele>
        <time>2016-02-04T13:30:45Z</time>
      </trkpt>
      <trkpt lat="47.25881" lon="-1.55786">
        <ele>9.9</ele>
        <time>2016-02-04T13:30:50Z</time>
      </trkpt>
      <trkpt lat="47.25867" lon="-1.55802">
        <ele>9.9</ele>
        <time>2016-02-04T13:31:03Z</time>
      </trkpt>
      <trkpt lat="47.25862" lon="-1.5581">
        <ele>9.7</ele>
        <time>2016-02-04T13:31:09Z</time>
      </trkpt>
      <trkpt lat="47.25857" lon="-1.55819">
        <ele>9.8</ele>
        <time>2016-02-04T13:31:15Z</time>
      </trkpt>
      <trkpt lat="47.25852" lon="-1.55829">
        <ele>9.6</ele>
        <time>2016-02-04T13:31:21Z</time>
      </trkpt>
      <trkpt lat="47.25849" lon="-1.55839">
        <ele>10.7</ele>
        <time>2016-02-04T13:31:27Z</time>
      </trkpt>
      <trkpt lat="47.25845" lon="-1.5585">
        <ele>10.7</ele>
        <time>2016-02-04T13:31:32Z</time>
      </trkpt>
      <trkpt lat="47.2584" lon="-1.55858">
        <ele>10.7</ele>
        <time>2016-02-04T13:31:37Z</time>
      </trkpt>
      <trkpt lat="47.25836" lon="-1.55868">
        <ele>10.7</ele>
        <time>2016-02-04T13:31:43Z</time>
      </trkpt>
      <trkpt lat="47.2583" lon="-1.55876">
        <ele>9.9</ele>
        <time>2016-02-04T13:31:49Z</time>
      </trkpt>
      <trkpt lat="47.25824" lon="-1.55883">
        <ele>10.5</ele>
        <time>2016-02-04T13:31:54Z</time>
      </trkpt>
      <trkpt lat="47.25811" lon="-1.55899">
        <ele>10.7</ele>
        <time>2016-02-04T13:32:05Z</time>
      </trkpt>
      <trkpt lat="47.25806" lon="-1.55907">
        <ele>10.2</ele>
        <time>2016-02-04T13:32:13Z</time>
      </trkpt>
      <trkpt lat="47.25799" lon="-1.55913">
        <ele>9.9</ele>
        <time>2016-02-04T13:32:18Z</time>
      </trkpt>
      <trkpt lat="47.25792" lon="-1.5592">
        <ele>9.4</ele>
        <time>2016-02-04T13:32:27Z</time>
      </trkpt>
      <trkpt lat="47.25787" lon="-1.55929">
        <ele>10.5</ele>
        <time>2016-02-04T13:32:34Z</time>
      </trkpt>
      <trkpt lat="47.25784" lon="-1.55939">
        <ele>12</ele>
        <time>2016-02-04T13:32:40Z</time>
      </trkpt>
      <trkpt lat="47.25779" lon="-1.55947">
        <ele>12.6</ele>
        <time>2016-02-04T13:32:46Z</time>
      </trkpt>
      <trkpt lat="47.25776" lon="-1.55957">
        <ele>12.1</ele>
        <time>2016-02-04T13:32:52Z</time>
      </trkpt>
      <trkpt lat="47.25773" lon="-1.55967">
        <ele>13.3</ele>
        <time>2016-02-04T13:32:58Z</time>
      </trkpt>
      <trkpt lat="47.25765" lon="-1.55988">
        <ele>12.1</ele>
        <time>2016-02-04T13:33:10Z</time>
      </trkpt>
      <trkpt lat="47.25762" lon="-1.55997">
        <ele>12.2</ele>
        <time>2016-02-04T13:33:15Z</time>
      </trkpt>
      <trkpt lat="47.25759" lon="-1.56008">
        <ele>11.9</ele>
        <time>2016-02-04T13:33:21Z</time>
      </trkpt>
      <trkpt lat="47.25756" lon="-1.56019">
        <ele>12.6</ele>
        <time>2016-02-04T13:33:26Z</time>
      </trkpt>
      <trkpt lat="47.25751" lon="-1.56029">
        <ele>11.4</ele>
        <time>2016-02-04T13:33:31Z</time>
      </trkpt>
      <trkpt lat="47.25748" lon="-1.56039">
        <ele>12.2</ele>
        <time>2016-02-04T13:33:37Z</time>
      </trkpt>
      <trkpt lat="47.25746" lon="-1.56049">
        <ele>12.6</ele>
        <time>2016-02-04T13:33:43Z</time>
      </trkpt>
      <trkpt lat="47.25743" lon="-1.56059">
        <ele>12.5</ele>
        <time>2016-02-04T13:33:48Z</time>
      </trkpt>
      <trkpt lat="47.25737" lon="-1.56068">
        <ele>12.5</ele>
        <time>2016-02-04T13:33:53Z</time>
      </trkpt>
      <trkpt lat="47.25733" lon="-1.56079">
        <ele>12.2</ele>
        <time>2016-02-04T13:33:59Z</time>
      </trkpt>
      <trkpt lat="47.25726" lon="-1.561">
        <ele>12.5</ele>
        <time>2016-02-04T13:34:11Z</time>
      </trkpt>
      <trkpt lat="47.25722" lon="-1.56112">
        <ele>12.5</ele>
        <time>2016-02-04T13:34:17Z</time>
      </trkpt>
      <trkpt lat="47.25718" lon="-1.5612">
        <ele>13.1</ele>
        <time>2016-02-04T13:34:22Z</time>
      </trkpt>
      <trkpt lat="47.25714" lon="-1.5613">
        <ele>12.9</ele>
        <time>2016-02-04T13:34:27Z</time>
      </trkpt>
      <trkpt lat="47.2571" lon="-1.5614">
        <ele>13</ele>
        <time>2016-02-04T13:34:32Z</time>
      </trkpt>
      <trkpt lat="47.25706" lon="-1.5615">
        <ele>12.7</ele>
        <time>2016-02-04T13:34:37Z</time>
      </trkpt>
      <trkpt lat="47.25702" lon="-1.56159">
        <ele>13.2</ele>
        <time>2016-02-04T13:34:42Z</time>
      </trkpt>
      <trkpt lat="47.25698" lon="-1.56169">
        <ele>13.4</ele>
        <time>2016-02-04T13:34:47Z</time>
      </trkpt>
      <trkpt lat="47.25694" lon="-1.56179">
        <ele>13.8</ele>
        <time>2016-02-04T13:34:52Z</time>
      </trkpt>
      <trkpt lat="47.25689" lon="-1.56188">
        <ele>13.4</ele>
        <time>2016-02-04T13:34:57Z</time>
      </trkpt>
      <trkpt lat="47.25685" lon="-1.56198">
        <ele>13.6</ele>
        <time>2016-02-04T13:35:03Z</time>
      </trkpt>
      <trkpt lat="47.25678" lon="-1.56218">
        <ele>13.5</ele>
        <time>2016-02-04T13:35:13Z</time>
      </trkpt>
      <trkpt lat="47.25675" lon="-1.56229">
        <ele>13.9</ele>
        <time>2016-02-04T13:35:19Z</time>
      </trkpt>
      <trkpt lat="47.25672" lon="-1.56241">
        <ele>13.9</ele>
        <time>2016-02-04T13:35:25Z</time>
      </trkpt>
      <trkpt lat="47.25672" lon="-1.56252">
        <ele>14.3</ele>
        <time>2016-02-04T13:35:31Z</time>
      </trkpt>
      <trkpt lat="47.25671" lon="-1.56265">
        <ele>14.8</ele>
        <time>2016-02-04T13:35:37Z</time>
      </trkpt>
      <trkpt lat="47.25669" lon="-1.56275">
        <ele>14.9</ele>
        <time>2016-02-04T13:35:42Z</time>
      </trkpt>
      <trkpt lat="47.25666" lon="-1.56285">
        <ele>15</ele>
        <time>2016-02-04T13:35:47Z</time>
      </trkpt>
      <trkpt lat="47.25661" lon="-1.56294">
        <ele>15.2</ele>
        <time>2016-02-04T13:35:52Z</time>
      </trkpt>
      <trkpt lat="47.25656" lon="-1.56302">
        <ele>15</ele>
        <time>2016-02-04T13:35:57Z</time>
      </trkpt>
      <trkpt lat="47.25652" lon="-1.56311">
        <ele>15.1</ele>
        <time>2016-02-04T13:36:04Z</time>
      </trkpt>
      <trkpt lat="47.25641" lon="-1.56327">
        <ele>15.7</ele>
        <time>2016-02-04T13:36:16Z</time>
      </trkpt>
      <trkpt lat="47.25636" lon="-1.56337">
        <ele>17</ele>
        <time>2016-02-04T13:36:23Z</time>
      </trkpt>
      <trkpt lat="47.25631" lon="-1.56345">
        <ele>16.6</ele>
        <time>2016-02-04T13:36:28Z</time>
      </trkpt>
      <trkpt lat="47.25626" lon="-1.56354">
        <ele>16.6</ele>
        <time>2016-02-04T13:36:34Z</time>
      </trkpt>
      <trkpt lat="47.25622" lon="-1.56364">
        <ele>17.2</ele>
        <time>2016-02-04T13:36:39Z</time>
      </trkpt>
      <trkpt lat="47.25618" lon="-1.56374">
        <ele>16.5</ele>
        <time>2016-02-04T13:36:45Z</time>
      </trkpt>
      <trkpt lat="47.25614" lon="-1.56385">
        <ele>17.5</ele>
        <time>2016-02-04T13:36:51Z</time>
      </trkpt>
      <trkpt lat="47.2561" lon="-1.56396">
        <ele>17.9</ele>
        <time>2016-02-04T13:36:57Z</time>
      </trkpt>
      <trkpt lat="47.25606" lon="-1.56406">
        <ele>17.8</ele>
        <time>2016-02-04T13:37:02Z</time>
      </trkpt>
      <trkpt lat="47.25602" lon="-1.56415">
        <ele>17.7</ele>
        <time>2016-02-04T13:37:07Z</time>
      </trkpt>
      <trkpt lat="47.25594" lon="-1.56435">
        <ele>18.3</ele>
        <time>2016-02-04T13:37:20Z</time>
      </trkpt>
      <trkpt lat="47.25596" lon="-1.56447">
        <ele>19.5</ele>
        <time>2016-02-04T13:37:27Z</time>
      </trkpt>
      <trkpt lat="47.25597" lon="-1.56459">
        <ele>19.7</ele>
        <time>2016-02-04T13:37:33Z</time>
      </trkpt>
      <trkpt lat="47.25597" lon="-1.56471">
        <ele>19.9</ele>
        <time>2016-02-04T13:37:39Z</time>
      </trkpt>
      <trkpt lat="47.25601" lon="-1.56482">
        <ele>20.2</ele>
        <time>2016-02-04T13:37:45Z</time>
      </trkpt>
      <trkpt lat="47.25605" lon="-1.56492">
        <ele>20.8</ele>
        <time>2016-02-04T13:37:51Z</time>
      </trkpt>
      <trkpt lat="47.25609" lon="-1.56503">
        <ele>20.9</ele>
        <time>2016-02-04T13:37:57Z</time>
      </trkpt>
      <trkpt lat="47.25613" lon="-1.56512">
        <ele>20.5</ele>
        <time>2016-02-04T13:38:03Z</time>
      </trkpt>
      <trkpt lat="47.25616" lon="-1.56523">
        <ele>21.1</ele>
        <time>2016-02-04T13:38:09Z</time>
      </trkpt>
      <trkpt lat="47.25624" lon="-1.56543">
        <ele>21.4</ele>
        <time>2016-02-04T13:38:22Z</time>
      </trkpt>
      <trkpt lat="47.25628" lon="-1.56553">
        <ele>21.4</ele>
        <time>2016-02-04T13:38:28Z</time>
      </trkpt>
      <trkpt lat="47.25629" lon="-1.56564">
        <ele>21.8</ele>
        <time>2016-02-04T13:38:33Z</time>
      </trkpt>
      <trkpt lat="47.25626" lon="-1.56574">
        <ele>22.1</ele>
        <time>2016-02-04T13:38:40Z</time>
      </trkpt>
      <trkpt lat="47.25619" lon="-1.5658">
        <ele>22.7</ele>
        <time>2016-02-04T13:38:49Z</time>
      </trkpt>
      <trkpt lat="47.25613" lon="-1.56587">
        <ele>23.6</ele>
        <time>2016-02-04T13:38:57Z</time>
      </trkpt>
      <trkpt lat="47.25605" lon="-1.56591">
        <ele>23.3</ele>
        <time>2016-02-04T13:39:03Z</time>
      </trkpt>
      <trkpt lat="47.25596" lon="-1.56593">
        <ele>23.2</ele>
        <time>2016-02-04T13:39:08Z</time>
      </trkpt>
      <trkpt lat="47.25588" lon="-1.56594">
        <ele>24.4</ele>
        <time>2016-02-04T13:39:12Z</time>
      </trkpt>
      <trkpt lat="47.25573" lon="-1.56599">
        <ele>24.4</ele>
        <time>2016-02-04T13:39:22Z</time>
      </trkpt>
      <trkpt lat="47.25564" lon="-1.566">
        <ele>23.9</ele>
        <time>2016-02-04T13:39:27Z</time>
      </trkpt>
      <trkpt lat="47.25556" lon="-1.56601">
        <ele>24.6</ele>
        <time>2016-02-04T13:39:33Z</time>
      </trkpt>
      <trkpt lat="47.25549" lon="-1.56599">
        <ele>24.7</ele>
        <time>2016-02-04T13:39:39Z</time>
      </trkpt>
      <trkpt lat="47.25541" lon="-1.56599">
        <ele>24.2</ele>
        <time>2016-02-04T13:39:44Z</time>
      </trkpt>
      <trkpt lat="47.25532" lon="-1.56598">
        <ele>24.8</ele>
        <time>2016-02-04T13:39:49Z</time>
      </trkpt>
      <trkpt lat="47.25525" lon="-1.56595">
        <ele>26</ele>
        <time>2016-02-04T13:39:55Z</time>
      </trkpt>
      <trkpt lat="47.25517" lon="-1.56593">
        <ele>26.5</ele>
        <time>2016-02-04T13:40:02Z</time>
      </trkpt>
      <trkpt lat="47.2551" lon="-1.56591">
        <ele>26.9</ele>
        <time>2016-02-04T13:40:07Z</time>
      </trkpt>
      <trkpt lat="47.25502" lon="-1.56588">
        <ele>26.4</ele>
        <time>2016-02-04T13:40:13Z</time>
      </trkpt>
      <trkpt lat="47.25495" lon="-1.56585">
        <ele>26.5</ele>
        <time>2016-02-04T13:40:18Z</time>
      </trkpt>
      <trkpt lat="47.25481" lon="-1.5658">
        <ele>27.1</ele>
        <time>2016-02-04T13:40:28Z</time>
      </trkpt>
      <trkpt lat="47.25473" lon="-1.56575">
        <ele>27.4</ele>
        <time>2016-02-04T13:40:34Z</time>
      </trkpt>
      <trkpt lat="47.25466" lon="-1.56573">
        <ele>28.1</ele>
        <time>2016-02-04T13:40:38Z</time>
      </trkpt>
      <trkpt lat="47.25458" lon="-1.56571">
        <ele>28.3</ele>
        <time>2016-02-04T13:40:44Z</time>
      </trkpt>
      <trkpt lat="47.2545" lon="-1.5657">
        <ele>27.8</ele>
        <time>2016-02-04T13:40:56Z</time>
      </trkpt>
      <trkpt lat="47.25443" lon="-1.56575">
        <ele>28.7</ele>
        <time>2016-02-04T13:41:25Z</time>
      </trkpt>
      <trkpt lat="47.25429" lon="-1.56579">
        <ele>29.5</ele>
        <time>2016-02-04T13:41:41Z</time>
      </trkpt>
      <trkpt lat="47.25421" lon="-1.56579">
        <ele>29.9</ele>
        <time>2016-02-04T13:41:49Z</time>
      </trkpt>
      <trkpt lat="47.25414" lon="-1.56579">
        <ele>30.2</ele>
        <time>2016-02-04T13:41:55Z</time>
      </trkpt>
      <trkpt lat="47.25406" lon="-1.5658">
        <ele>30</ele>
        <time>2016-02-04T13:42:01Z</time>
      </trkpt>
      <trkpt lat="47.25399" lon="-1.56582">
        <ele>30</ele>
        <time>2016-02-04T13:42:07Z</time>
      </trkpt>
      <trkpt lat="47.25391" lon="-1.56583">
        <ele>29.8</ele>
        <time>2016-02-04T13:42:13Z</time>
      </trkpt>
      <trkpt lat="47.25384" lon="-1.56584">
        <ele>30.6</ele>
        <time>2016-02-04T13:42:18Z</time>
      </trkpt>
      <trkpt lat="47.25377" lon="-1.56586">
        <ele>30.6</ele>
        <time>2016-02-04T13:42:23Z</time>
      </trkpt>
      <trkpt lat="47.25369" lon="-1.56588">
        <ele>30.1</ele>
        <time>2016-02-04T13:42:31Z</time>
      </trkpt>
      <trkpt lat="47.25354" lon="-1.56595">
        <ele>30.9</ele>
        <time>2016-02-04T13:42:42Z</time>
      </trkpt>
      <trkpt lat="47.25345" lon="-1.56595">
        <ele>31.3</ele>
        <time>2016-02-04T13:42:47Z</time>
      </trkpt>
      <trkpt lat="47.25338" lon="-1.56597">
        <ele>31</ele>
        <time>2016-02-04T13:42:51Z</time>
      </trkpt>
      <trkpt lat="47.2533" lon="-1.56599">
        <ele>30.9</ele>
        <time>2016-02-04T13:42:55Z</time>
      </trkpt>
      <trkpt lat="47.25321" lon="-1.56601">
        <ele>31.1</ele>
        <time>2016-02-04T13:43:00Z</time>
      </trkpt>
      <trkpt lat="47.25313" lon="-1.56603">
        <ele>30.1</ele>
        <time>2016-02-04T13:43:06Z</time>
      </trkpt>
      <trkpt lat="47.25305" lon="-1.56604">
        <ele>30.7</ele>
        <time>2016-02-04T13:43:12Z</time>
      </trkpt>
      <trkpt lat="47.25297" lon="-1.56605">
        <ele>30.5</ele>
        <time>2016-02-04T13:43:18Z</time>
      </trkpt>
      <trkpt lat="47.25289" lon="-1.56607">
        <ele>30.6</ele>
        <time>2016-02-04T13:43:23Z</time>
      </trkpt>
      <trkpt lat="47.25282" lon="-1.56609">
        <ele>30.9</ele>
        <time>2016-02-04T13:43:28Z</time>
      </trkpt>
      <trkpt lat="47.25274" lon="-1.56612">
        <ele>30.9</ele>
        <time>2016-02-04T13:43:33Z</time>
      </trkpt>
      <trkpt lat="47.25258" lon="-1.56616">
        <ele>31.3</ele>
        <time>2016-02-04T13:43:43Z</time>
      </trkpt>
      <trkpt lat="47.2525" lon="-1.56619">
        <ele>30.6</ele>
        <time>2016-02-04T13:43:49Z</time>
      </trkpt>
      <trkpt lat="47.25243" lon="-1.56622">
        <ele>30.9</ele>
        <time>2016-02-04T13:43:55Z</time>
      </trkpt>
      <trkpt lat="47.25236" lon="-1.56627">
        <ele>31.3</ele>
        <time>2016-02-04T13:44:02Z</time>
      </trkpt>
      <trkpt lat="47.25228" lon="-1.56631">
        <ele>31.5</ele>
        <time>2016-02-04T13:44:09Z</time>
      </trkpt>
      <trkpt lat="47.25221" lon="-1.56635">
        <ele>30.7</ele>
        <time>2016-02-04T13:44:16Z</time>
      </trkpt>
      <trkpt lat="47.25214" lon="-1.56639">
        <ele>31.3</ele>
        <time>2016-02-04T13:44:23Z</time>
      </trkpt>
      <trkpt lat="47.25206" lon="-1.56642">
        <ele>31.5</ele>
        <time>2016-02-04T13:44:30Z</time>
      </trkpt>
      <trkpt lat="47.25199" lon="-1.56642">
        <ele>31.9</ele>
        <time>2016-02-04T13:44:35Z</time>
      </trkpt>
      <trkpt lat="47.25183" lon="-1.56643">
        <ele>31.1</ele>
        <time>2016-02-04T13:44:47Z</time>
      </trkpt>
      <trkpt lat="47.25175" lon="-1.56639">
        <ele>31.5</ele>
        <time>2016-02-04T13:44:55Z</time>
      </trkpt>
      <trkpt lat="47.25168" lon="-1.56644">
        <ele>31.3</ele>
        <time>2016-02-04T13:45:03Z</time>
      </trkpt>
      <trkpt lat="47.25162" lon="-1.56652">
        <ele>30.9</ele>
        <time>2016-02-04T13:45:10Z</time>
      </trkpt>
      <trkpt lat="47.25156" lon="-1.56659">
        <ele>31.5</ele>
        <time>2016-02-04T13:45:17Z</time>
      </trkpt>
      <trkpt lat="47.2515" lon="-1.56667">
        <ele>31.7</ele>
        <time>2016-02-04T13:45:25Z</time>
      </trkpt>
      <trkpt lat="47.25144" lon="-1.56673">
        <ele>31.9</ele>
        <time>2016-02-04T13:45:32Z</time>
      </trkpt>
      <trkpt lat="47.25138" lon="-1.56682">
        <ele>32.2</ele>
        <time>2016-02-04T13:45:40Z</time>
      </trkpt>
      <trkpt lat="47.2513" lon="-1.567">
        <ele>32.4</ele>
        <time>2016-02-04T13:45:55Z</time>
      </trkpt>
      <trkpt lat="47.25124" lon="-1.56708">
        <ele>32.6</ele>
        <time>2016-02-04T13:46:01Z</time>
      </trkpt>
      <trkpt lat="47.25118" lon="-1.56716">
        <ele>33.3</ele>
        <time>2016-02-04T13:46:06Z</time>
      </trkpt>
      <trkpt lat="47.25112" lon="-1.56723">
        <ele>34.1</ele>
        <time>2016-02-04T13:46:12Z</time>
      </trkpt>
      <trkpt lat="47.25106" lon="-1.5673">
        <ele>33.3</ele>
        <time>2016-02-04T13:46:18Z</time>
      </trkpt>
      <trkpt lat="47.251" lon="-1.56739">
        <ele>34.1</ele>
        <time>2016-02-04T13:46:24Z</time>
      </trkpt>
      <trkpt lat="47.25094" lon="-1.56745">
        <ele>33.7</ele>
        <time>2016-02-04T13:46:29Z</time>
      </trkpt>
      <trkpt lat="47.25086" lon="-1.56751">
        <ele>33.9</ele>
        <time>2016-02-04T13:46:35Z</time>
      </trkpt>
      <trkpt lat="47.25079" lon="-1.56756">
        <ele>33.9</ele>
        <time>2016-02-04T13:46:40Z</time>
      </trkpt>
      <trkpt lat="47.25072" lon="-1.56763">
        <ele>34.2</ele>
        <time>2016-02-04T13:46:46Z</time>
      </trkpt>
      <trkpt lat="47.25058" lon="-1.56773">
        <ele>33.7</ele>
        <time>2016-02-04T13:46:56Z</time>
      </trkpt>
      <trkpt lat="47.25052" lon="-1.5678">
        <ele>33.7</ele>
        <time>2016-02-04T13:47:01Z</time>
      </trkpt>
      <trkpt lat="47.25046" lon="-1.56785">
        <ele>33.8</ele>
        <time>2016-02-04T13:47:06Z</time>
      </trkpt>
      <trkpt lat="47.25038" lon="-1.56788">
        <ele>33.7</ele>
        <time>2016-02-04T13:47:11Z</time>
      </trkpt>
      <trkpt lat="47.25031" lon="-1.56792">
        <ele>33.3</ele>
        <time>2016-02-04T13:47:16Z</time>
      </trkpt>
      <trkpt lat="47.25023" lon="-1.56796">
        <ele>33.9</ele>
        <time>2016-02-04T13:47:22Z</time>
      </trkpt>
      <trkpt lat="47.25015" lon="-1.568">
        <ele>33.2</ele>
        <time>2016-02-04T13:47:28Z</time>
      </trkpt>
      <trkpt lat="47.25008" lon="-1.56804">
        <ele>33.9</ele>
        <time>2016-02-04T13:47:33Z</time>
      </trkpt>
      <trkpt lat="47.25" lon="-1.56807">
        <ele>33.5</ele>
        <time>2016-02-04T13:47:39Z</time>
      </trkpt>
      <trkpt lat="47.24993" lon="-1.56809">
        <ele>33</ele>
        <time>2016-02-04T13:47:44Z</time>
      </trkpt>
      <trkpt lat="47.24985" lon="-1.56812">
        <ele>32.7</ele>
        <time>2016-02-04T13:47:50Z</time>
      </trkpt>
      <trkpt lat="47.2497" lon="-1.56815">
        <ele>32.5</ele>
        <time>2016-02-04T13:48:01Z</time>
      </trkpt>
      <trkpt lat="47.24962" lon="-1.56817">
        <ele>32.3</ele>
        <time>2016-02-04T13:48:06Z</time>
      </trkpt>
      <trkpt lat="47.24955" lon="-1.56818">
        <ele>32</ele>
        <time>2016-02-04T13:48:11Z</time>
      </trkpt>
      <trkpt lat="47.24946" lon="-1.5682">
        <ele>31.5</ele>
        <time>2016-02-04T13:48:17Z</time>
      </trkpt>
      <trkpt lat="47.24937" lon="-1.56821">
        <ele>31.5</ele>
        <time>2016-02-04T13:48:22Z</time>
      </trkpt>
      <trkpt lat="47.24928" lon="-1.56821">
        <ele>31.2</ele>
        <time>2016-02-04T13:48:27Z</time>
      </trkpt>
      <trkpt lat="47.24921" lon="-1.56821">
        <ele>31.1</ele>
        <time>2016-02-04T13:48:32Z</time>
      </trkpt>
      <trkpt lat="47.24912" lon="-1.5682">
        <ele>31.4</ele>
        <time>2016-02-04T13:48:38Z</time>
      </trkpt>
      <trkpt lat="47.24904" lon="-1.56818">
        <ele>30.3</ele>
        <time>2016-02-04T13:48:43Z</time>
      </trkpt>
      <trkpt lat="47.24896" lon="-1.56816">
        <ele>30.3</ele>
        <time>2016-02-04T13:48:49Z</time>
      </trkpt>
      <trkpt lat="47.24888" lon="-1.56815">
        <ele>30.7</ele>
        <time>2016-02-04T13:48:55Z</time>
      </trkpt>
      <trkpt lat="47.24872" lon="-1.56815">
        <ele>30.1</ele>
        <time>2016-02-04T13:49:06Z</time>
      </trkpt>
      <trkpt lat="47.24863" lon="-1.56814">
        <ele>30.6</ele>
        <time>2016-02-04T13:49:12Z</time>
      </trkpt>
      <trkpt lat="47.24855" lon="-1.56813">
        <ele>30.7</ele>
        <time>2016-02-04T13:49:17Z</time>
      </trkpt>
      <trkpt lat="47.24847" lon="-1.56811">
        <ele>30.9</ele>
        <time>2016-02-04T13:49:22Z</time>
      </trkpt>
      <trkpt lat="47.24839" lon="-1.56809">
        <ele>30.8</ele>
        <time>2016-02-04T13:49:28Z</time>
      </trkpt>
      <trkpt lat="47.24831" lon="-1.56806">
        <ele>30</ele>
        <time>2016-02-04T13:49:34Z</time>
      </trkpt>
      <trkpt lat="47.24824" lon="-1.56801">
        <ele>29.8</ele>
        <time>2016-02-04T13:49:40Z</time>
      </trkpt>
      <trkpt lat="47.24816" lon="-1.56797">
        <ele>30.1</ele>
        <time>2016-02-04T13:49:47Z</time>
      </trkpt>
      <trkpt lat="47.24809" lon="-1.56792">
        <ele>29.8</ele>
        <time>2016-02-04T13:49:54Z</time>
      </trkpt>
      <trkpt lat="47.24802" lon="-1.56789">
        <ele>29.7</ele>
        <time>2016-02-04T13:49:59Z</time>
      </trkpt>
      <trkpt lat="47.24787" lon="-1.5678">
        <ele>29.5</ele>
        <time>2016-02-04T13:50:11Z</time>
      </trkpt>
      <trkpt lat="47.24778" lon="-1.56777">
        <ele>29.6</ele>
        <time>2016-02-04T13:50:16Z</time>
      </trkpt>
      <trkpt lat="47.24771" lon="-1.56772">
        <ele>28.7</ele>
        <time>2016-02-04T13:50:21Z</time>
      </trkpt>
      <trkpt lat="47.24764" lon="-1.56775">
        <ele>28.8</ele>
        <time>2016-02-04T13:50:28Z</time>
      </trkpt>
      <trkpt lat="47.24757" lon="-1.56781">
        <ele>28.9</ele>
        <time>2016-02-04T13:50:35Z</time>
      </trkpt>
      <trkpt lat="47.24749" lon="-1.56779">
        <ele>29.7</ele>
        <time>2016-02-04T13:50:43Z</time>
      </trkpt>
      <trkpt lat="47.24742" lon="-1.56783">
        <ele>30.1</ele>
        <time>2016-02-04T13:50:50Z</time>
      </trkpt>
      <trkpt lat="47.24737" lon="-1.56791">
        <ele>29.3</ele>
        <time>2016-02-04T13:50:58Z</time>
      </trkpt>
      <trkpt lat="47.24731" lon="-1.56799">
        <ele>31.3</ele>
        <time>2016-02-04T13:51:07Z</time>
      </trkpt>
      <trkpt lat="47.24723" lon="-1.56817">
        <ele>31.9</ele>
        <time>2016-02-04T13:51:19Z</time>
      </trkpt>
      <trkpt lat="47.2472" lon="-1.56828">
        <ele>31.9</ele>
        <time>2016-02-04T13:51:25Z</time>
      </trkpt>
      <trkpt lat="47.24717" lon="-1.56838">
        <ele>32</ele>
        <time>2016-02-04T13:51:32Z</time>
      </trkpt>
      <trkpt lat="47.24713" lon="-1.56848">
        <ele>32.5</ele>
        <time>2016-02-04T13:51:42Z</time>
      </trkpt>
      <trkpt lat="47.24707" lon="-1.56855">
        <ele>32.7</ele>
        <time>2016-02-04T13:51:52Z</time>
      </trkpt>
      <trkpt lat="47.24704" lon="-1.56865">
        <ele>33.4</ele>
        <time>2016-02-04T13:51:58Z</time>
      </trkpt>
      <trkpt lat="47.247" lon="-1.56876">
        <ele>33.5</ele>
        <time>2016-02-04T13:52:04Z</time>
      </trkpt>
      <trkpt lat="47.24697" lon="-1.56888">
        <ele>33</ele>
        <time>2016-02-04T13:52:09Z</time>
      </trkpt>
      <trkpt lat="47.24694" lon="-1.5691">
        <ele>32.4</ele>
        <time>2016-02-04T13:52:18Z</time>
      </trkpt>
      <trkpt lat="47.24693" lon="-1.56923">
        <ele>32.7</ele>
        <time>2016-02-04T13:52:22Z</time>
      </trkpt>
      <trkpt lat="47.24692" lon="-1.56935">
        <ele>32.6</ele>
        <time>2016-02-04T13:52:26Z</time>
      </trkpt>
      <trkpt lat="47.24691" lon="-1.56947">
        <ele>32</ele>
        <time>2016-02-04T13:52:30Z</time>
      </trkpt>
      <trkpt lat="47.24689" lon="-1.5696">
        <ele>32.1</ele>
        <time>2016-02-04T13:52:34Z</time>
      </trkpt>
      <trkpt lat="47.24689" lon="-1.56971">
        <ele>32.4</ele>
        <time>2016-02-04T13:52:38Z</time>
      </trkpt>
      <trkpt lat="47.24688" lon="-1.56982">
        <ele>32.1</ele>
        <time>2016-02-04T13:52:42Z</time>
      </trkpt>
      <trkpt lat="47.24686" lon="-1.56996">
        <ele>31.5</ele>
        <time>2016-02-04T13:52:47Z</time>
      </trkpt>
      <trkpt lat="47.24687" lon="-1.57006">
        <ele>31.5</ele>
        <time>2016-02-04T13:52:51Z</time>
      </trkpt>
      <trkpt lat="47.24685" lon="-1.57018">
        <ele>31.4</ele>
        <time>2016-02-04T13:52:58Z</time>
      </trkpt>
      <trkpt lat="47.2468" lon="-1.57026">
        <ele>31.6</ele>
        <time>2016-02-04T13:53:06Z</time>
      </trkpt>
      <trkpt lat="47.24674" lon="-1.57033">
        <ele>30</ele>
        <time>2016-02-04T13:53:16Z</time>
      </trkpt>
      <trkpt lat="47.2466" lon="-1.57041">
        <ele>28.1</ele>
        <time>2016-02-04T13:53:28Z</time>
      </trkpt>
      <trkpt lat="47.24653" lon="-1.57045">
        <ele>27.5</ele>
        <time>2016-02-04T13:53:34Z</time>
      </trkpt>
      <trkpt lat="47.24645" lon="-1.57051">
        <ele>26.3</ele>
        <time>2016-02-04T13:53:40Z</time>
      </trkpt>
      <trkpt lat="47.24639" lon="-1.57056">
        <ele>26</ele>
        <time>2016-02-04T13:53:45Z</time>
      </trkpt>
      <trkpt lat="47.24632" lon="-1.57061">
        <ele>25</ele>
        <time>2016-02-04T13:53:51Z</time>
      </trkpt>
      <trkpt lat="47.24625" lon="-1.57065">
        <ele>23.5</ele>
        <time>2016-02-04T13:53:59Z</time>
      </trkpt>
      <trkpt lat="47.24617" lon="-1.5707">
        <ele>21.6</ele>
        <time>2016-02-04T13:54:06Z</time>
      </trkpt>
      <trkpt lat="47.24611" lon="-1.57075">
        <ele>19.5</ele>
        <time>2016-02-04T13:54:11Z</time>
      </trkpt>
      <trkpt lat="47.24603" lon="-1.57079">
        <ele>18</ele>
        <time>2016-02-04T13:54:18Z</time>
      </trkpt>
      <trkpt lat="47.24586" lon="-1.57087">
        <ele>16.6</ele>
        <time>2016-02-04T13:54:29Z</time>
      </trkpt>
      <trkpt lat="47.24579" lon="-1.57091">
        <ele>14.7</ele>
        <time>2016-02-04T13:54:36Z</time>
      </trkpt>
      <trkpt lat="47.24572" lon="-1.57097">
        <ele>14</ele>
        <time>2016-02-04T13:54:42Z</time>
      </trkpt>
      <trkpt lat="47.24569" lon="-1.57108">
        <ele>14</ele>
        <time>2016-02-04T13:54:52Z</time>
      </trkpt>
      <trkpt lat="47.24564" lon="-1.57117">
        <ele>14</ele>
        <time>2016-02-04T13:55:01Z</time>
      </trkpt>
      <trkpt lat="47.2456" lon="-1.57125">
        <ele>13.8</ele>
        <time>2016-02-04T13:55:06Z</time>
      </trkpt>
      <trkpt lat="47.24556" lon="-1.57135">
        <ele>14.4</ele>
        <time>2016-02-04T13:55:11Z</time>
      </trkpt>
      <trkpt lat="47.24555" lon="-1.57148">
        <ele>14.5</ele>
        <time>2016-02-04T13:55:17Z</time>
      </trkpt>
      <trkpt lat="47.24553" lon="-1.57159">
        <ele>14.9</ele>
        <time>2016-02-04T13:55:22Z</time>
      </trkpt>
      <trkpt lat="47.24549" lon="-1.57182">
        <ele>16.2</ele>
        <time>2016-02-04T13:55:32Z</time>
      </trkpt>
      <trkpt lat="47.24548" lon="-1.57194">
        <ele>15.6</ele>
        <time>2016-02-04T13:55:37Z</time>
      </trkpt>
      <trkpt lat="47.24549" lon="-1.57205">
        <ele>15.4</ele>
        <time>2016-02-04T13:55:42Z</time>
      </trkpt>
      <trkpt lat="47.24547" lon="-1.57217">
        <ele>15.2</ele>
        <time>2016-02-04T13:55:47Z</time>
      </trkpt>
      <trkpt lat="47.24545" lon="-1.57228">
        <ele>15.2</ele>
        <time>2016-02-04T13:55:53Z</time>
      </trkpt>
      <trkpt lat="47.24545" lon="-1.57241">
        <ele>15.4</ele>
        <time>2016-02-04T13:56:00Z</time>
      </trkpt>
      <trkpt lat="47.24543" lon="-1.57252">
        <ele>15</ele>
        <time>2016-02-04T13:56:06Z</time>
      </trkpt>
      <trkpt lat="47.24542" lon="-1.57265">
        <ele>14.8</ele>
        <time>2016-02-04T13:56:12Z</time>
      </trkpt>
      <trkpt lat="47.24542" lon="-1.57276">
        <ele>14.5</ele>
        <time>2016-02-04T13:56:17Z</time>
      </trkpt>
      <trkpt lat="47.24542" lon="-1.57288">
        <ele>15</ele>
        <time>2016-02-04T13:56:23Z</time>
      </trkpt>
      <trkpt lat="47.24546" lon="-1.5731">
        <ele>13.9</ele>
        <time>2016-02-04T13:56:36Z</time>
      </trkpt>
      <trkpt lat="47.24547" lon="-1.57322">
        <ele>14.3</ele>
        <time>2016-02-04T13:56:43Z</time>
      </trkpt>
      <trkpt lat="47.2455" lon="-1.57333">
        <ele>14.3</ele>
        <time>2016-02-04T13:56:50Z</time>
      </trkpt>
      <trkpt lat="47.24552" lon="-1.57345">
        <ele>15.4</ele>
        <time>2016-02-04T13:56:56Z</time>
      </trkpt>
      <trkpt lat="47.24553" lon="-1.57356">
        <ele>15.8</ele>
        <time>2016-02-04T13:57:01Z</time>
      </trkpt>
      <trkpt lat="47.24554" lon="-1.57367">
        <ele>15.5</ele>
        <time>2016-02-04T13:57:06Z</time>
      </trkpt>
      <trkpt lat="47.24556" lon="-1.57378">
        <ele>15.5</ele>
        <time>2016-02-04T13:57:13Z</time>
      </trkpt>
      <trkpt lat="47.24559" lon="-1.5739">
        <ele>16.2</ele>
        <time>2016-02-04T13:57:19Z</time>
      </trkpt>
      <trkpt lat="47.24562" lon="-1.57399">
        <ele>16.8</ele>
        <time>2016-02-04T13:57:24Z</time>
      </trkpt>
      <trkpt lat="47.24567" lon="-1.5742">
        <ele>17.1</ele>
        <time>2016-02-04T13:57:34Z</time>
      </trkpt>
      <trkpt lat="47.2457" lon="-1.57432">
        <ele>16.5</ele>
        <time>2016-02-04T13:57:40Z</time>
      </trkpt>
      <trkpt lat="47.24574" lon="-1.57442">
        <ele>17.1</ele>
        <time>2016-02-04T13:57:45Z</time>
      </trkpt>
      <trkpt lat="47.24577" lon="-1.57452">
        <ele>17.7</ele>
        <time>2016-02-04T13:57:51Z</time>
      </trkpt>
      <trkpt lat="47.24581" lon="-1.57462">
        <ele>17.7</ele>
        <time>2016-02-04T13:57:57Z</time>
      </trkpt>
      <trkpt lat="47.24588" lon="-1.5747">
        <ele>18.4</ele>
        <time>2016-02-04T13:58:03Z</time>
      </trkpt>
      <trkpt lat="47.24594" lon="-1.57476">
        <ele>19</ele>
        <time>2016-02-04T13:58:11Z</time>
      </trkpt>
      <trkpt lat="47.24601" lon="-1.57482">
        <ele>18.9</ele>
        <time>2016-02-04T13:58:17Z</time>
      </trkpt>
      <trkpt lat="47.24608" lon="-1.57488">
        <ele>18.4</ele>
        <time>2016-02-04T13:58:23Z</time>
      </trkpt>
      <trkpt lat="47.24614" lon="-1.57495">
        <ele>18.1</ele>
        <time>2016-02-04T13:58:28Z</time>
      </trkpt>
      <trkpt lat="47.24626" lon="-1.5751">
        <ele>16.9</ele>
        <time>2016-02-04T13:58:38Z</time>
      </trkpt>
      <trkpt lat="47.24633" lon="-1.57516">
        <ele>16.3</ele>
        <time>2016-02-04T13:58:43Z</time>
      </trkpt>
      <trkpt lat="47.24639" lon="-1.57523">
        <ele>16.2</ele>
        <time>2016-02-04T13:58:48Z</time>
      </trkpt>
      <trkpt lat="47.24645" lon="-1.57529">
        <ele>15.9</ele>
        <time>2016-02-04T13:58:53Z</time>
      </trkpt>
      <trkpt lat="47.2465" lon="-1.57539">
        <ele>15.9</ele>
        <time>2016-02-04T13:58:59Z</time>
      </trkpt>
      <trkpt lat="47.24656" lon="-1.57548">
        <ele>16.3</ele>
        <time>2016-02-04T13:59:04Z</time>
      </trkpt>
      <trkpt lat="47.2466" lon="-1.57558">
        <ele>16.1</ele>
        <time>2016-02-04T13:59:09Z</time>
      </trkpt>
      <trkpt lat="47.24666" lon="-1.57566">
        <ele>16.3</ele>
        <time>2016-02-04T13:59:14Z</time>
      </trkpt>
      <trkpt lat="47.24671" lon="-1.57575">
        <ele>16.7</ele>
        <time>2016-02-04T13:59:20Z</time>
      </trkpt>
      <trkpt lat="47.24675" lon="-1.57584">
        <ele>16.2</ele>
        <time>2016-02-04T13:59:25Z</time>
      </trkpt>
      <trkpt lat="47.24679" lon="-1.57593">
        <ele>16.4</ele>
        <time>2016-02-04T13:59:30Z</time>
      </trkpt>
      <trkpt lat="47.24689" lon="-1.57611">
        <ele>16</ele>
        <time>2016-02-04T13:59:41Z</time>
      </trkpt>
      <trkpt lat="47.24695" lon="-1.57621">
        <ele>17.4</ele>
        <time>2016-02-04T13:59:47Z</time>
      </trkpt>
      <trkpt lat="47.24699" lon="-1.5763">
        <ele>16.8</ele>
        <time>2016-02-04T13:59:52Z</time>
      </trkpt>
      <trkpt lat="47.24703" lon="-1.57639">
        <ele>16.9</ele>
        <time>2016-02-04T13:59:57Z</time>
      </trkpt>
      <trkpt lat="47.24708" lon="-1.57649">
        <ele>16.9</ele>
        <time>2016-02-04T14:00:02Z</time>
      </trkpt>
      <trkpt lat="47.24712" lon="-1.57659">
        <ele>17.8</ele>
        <time>2016-02-04T14:00:07Z</time>
      </trkpt>
      <trkpt lat="47.24717" lon="-1.57668">
        <ele>16.9</ele>
        <time>2016-02-04T14:00:13Z</time>
      </trkpt>
      <trkpt lat="47.24722" lon="-1.57677">
        <ele>16.8</ele>
        <time>2016-02-04T14:00:19Z</time>
      </trkpt>
      <trkpt lat="47.24728" lon="-1.57684">
        <ele>18.1</ele>
        <time>2016-02-04T14:00:26Z</time>
      </trkpt>
      <trkpt lat="47.24731" lon="-1.57695">
        <ele>17.2</ele>
        <time>2016-02-04T14:00:35Z</time>
      </trkpt>
      <trkpt lat="47.24734" lon="-1.57717">
        <ele>19.8</ele>
        <time>2016-02-04T14:00:52Z</time>
      </trkpt>
      <trkpt lat="47.24739" lon="-1.57726">
        <ele>19.7</ele>
        <time>2016-02-04T14:00:57Z</time>
      </trkpt>
      <trkpt lat="47.24743" lon="-1.57736">
        <ele>20.4</ele>
        <time>2016-02-04T14:01:03Z</time>
      </trkpt>
      <trkpt lat="47.24749" lon="-1.57744">
        <ele>20.8</ele>
        <time>2016-02-04T14:01:10Z</time>
      </trkpt>
      <trkpt lat="47.24756" lon="-1.57749">
        <ele>20.7</ele>
        <time>2016-02-04T14:01:17Z</time>
      </trkpt>
      <trkpt lat="47.24764" lon="-1.57753">
        <ele>21.6</ele>
        <time>2016-02-04T14:01:23Z</time>
      </trkpt>
      <trkpt lat="47.24772" lon="-1.57754">
        <ele>21.6</ele>
        <time>2016-02-04T14:01:29Z</time>
      </trkpt>
      <trkpt lat="47.24779" lon="-1.57758">
        <ele>21.7</ele>
        <time>2016-02-04T14:01:35Z</time>
      </trkpt>
      <trkpt lat="47.24786" lon="-1.57764">
        <ele>21.9</ele>
        <time>2016-02-04T14:01:42Z</time>
      </trkpt>
      <trkpt lat="47.24798" lon="-1.57779">
        <ele>21.1</ele>
        <time>2016-02-04T14:01:54Z</time>
      </trkpt>
      <trkpt lat="47.24804" lon="-1.57786">
        <ele>21.1</ele>
        <time>2016-02-04T14:01:59Z</time>
      </trkpt>
      <trkpt lat="47.2481" lon="-1.57793">
        <ele>21</ele>
        <time>2016-02-04T14:02:04Z</time>
      </trkpt>
      <trkpt lat="47.24817" lon="-1.57801">
        <ele>21.3</ele>
        <time>2016-02-04T14:02:10Z</time>
      </trkpt>
      <trkpt lat="47.24824" lon="-1.57808">
        <ele>21.6</ele>
        <time>2016-02-04T14:02:16Z</time>
      </trkpt>
      <trkpt lat="47.2483" lon="-1.57813">
        <ele>21.1</ele>
        <time>2016-02-04T14:02:21Z</time>
      </trkpt>
      <trkpt lat="47.24837" lon="-1.57819">
        <ele>20.6</ele>
        <time>2016-02-04T14:02:27Z</time>
      </trkpt>
      <trkpt lat="47.24844" lon="-1.57826">
        <ele>20.8</ele>
        <time>2016-02-04T14:02:32Z</time>
      </trkpt>
      <trkpt lat="47.24849" lon="-1.57834">
        <ele>20.9</ele>
        <time>2016-02-04T14:02:38Z</time>
      </trkpt>
      <trkpt lat="47.24855" lon="-1.57842">
        <ele>20.3</ele>
        <time>2016-02-04T14:02:43Z</time>
      </trkpt>
      <trkpt lat="47.24865" lon="-1.57857">
        <ele>20.6</ele>
        <time>2016-02-04T14:02:53Z</time>
      </trkpt>
      <trkpt lat="47.24871" lon="-1.57864">
        <ele>20</ele>
        <time>2016-02-04T14:02:58Z</time>
      </trkpt>
      <trkpt lat="47.24875" lon="-1.57873">
        <ele>20.5</ele>
        <time>2016-02-04T14:03:03Z</time>
      </trkpt>
      <trkpt lat="47.24878" lon="-1.57886">
        <ele>20.2</ele>
        <time>2016-02-04T14:03:09Z</time>
      </trkpt>
      <trkpt lat="47.2488" lon="-1.57896">
        <ele>20.1</ele>
        <time>2016-02-04T14:03:15Z</time>
      </trkpt>
      <trkpt lat="47.24886" lon="-1.57903">
        <ele>20.4</ele>
        <time>2016-02-04T14:03:21Z</time>
      </trkpt>
      <trkpt lat="47.24893" lon="-1.57908">
        <ele>19.6</ele>
        <time>2016-02-04T14:03:27Z</time>
      </trkpt>
      <trkpt lat="47.24899" lon="-1.57916">
        <ele>20.5</ele>
        <time>2016-02-04T14:03:33Z</time>
      </trkpt>
      <trkpt lat="47.24904" lon="-1.57924">
        <ele>21.4</ele>
        <time>2016-02-04T14:03:38Z</time>
      </trkpt>
      <trkpt lat="47.24908" lon="-1.57933">
        <ele>22.1</ele>
        <time>2016-02-04T14:03:43Z</time>
      </trkpt>
      <trkpt lat="47.24914" lon="-1.57942">
        <ele>21.7</ele>
        <time>2016-02-04T14:03:49Z</time>
      </trkpt>
      <trkpt lat="47.24922" lon="-1.57962">
        <ele>22.5</ele>
        <time>2016-02-04T14:04:00Z</time>
      </trkpt>
      <trkpt lat="47.24928" lon="-1.57971">
        <ele>23.1</ele>
        <time>2016-02-04T14:04:06Z</time>
      </trkpt>
      <trkpt lat="47.24932" lon="-1.57981">
        <ele>23.1</ele>
        <time>2016-02-04T14:04:12Z</time>
      </trkpt>
      <trkpt lat="47.24937" lon="-1.57991">
        <ele>23.5</ele>
        <time>2016-02-04T14:04:18Z</time>
      </trkpt>
      <trkpt lat="47.24941" lon="-1.58002">
        <ele>24.7</ele>
        <time>2016-02-04T14:04:24Z</time>
      </trkpt>
      <trkpt lat="47.24944" lon="-1.58012">
        <ele>24.7</ele>
        <time>2016-02-04T14:04:29Z</time>
      </trkpt>
      <trkpt lat="47.24947" lon="-1.58022">
        <ele>25.2</ele>
        <time>2016-02-04T14:04:34Z</time>
      </trkpt>
      <trkpt lat="47.2495" lon="-1.58033">
        <ele>25.7</ele>
        <time>2016-02-04T14:04:40Z</time>
      </trkpt>
      <trkpt lat="47.24953" lon="-1.58044">
        <ele>26.4</ele>
        <time>2016-02-04T14:04:45Z</time>
      </trkpt>
      <trkpt lat="47.24955" lon="-1.58054">
        <ele>26.8</ele>
        <time>2016-02-04T14:04:50Z</time>
      </trkpt>
      <trkpt lat="47.24958" lon="-1.58078">
        <ele>27.3</ele>
        <time>2016-02-04T14:05:02Z</time>
      </trkpt>
      <trkpt lat="47.24959" lon="-1.58089">
        <ele>28.6</ele>
        <time>2016-02-04T14:05:07Z</time>
      </trkpt>
      <trkpt lat="47.24961" lon="-1.581">
        <ele>28.9</ele>
        <time>2016-02-04T14:05:13Z</time>
      </trkpt>
      <trkpt lat="47.24963" lon="-1.58112">
        <ele>29.1</ele>
        <time>2016-02-04T14:05:19Z</time>
      </trkpt>
      <trkpt lat="47.24965" lon="-1.58123">
        <ele>29.7</ele>
        <time>2016-02-04T14:05:25Z</time>
      </trkpt>
      <trkpt lat="47.24966" lon="-1.58135">
        <ele>29.4</ele>
        <time>2016-02-04T14:05:31Z</time>
      </trkpt>
      <trkpt lat="47.24967" lon="-1.58147">
        <ele>29.9</ele>
        <time>2016-02-04T14:05:37Z</time>
      </trkpt>
      <trkpt lat="47.24968" lon="-1.58159">
        <ele>31.4</ele>
        <time>2016-02-04T14:05:43Z</time>
      </trkpt>
      <trkpt lat="47.24969" lon="-1.58172">
        <ele>31.6</ele>
        <time>2016-02-04T14:05:49Z</time>
      </trkpt>
      <trkpt lat="47.2497" lon="-1.58184">
        <ele>32.7</ele>
        <time>2016-02-04T14:05:55Z</time>
      </trkpt>
      <trkpt lat="47.24974" lon="-1.58206">
        <ele>32.7</ele>
        <time>2016-02-04T14:06:06Z</time>
      </trkpt>
      <trkpt lat="47.24976" lon="-1.58217">
        <ele>33.4</ele>
        <time>2016-02-04T14:06:12Z</time>
      </trkpt>
      <trkpt lat="47.24977" lon="-1.58229">
        <ele>34.4</ele>
        <time>2016-02-04T14:06:18Z</time>
      </trkpt>
      <trkpt lat="47.24978" lon="-1.5824">
        <ele>35.1</ele>
        <time>2016-02-04T14:06:24Z</time>
      </trkpt>
      <trkpt lat="47.2498" lon="-1.58251">
        <ele>35.3</ele>
        <time>2016-02-04T14:06:30Z</time>
      </trkpt>
      <trkpt lat="47.24981" lon="-1.58263">
        <ele>35.9</ele>
        <time>2016-02-04T14:06:36Z</time>
      </trkpt>
      <trkpt lat="47.24983" lon="-1.58274">
        <ele>36.7</ele>
        <time>2016-02-04T14:06:41Z</time>
      </trkpt>
      <trkpt lat="47.24984" lon="-1.58286">
        <ele>37.2</ele>
        <time>2016-02-04T14:06:47Z</time>
      </trkpt>
      <trkpt lat="47.24986" lon="-1.58297">
        <ele>37.5</ele>
        <time>2016-02-04T14:06:53Z</time>
      </trkpt>
      <trkpt lat="47.24987" lon="-1.58309">
        <ele>37.1</ele>
        <time>2016-02-04T14:06:59Z</time>
      </trkpt>
      <trkpt lat="47.2499" lon="-1.58331">
        <ele>38.2</ele>
        <time>2016-02-04T14:07:14Z</time>
      </trkpt>
      <trkpt lat="47.24986" lon="-1.58341">
        <ele>39.1</ele>
        <time>2016-02-04T14:07:25Z</time>
      </trkpt>
      <trkpt lat="47.2498" lon="-1.58347">
        <ele>40.1</ele>
        <time>2016-02-04T14:07:32Z</time>
      </trkpt>
      <trkpt lat="47.24972" lon="-1.58345">
        <ele>41.1</ele>
        <time>2016-02-04T14:07:40Z</time>
      </trkpt>
      <trkpt lat="47.24965" lon="-1.58341">
        <ele>41.3</ele>
        <time>2016-02-04T14:07:47Z</time>
      </trkpt>
      <trkpt lat="47.24958" lon="-1.58339">
        <ele>41</ele>
        <time>2016-02-04T14:07:54Z</time>
      </trkpt>
      <trkpt lat="47.2495" lon="-1.58336">
        <ele>40.9</ele>
        <time>2016-02-04T14:08:03Z</time>
      </trkpt>
      <trkpt lat="47.24936" lon="-1.58344">
        <ele>41.6</ele>
        <time>2016-02-04T14:08:17Z</time>
      </trkpt>
      <trkpt lat="47.24932" lon="-1.58354">
        <ele>41.6</ele>
        <time>2016-02-04T14:08:29Z</time>
      </trkpt>
      <trkpt lat="47.24929" lon="-1.58364">
        <ele>43</ele>
        <time>2016-02-04T14:08:39Z</time>
      </trkpt>
      <trkpt lat="47.24926" lon="-1.58375">
        <ele>43.4</ele>
        <time>2016-02-04T14:08:48Z</time>
      </trkpt>
      <trkpt lat="47.24921" lon="-1.58384">
        <ele>44.8</ele>
        <time>2016-02-04T14:08:56Z</time>
      </trkpt>
      <trkpt lat="47.24914" lon="-1.58388">
        <ele>44.1</ele>
        <time>2016-02-04T14:09:19Z</time>
      </trkpt>
      <trkpt lat="47.24913" lon="-1.58394">
        <ele>44.9</ele>
        <time>2016-02-04T14:10:20Z</time>
      </trkpt>
      <trkpt lat="47.24894" lon="-1.58368">
        <ele>45.5</ele>
        <time>2016-02-04T14:15:08Z</time>
      </trkpt>
      <trkpt lat="47.24887" lon="-1.58366">
        <ele>44.5</ele>
        <time>2016-02-04T14:15:17Z</time>
      </trkpt>
      <trkpt lat="47.2488" lon="-1.58362">
        <ele>44.1</ele>
        <time>2016-02-04T14:15:25Z</time>
      </trkpt>
      <trkpt lat="47.24873" lon="-1.58359">
        <ele>43.1</ele>
        <time>2016-02-04T14:15:35Z</time>
      </trkpt>
      <trkpt lat="47.24869" lon="-1.5835">
        <ele>40.8</ele>
        <time>2016-02-04T14:15:49Z</time>
      </trkpt>
      <trkpt lat="47.24862" lon="-1.5833">
        <ele>37.9</ele>
        <time>2016-02-04T14:16:08Z</time>
      </trkpt>
      <trkpt lat="47.24862" lon="-1.5832">
        <ele>37.4</ele>
        <time>2016-02-04T14:16:19Z</time>
      </trkpt>
      <trkpt lat="47.24859" lon="-1.58309">
        <ele>34.8</ele>
        <time>2016-02-04T14:16:31Z</time>
      </trkpt>
      <trkpt lat="47.24858" lon="-1.58298">
        <ele>33.2</ele>
        <time>2016-02-04T14:16:38Z</time>
      </trkpt>
      <trkpt lat="47.24857" lon="-1.58287">
        <ele>32.9</ele>
        <time>2016-02-04T14:16:45Z</time>
      </trkpt>
      <trkpt lat="47.24856" lon="-1.58276">
        <ele>32.4</ele>
        <time>2016-02-04T14:16:52Z</time>
      </trkpt>
      <trkpt lat="47.24853" lon="-1.58255">
        <ele>31.5</ele>
        <time>2016-02-04T14:17:04Z</time>
      </trkpt>
      <trkpt lat="47.24852" lon="-1.58243">
        <ele>32.2</ele>
        <time>2016-02-04T14:17:10Z</time>
      </trkpt>
      <trkpt lat="47.24853" lon="-1.58232">
        <ele>31.8</ele>
        <time>2016-02-04T14:17:15Z</time>
      </trkpt>
      <trkpt lat="47.24854" lon="-1.58221">
        <ele>31.2</ele>
        <time>2016-02-04T14:17:20Z</time>
      </trkpt>
      <trkpt lat="47.24856" lon="-1.58211">
        <ele>31.9</ele>
        <time>2016-02-04T14:17:25Z</time>
      </trkpt>
      <trkpt lat="47.24859" lon="-1.582">
        <ele>32.3</ele>
        <time>2016-02-04T14:17:30Z</time>
      </trkpt>
      <trkpt lat="47.24861" lon="-1.58188">
        <ele>31.9</ele>
        <time>2016-02-04T14:17:36Z</time>
      </trkpt>
      <trkpt lat="47.24864" lon="-1.58178">
        <ele>31.7</ele>
        <time>2016-02-04T14:17:41Z</time>
      </trkpt>
      <trkpt lat="47.24868" lon="-1.58168">
        <ele>31.1</ele>
        <time>2016-02-04T14:17:46Z</time>
      </trkpt>
      <trkpt lat="47.24872" lon="-1.58156">
        <ele>31.5</ele>
        <time>2016-02-04T14:17:52Z</time>
      </trkpt>
      <trkpt lat="47.24875" lon="-1.58146">
        <ele>31</ele>
        <time>2016-02-04T14:17:57Z</time>
      </trkpt>
      <trkpt lat="47.24881" lon="-1.58127">
        <ele>31</ele>
        <time>2016-02-04T14:18:07Z</time>
      </trkpt>
      <trkpt lat="47.24884" lon="-1.58115">
        <ele>30.6</ele>
        <time>2016-02-04T14:18:13Z</time>
      </trkpt>
      <trkpt lat="47.24886" lon="-1.58104">
        <ele>30.5</ele>
        <time>2016-02-04T14:18:19Z</time>
      </trkpt>
      <trkpt lat="47.24888" lon="-1.58092">
        <ele>30.9</ele>
        <time>2016-02-04T14:18:24Z</time>
      </trkpt>
      <trkpt lat="47.24889" lon="-1.5808">
        <ele>31</ele>
        <time>2016-02-04T14:18:29Z</time>
      </trkpt>
      <trkpt lat="47.24889" lon="-1.58069">
        <ele>31.2</ele>
        <time>2016-02-04T14:18:34Z</time>
      </trkpt>
      <trkpt lat="47.24882" lon="-1.58064">
        <ele>31</ele>
        <time>2016-02-04T14:18:47Z</time>
      </trkpt>
      <trkpt lat="47.24876" lon="-1.58072">
        <ele>31.3</ele>
        <time>2016-02-04T14:18:56Z</time>
      </trkpt>
      <trkpt lat="47.24871" lon="-1.58079">
        <ele>31.9</ele>
        <time>2016-02-04T14:19:04Z</time>
      </trkpt>
      <trkpt lat="47.2486" lon="-1.58095">
        <ele>33</ele>
        <time>2016-02-04T14:19:22Z</time>
      </trkpt>
      <trkpt lat="47.24856" lon="-1.58105">
        <ele>33.8</ele>
        <time>2016-02-04T14:19:30Z</time>
      </trkpt>
      <trkpt lat="47.24848" lon="-1.58106">
        <ele>34.5</ele>
        <time>2016-02-04T14:19:37Z</time>
      </trkpt>
      <trkpt lat="47.24841" lon="-1.58106">
        <ele>34.8</ele>
        <time>2016-02-04T14:19:43Z</time>
      </trkpt>
      <trkpt lat="47.24833" lon="-1.58106">
        <ele>35</ele>
        <time>2016-02-04T14:19:48Z</time>
      </trkpt>
      <trkpt lat="47.24824" lon="-1.58108">
        <ele>34.3</ele>
        <time>2016-02-04T14:19:53Z</time>
      </trkpt>
      <trkpt lat="47.24817" lon="-1.58106">
        <ele>34.1</ele>
        <time>2016-02-04T14:19:59Z</time>
      </trkpt>
      <trkpt lat="47.24809" lon="-1.58106">
        <ele>33.5</ele>
        <time>2016-02-04T14:20:16Z</time>
      </trkpt>
      <trkpt lat="47.24794" lon="-1.58104">
        <ele>31.8</ele>
        <time>2016-02-04T14:20:30Z</time>
      </trkpt>
      <trkpt lat="47.24786" lon="-1.58102">
        <ele>31.3</ele>
        <time>2016-02-04T14:20:36Z</time>
      </trkpt>
      <trkpt lat="47.24778" lon="-1.58106">
        <ele>31.2</ele>
        <time>2016-02-04T14:20:44Z</time>
      </trkpt>
      <trkpt lat="47.24771" lon="-1.58111">
        <ele>33.1</ele>
        <time>2016-02-04T14:20:52Z</time>
      </trkpt>
      <trkpt lat="47.24763" lon="-1.58111">
        <ele>34.1</ele>
        <time>2016-02-04T14:21:01Z</time>
      </trkpt>
      <trkpt lat="47.24755" lon="-1.58112">
        <ele>35.5</ele>
        <time>2016-02-04T14:21:10Z</time>
      </trkpt>
      <trkpt lat="47.24748" lon="-1.58112">
        <ele>36.7</ele>
        <time>2016-02-04T14:21:16Z</time>
      </trkpt>
      <trkpt lat="47.2474" lon="-1.58111">
        <ele>38.3</ele>
        <time>2016-02-04T14:21:22Z</time>
      </trkpt>
      <trkpt lat="47.24725" lon="-1.58104">
        <ele>41.5</ele>
        <time>2016-02-04T14:21:36Z</time>
      </trkpt>
      <trkpt lat="47.24719" lon="-1.58099">
        <ele>42.5</ele>
        <time>2016-02-04T14:21:41Z</time>
      </trkpt>
      <trkpt lat="47.24711" lon="-1.58096">
        <ele>42.3</ele>
        <time>2016-02-04T14:21:47Z</time>
      </trkpt>
      <trkpt lat="47.24703" lon="-1.58093">
        <ele>42.5</ele>
        <time>2016-02-04T14:21:58Z</time>
      </trkpt>
      <trkpt lat="47.2471" lon="-1.58088">
        <ele>41.7</ele>
        <time>2016-02-04T14:22:42Z</time>
      </trkpt>
      <trkpt lat="47.24725" lon="-1.58093">
        <ele>36</ele>
        <time>2016-02-04T14:23:12Z</time>
      </trkpt>
      <trkpt lat="47.24732" lon="-1.58096">
        <ele>34.6</ele>
        <time>2016-02-04T14:23:21Z</time>
      </trkpt>
      <trkpt lat="47.2474" lon="-1.58095">
        <ele>32.6</ele>
        <time>2016-02-04T14:23:34Z</time>
      </trkpt>
      <trkpt lat="47.24748" lon="-1.58092">
        <ele>31.5</ele>
        <time>2016-02-04T14:23:40Z</time>
      </trkpt>
      <trkpt lat="47.24756" lon="-1.58089">
        <ele>32.2</ele>
        <time>2016-02-04T14:23:47Z</time>
      </trkpt>
      <trkpt lat="47.24771" lon="-1.58091">
        <ele>32.8</ele>
        <time>2016-02-04T14:23:59Z</time>
      </trkpt>
      <trkpt lat="47.2478" lon="-1.58092">
        <ele>33.9</ele>
        <time>2016-02-04T14:24:04Z</time>
      </trkpt>
      <trkpt lat="47.24788" lon="-1.58092">
        <ele>34.4</ele>
        <time>2016-02-04T14:24:09Z</time>
      </trkpt>
      <trkpt lat="47.24796" lon="-1.58091">
        <ele>35</ele>
        <time>2016-02-04T14:24:15Z</time>
      </trkpt>
      <trkpt lat="47.24804" lon="-1.5809">
        <ele>34.7</ele>
        <time>2016-02-04T14:24:23Z</time>
      </trkpt>
      <trkpt lat="47.24811" lon="-1.58091">
        <ele>34.8</ele>
        <time>2016-02-04T14:24:32Z</time>
      </trkpt>
      <trkpt lat="47.24819" lon="-1.58094">
        <ele>35.7</ele>
        <time>2016-02-04T14:24:40Z</time>
      </trkpt>
      <trkpt lat="47.24823" lon="-1.58104">
        <ele>35.3</ele>
        <time>2016-02-04T14:24:46Z</time>
      </trkpt>
      <trkpt lat="47.24824" lon="-1.58115">
        <ele>36.3</ele>
        <time>2016-02-04T14:24:53Z</time>
      </trkpt>
      <trkpt lat="47.24827" lon="-1.58137">
        <ele>37.9</ele>
        <time>2016-02-04T14:25:06Z</time>
      </trkpt>
      <trkpt lat="47.24824" lon="-1.58148">
        <ele>38.5</ele>
        <time>2016-02-04T14:25:13Z</time>
      </trkpt>
      <trkpt lat="47.24821" lon="-1.58158">
        <ele>38.2</ele>
        <time>2016-02-04T14:25:19Z</time>
      </trkpt>
      <trkpt lat="47.24817" lon="-1.58168">
        <ele>40</ele>
        <time>2016-02-04T14:25:26Z</time>
      </trkpt>
      <trkpt lat="47.24814" lon="-1.58178">
        <ele>40.3</ele>
        <time>2016-02-04T14:25:32Z</time>
      </trkpt>
      <trkpt lat="47.2481" lon="-1.58187">
        <ele>42</ele>
        <time>2016-02-04T14:25:39Z</time>
      </trkpt>
      <trkpt lat="47.24806" lon="-1.58197">
        <ele>43.1</ele>
        <time>2016-02-04T14:25:46Z</time>
      </trkpt>
      <trkpt lat="47.24802" lon="-1.58207">
        <ele>42.6</ele>
        <time>2016-02-04T14:25:52Z</time>
      </trkpt>
      <trkpt lat="47.24797" lon="-1.58216">
        <ele>43.8</ele>
        <time>2016-02-04T14:25:58Z</time>
      </trkpt>
      <trkpt lat="47.24786" lon="-1.58233">
        <ele>45.6</ele>
        <time>2016-02-04T14:26:08Z</time>
      </trkpt>
      <trkpt lat="47.2478" lon="-1.58241">
        <ele>46.2</ele>
        <time>2016-02-04T14:26:15Z</time>
      </trkpt>
      <trkpt lat="47.24774" lon="-1.58249">
        <ele>46.9</ele>
        <time>2016-02-04T14:26:22Z</time>
      </trkpt>
      <trkpt lat="47.2477" lon="-1.5826">
        <ele>49</ele>
        <time>2016-02-04T14:26:30Z</time>
      </trkpt>
      <trkpt lat="47.24762" lon="-1.58265">
        <ele>49.8</ele>
        <time>2016-02-04T14:26:37Z</time>
      </trkpt>
      <trkpt lat="47.24755" lon="-1.58268">
        <ele>51.3</ele>
        <time>2016-02-04T14:26:48Z</time>
      </trkpt>
      <trkpt lat="47.24748" lon="-1.58262">
        <ele>51.8</ele>
        <time>2016-02-04T14:26:56Z</time>
      </trkpt>
      <trkpt lat="47.24742" lon="-1.58255">
        <ele>52.9</ele>
        <time>2016-02-04T14:27:05Z</time>
      </trkpt>
      <trkpt lat="47.24736" lon="-1.58233">
        <ele>52.5</ele>
        <time>2016-02-04T14:27:21Z</time>
      </trkpt>
      <trkpt lat="47.24732" lon="-1.58224">
        <ele>52.2</ele>
        <time>2016-02-04T14:27:27Z</time>
      </trkpt>
      <trkpt lat="47.24726" lon="-1.58217">
        <ele>52.4</ele>
        <time>2016-02-04T14:27:35Z</time>
      </trkpt>
      <trkpt lat="47.24719" lon="-1.5821">
        <ele>51.8</ele>
        <time>2016-02-04T14:27:40Z</time>
      </trkpt>
      <trkpt lat="47.24715" lon="-1.58201">
        <ele>51.9</ele>
        <time>2016-02-04T14:27:46Z</time>
      </trkpt>
      <trkpt lat="47.24711" lon="-1.5819">
        <ele>52.5</ele>
        <time>2016-02-04T14:27:52Z</time>
      </trkpt>
      <trkpt lat="47.24709" lon="-1.58177">
        <ele>52.4</ele>
        <time>2016-02-04T14:27:58Z</time>
      </trkpt>
      <trkpt lat="47.24705" lon="-1.58166">
        <ele>52.4</ele>
        <time>2016-02-04T14:28:04Z</time>
      </trkpt>
      <trkpt lat="47.24703" lon="-1.58154">
        <ele>52.6</ele>
        <time>2016-02-04T14:28:10Z</time>
      </trkpt>
      <trkpt lat="47.24696" lon="-1.58132">
        <ele>52.9</ele>
        <time>2016-02-04T14:28:21Z</time>
      </trkpt>
      <trkpt lat="47.24691" lon="-1.58124">
        <ele>52.9</ele>
        <time>2016-02-04T14:28:26Z</time>
      </trkpt>
      <trkpt lat="47.24685" lon="-1.58116">
        <ele>53</ele>
        <time>2016-02-04T14:28:31Z</time>
      </trkpt>
      <trkpt lat="47.24679" lon="-1.58107">
        <ele>52.8</ele>
        <time>2016-02-04T14:28:36Z</time>
      </trkpt>
      <trkpt lat="47.24672" lon="-1.58099">
        <ele>53</ele>
        <time>2016-02-04T14:28:41Z</time>
      </trkpt>
      <trkpt lat="47.24665" lon="-1.58093">
        <ele>53.1</ele>
        <time>2016-02-04T14:28:46Z</time>
      </trkpt>
      <trkpt lat="47.24658" lon="-1.58093">
        <ele>52.1</ele>
        <time>2016-02-04T14:28:53Z</time>
      </trkpt>
      <trkpt lat="47.24653" lon="-1.58084">
        <ele>51</ele>
        <time>2016-02-04T14:29:09Z</time>
      </trkpt>
      <trkpt lat="47.24654" lon="-1.58073">
        <ele>49.9</ele>
        <time>2016-02-04T14:29:20Z</time>
      </trkpt>
      <trkpt lat="47.24653" lon="-1.58055">
        <ele>48.4</ele>
        <time>2016-02-04T14:29:33Z</time>
      </trkpt>
      <trkpt lat="47.24646" lon="-1.58049">
        <ele>47.3</ele>
        <time>2016-02-04T14:29:40Z</time>
      </trkpt>
      <trkpt lat="47.24639" lon="-1.58044">
        <ele>46.4</ele>
        <time>2016-02-04T14:29:46Z</time>
      </trkpt>
      <trkpt lat="47.24633" lon="-1.58036">
        <ele>46.4</ele>
        <time>2016-02-04T14:29:53Z</time>
      </trkpt>
      <trkpt lat="47.24627" lon="-1.58027">
        <ele>46.2</ele>
        <time>2016-02-04T14:29:59Z</time>
      </trkpt>
      <trkpt lat="47.24622" lon="-1.58019">
        <ele>46.4</ele>
        <time>2016-02-04T14:30:04Z</time>
      </trkpt>
      <trkpt lat="47.24615" lon="-1.58011">
        <ele>45.8</ele>
        <time>2016-02-04T14:30:10Z</time>
      </trkpt>
      <trkpt lat="47.24608" lon="-1.58014">
        <ele>44.6</ele>
        <time>2016-02-04T14:30:18Z</time>
      </trkpt>
      <trkpt lat="47.24601" lon="-1.5802">
        <ele>45.7</ele>
        <time>2016-02-04T14:30:25Z</time>
      </trkpt>
      <trkpt lat="47.24586" lon="-1.58027">
        <ele>46.2</ele>
        <time>2016-02-04T14:30:39Z</time>
      </trkpt>
      <trkpt lat="47.2458" lon="-1.58035">
        <ele>46.8</ele>
        <time>2016-02-04T14:30:46Z</time>
      </trkpt>
      <trkpt lat="47.24573" lon="-1.58042">
        <ele>47.4</ele>
        <time>2016-02-04T14:30:53Z</time>
      </trkpt>
      <trkpt lat="47.24567" lon="-1.58049">
        <ele>48.2</ele>
        <time>2016-02-04T14:31:01Z</time>
      </trkpt>
      <trkpt lat="47.24562" lon="-1.58042">
        <ele>48.4</ele>
        <time>2016-02-04T14:31:17Z</time>
      </trkpt>
      <trkpt lat="47.24556" lon="-1.58036">
        <ele>48.2</ele>
        <time>2016-02-04T14:31:32Z</time>
      </trkpt>
      <trkpt lat="47.24552" lon="-1.58015">
        <ele>48.1</ele>
        <time>2016-02-04T14:31:51Z</time>
      </trkpt>
      <trkpt lat="47.2455" lon="-1.58003">
        <ele>48.4</ele>
        <time>2016-02-04T14:32:00Z</time>
      </trkpt>
      <trkpt lat="47.24551" lon="-1.57991">
        <ele>47.3</ele>
        <time>2016-02-04T14:32:08Z</time>
      </trkpt>
      <trkpt lat="47.24554" lon="-1.5798">
        <ele>45.7</ele>
        <time>2016-02-04T14:32:16Z</time>
      </trkpt>
      <trkpt lat="47.24557" lon="-1.57969">
        <ele>45.1</ele>
        <time>2016-02-04T14:32:23Z</time>
      </trkpt>
      <trkpt lat="47.24562" lon="-1.57961">
        <ele>44.6</ele>
        <time>2016-02-04T14:32:29Z</time>
      </trkpt>
      <trkpt lat="47.24567" lon="-1.57951">
        <ele>43.8</ele>
        <time>2016-02-04T14:32:36Z</time>
      </trkpt>
      <trkpt lat="47.24578" lon="-1.57932">
        <ele>42.6</ele>
        <time>2016-02-04T14:32:46Z</time>
      </trkpt>
      <trkpt lat="47.24584" lon="-1.57924">
        <ele>42</ele>
        <time>2016-02-04T14:32:51Z</time>
      </trkpt>
      <trkpt lat="47.2459" lon="-1.57917">
        <ele>41.6</ele>
        <time>2016-02-04T14:32:57Z</time>
      </trkpt>
      <trkpt lat="47.24596" lon="-1.57908">
        <ele>41.1</ele>
        <time>2016-02-04T14:33:04Z</time>
      </trkpt>
      <trkpt lat="47.24602" lon="-1.57902">
        <ele>39.7</ele>
        <time>2016-02-04T14:33:10Z</time>
      </trkpt>
      <trkpt lat="47.24608" lon="-1.57895">
        <ele>38.9</ele>
        <time>2016-02-04T14:33:15Z</time>
      </trkpt>
      <trkpt lat="47.24613" lon="-1.57886">
        <ele>37.8</ele>
        <time>2016-02-04T14:33:21Z</time>
      </trkpt>
      <trkpt lat="47.24617" lon="-1.57876">
        <ele>36.3</ele>
        <time>2016-02-04T14:33:28Z</time>
      </trkpt>
      <trkpt lat="47.24621" lon="-1.57867">
        <ele>34.3</ele>
        <time>2016-02-04T14:33:34Z</time>
      </trkpt>
      <trkpt lat="47.24625" lon="-1.57856">
        <ele>32.3</ele>
        <time>2016-02-04T14:33:41Z</time>
      </trkpt>
      <trkpt lat="47.24635" lon="-1.57838">
        <ele>31.1</ele>
        <time>2016-02-04T14:33:52Z</time>
      </trkpt>
      <trkpt lat="47.24638" lon="-1.57827">
        <ele>30.9</ele>
        <time>2016-02-04T14:33:57Z</time>
      </trkpt>
      <trkpt lat="47.24641" lon="-1.57816">
        <ele>30.9</ele>
        <time>2016-02-04T14:34:03Z</time>
      </trkpt>
      <trkpt lat="47.2464" lon="-1.57805">
        <ele>31.3</ele>
        <time>2016-02-04T14:34:11Z</time>
      </trkpt>
      <trkpt lat="47.24639" lon="-1.57793">
        <ele>30.6</ele>
        <time>2016-02-04T14:34:19Z</time>
      </trkpt>
      <trkpt lat="47.24637" lon="-1.57783">
        <ele>30.4</ele>
        <time>2016-02-04T14:34:27Z</time>
      </trkpt>
      <trkpt lat="47.24634" lon="-1.57773">
        <ele>31</ele>
        <time>2016-02-04T14:34:43Z</time>
      </trkpt>
      <trkpt lat="47.24649" lon="-1.57776">
        <ele>31.2</ele>
        <time>2016-02-04T14:35:43Z</time>
      </trkpt>
      <trkpt lat="47.24657" lon="-1.57776">
        <ele>30.7</ele>
        <time>2016-02-04T14:36:09Z</time>
      </trkpt>
      <trkpt lat="47.24658" lon="-1.57765">
        <ele>31</ele>
        <time>2016-02-04T14:36:54Z</time>
      </trkpt>
      <trkpt lat="47.24652" lon="-1.57759">
        <ele>31.3</ele>
        <time>2016-02-04T14:37:01Z</time>
      </trkpt>
      <trkpt lat="47.24645" lon="-1.57752">
        <ele>31.2</ele>
        <time>2016-02-04T14:37:13Z</time>
      </trkpt>
      <trkpt lat="47.24647" lon="-1.57755">
        <ele>30.3</ele>
        <time>2016-02-04T14:38:37Z</time>
      </trkpt>
      <trkpt lat="47.24651" lon="-1.57733">
        <ele>31.2</ele>
        <time>2016-02-04T14:39:05Z</time>
      </trkpt>
      <trkpt lat="47.2465" lon="-1.57723">
        <ele>30.7</ele>
        <time>2016-02-04T14:39:17Z</time>
      </trkpt>
      <trkpt lat="47.24648" lon="-1.57711">
        <ele>31.4</ele>
        <time>2016-02-04T14:39:30Z</time>
      </trkpt>
      <trkpt lat="47.24645" lon="-1.57721">
        <ele>31</ele>
        <time>2016-02-04T14:39:54Z</time>
      </trkpt>
      <trkpt lat="47.24636" lon="-1.57744">
        <ele>30.9</ele>
        <time>2016-02-04T14:40:05Z</time>
      </trkpt>
      <trkpt lat="47.24633" lon="-1.57755">
        <ele>30.7</ele>
        <time>2016-02-04T14:40:09Z</time>
      </trkpt>
      <trkpt lat="47.2463" lon="-1.57767">
        <ele>31.7</ele>
        <time>2016-02-04T14:40:13Z</time>
      </trkpt>
      <trkpt lat="47.24628" lon="-1.57778">
        <ele>31.3</ele>
        <time>2016-02-04T14:40:17Z</time>
      </trkpt>
      <trkpt lat="47.24624" lon="-1.5779">
        <ele>30.9</ele>
        <time>2016-02-04T14:40:21Z</time>
      </trkpt>
      <trkpt lat="47.24621" lon="-1.57802">
        <ele>31</ele>
        <time>2016-02-04T14:40:26Z</time>
      </trkpt>
      <trkpt lat="47.24618" lon="-1.57813">
        <ele>31.6</ele>
        <time>2016-02-04T14:40:31Z</time>
      </trkpt>
      <trkpt lat="47.24614" lon="-1.57823">
        <ele>31.3</ele>
        <time>2016-02-04T14:40:36Z</time>
      </trkpt>
      <trkpt lat="47.2461" lon="-1.57833">
        <ele>31</ele>
        <time>2016-02-04T14:40:42Z</time>
      </trkpt>
      <trkpt lat="47.24606" lon="-1.57842">
        <ele>31.4</ele>
        <time>2016-02-04T14:40:49Z</time>
      </trkpt>
      <trkpt lat="47.24599" lon="-1.5785">
        <ele>31.5</ele>
        <time>2016-02-04T14:40:56Z</time>
      </trkpt>
      <trkpt lat="47.24587" lon="-1.57866">
        <ele>31.6</ele>
        <time>2016-02-04T14:41:09Z</time>
      </trkpt>
      <trkpt lat="47.24579" lon="-1.57871">
        <ele>31.7</ele>
        <time>2016-02-04T14:41:15Z</time>
      </trkpt>
      <trkpt lat="47.24573" lon="-1.57877">
        <ele>31.8</ele>
        <time>2016-02-04T14:41:21Z</time>
      </trkpt>
      <trkpt lat="47.24566" lon="-1.57883">
        <ele>32.2</ele>
        <time>2016-02-04T14:41:27Z</time>
      </trkpt>
      <trkpt lat="47.2456" lon="-1.5789">
        <ele>32.2</ele>
        <time>2016-02-04T14:41:33Z</time>
      </trkpt>
      <trkpt lat="47.24553" lon="-1.57893">
        <ele>33</ele>
        <time>2016-02-04T14:41:39Z</time>
      </trkpt>
      <trkpt lat="47.24545" lon="-1.57898">
        <ele>33</ele>
        <time>2016-02-04T14:41:48Z</time>
      </trkpt>
      <trkpt lat="47.24539" lon="-1.57892">
        <ele>32.6</ele>
        <time>2016-02-04T14:42:00Z</time>
      </trkpt>
      <trkpt lat="47.24529" lon="-1.57908">
        <ele>35.8</ele>
        <time>2016-02-04T14:42:16Z</time>
      </trkpt>
      <trkpt lat="47.24527" lon="-1.57919">
        <ele>36.6</ele>
        <time>2016-02-04T14:42:24Z</time>
      </trkpt>
      <trkpt lat="47.24522" lon="-1.57929">
        <ele>37</ele>
        <time>2016-02-04T14:42:32Z</time>
      </trkpt>
      <trkpt lat="47.24515" lon="-1.57933">
        <ele>37.1</ele>
        <time>2016-02-04T14:42:36Z</time>
      </trkpt>
      <trkpt lat="47.24507" lon="-1.57937">
        <ele>37.8</ele>
        <time>2016-02-04T14:42:42Z</time>
      </trkpt>
      <trkpt lat="47.24499" lon="-1.5794">
        <ele>39.1</ele>
        <time>2016-02-04T14:42:48Z</time>
      </trkpt>
      <trkpt lat="47.24491" lon="-1.57941">
        <ele>39.6</ele>
        <time>2016-02-04T14:42:54Z</time>
      </trkpt>
      <trkpt lat="47.24483" lon="-1.57943">
        <ele>41.3</ele>
        <time>2016-02-04T14:43:01Z</time>
      </trkpt>
      <trkpt lat="47.24469" lon="-1.5795">
        <ele>42</ele>
        <time>2016-02-04T14:43:15Z</time>
      </trkpt>
      <trkpt lat="47.24461" lon="-1.57954">
        <ele>42.2</ele>
        <time>2016-02-04T14:43:21Z</time>
      </trkpt>
      <trkpt lat="47.24454" lon="-1.57958">
        <ele>43.5</ele>
        <time>2016-02-04T14:43:27Z</time>
      </trkpt>
      <trkpt lat="47.24447" lon="-1.57964">
        <ele>43.8</ele>
        <time>2016-02-04T14:43:33Z</time>
      </trkpt>
      <trkpt lat="47.24441" lon="-1.57972">
        <ele>44.6</ele>
        <time>2016-02-04T14:43:40Z</time>
      </trkpt>
      <trkpt lat="47.24436" lon="-1.5798">
        <ele>45.9</ele>
        <time>2016-02-04T14:43:47Z</time>
      </trkpt>
      <trkpt lat="47.24432" lon="-1.57991">
        <ele>47.6</ele>
        <time>2016-02-04T14:43:56Z</time>
      </trkpt>
      <trkpt lat="47.2443" lon="-1.58002">
        <ele>48.3</ele>
        <time>2016-02-04T14:44:04Z</time>
      </trkpt>
      <trkpt lat="47.2442" lon="-1.58021">
        <ele>50.1</ele>
        <time>2016-02-04T14:44:21Z</time>
      </trkpt>
      <trkpt lat="47.24412" lon="-1.58021">
        <ele>50.8</ele>
        <time>2016-02-04T14:44:26Z</time>
      </trkpt>
      <trkpt lat="47.24405" lon="-1.58019">
        <ele>51.4</ele>
        <time>2016-02-04T14:44:31Z</time>
      </trkpt>
      <trkpt lat="47.24398" lon="-1.58014">
        <ele>51.7</ele>
        <time>2016-02-04T14:44:36Z</time>
      </trkpt>
      <trkpt lat="47.24391" lon="-1.58007">
        <ele>51.9</ele>
        <time>2016-02-04T14:44:41Z</time>
      </trkpt>
      <trkpt lat="47.24385" lon="-1.58001">
        <ele>51.4</ele>
        <time>2016-02-04T14:44:46Z</time>
      </trkpt>
      <trkpt lat="47.24378" lon="-1.57995">
        <ele>51.3</ele>
        <time>2016-02-04T14:44:52Z</time>
      </trkpt>
      <trkpt lat="47.24372" lon="-1.57988">
        <ele>52.3</ele>
        <time>2016-02-04T14:44:58Z</time>
      </trkpt>
      <trkpt lat="47.24366" lon="-1.5798">
        <ele>53.3</ele>
        <time>2016-02-04T14:45:05Z</time>
      </trkpt>
      <trkpt lat="47.24351" lon="-1.57971">
        <ele>54</ele>
        <time>2016-02-04T14:45:19Z</time>
      </trkpt>
      <trkpt lat="47.24344" lon="-1.57965">
        <ele>54.4</ele>
        <time>2016-02-04T14:45:25Z</time>
      </trkpt>
      <trkpt lat="47.24338" lon="-1.5796">
        <ele>55</ele>
        <time>2016-02-04T14:45:30Z</time>
      </trkpt>
      <trkpt lat="47.24331" lon="-1.57954">
        <ele>55.3</ele>
        <time>2016-02-04T14:45:35Z</time>
      </trkpt>
      <trkpt lat="47.24327" lon="-1.57945">
        <ele>56.1</ele>
        <time>2016-02-04T14:45:40Z</time>
      </trkpt>
      <trkpt lat="47.24323" lon="-1.57936">
        <ele>55.6</ele>
        <time>2016-02-04T14:45:45Z</time>
      </trkpt>
      <trkpt lat="47.24323" lon="-1.57924">
        <ele>55.9</ele>
        <time>2016-02-04T14:45:51Z</time>
      </trkpt>
      <trkpt lat="47.24323" lon="-1.57912">
        <ele>57.5</ele>
        <time>2016-02-04T14:45:58Z</time>
      </trkpt>
      <trkpt lat="47.24324" lon="-1.579">
        <ele>57.3</ele>
        <time>2016-02-04T14:46:04Z</time>
      </trkpt>
      <trkpt lat="47.24324" lon="-1.57889">
        <ele>57</ele>
        <time>2016-02-04T14:46:10Z</time>
      </trkpt>
      <trkpt lat="47.24322" lon="-1.57866">
        <ele>57.9</ele>
        <time>2016-02-04T14:46:21Z</time>
      </trkpt>
      <trkpt lat="47.2432" lon="-1.57856">
        <ele>57.7</ele>
        <time>2016-02-04T14:46:26Z</time>
      </trkpt>
      <trkpt lat="47.2432" lon="-1.57844">
        <ele>56.6</ele>
        <time>2016-02-04T14:46:32Z</time>
      </trkpt>
      <trkpt lat="47.24318" lon="-1.57833">
        <ele>56.3</ele>
        <time>2016-02-04T14:46:38Z</time>
      </trkpt>
      <trkpt lat="47.24315" lon="-1.57822">
        <ele>56.8</ele>
        <time>2016-02-04T14:46:44Z</time>
      </trkpt>
      <trkpt lat="47.24311" lon="-1.57814">
        <ele>57.6</ele>
        <time>2016-02-04T14:46:50Z</time>
      </trkpt>
      <trkpt lat="47.24304" lon="-1.57807">
        <ele>57.2</ele>
        <time>2016-02-04T14:46:57Z</time>
      </trkpt>
      <trkpt lat="47.24297" lon="-1.57805">
        <ele>57.1</ele>
        <time>2016-02-04T14:47:04Z</time>
      </trkpt>
      <trkpt lat="47.24289" lon="-1.57806">
        <ele>57.6</ele>
        <time>2016-02-04T14:47:09Z</time>
      </trkpt>
      <trkpt lat="47.24281" lon="-1.57806">
        <ele>57.9</ele>
        <time>2016-02-04T14:47:15Z</time>
      </trkpt>
      <trkpt lat="47.24265" lon="-1.57809">
        <ele>58.1</ele>
        <time>2016-02-04T14:47:27Z</time>
      </trkpt>
      <trkpt lat="47.24258" lon="-1.57812">
        <ele>58.1</ele>
        <time>2016-02-04T14:47:32Z</time>
      </trkpt>
      <trkpt lat="47.2425" lon="-1.57814">
        <ele>58</ele>
        <time>2016-02-04T14:47:37Z</time>
      </trkpt>
      <trkpt lat="47.24242" lon="-1.57817">
        <ele>59.1</ele>
        <time>2016-02-04T14:47:43Z</time>
      </trkpt>
      <trkpt lat="47.24234" lon="-1.57819">
        <ele>58.7</ele>
        <time>2016-02-04T14:47:48Z</time>
      </trkpt>
      <trkpt lat="47.24227" lon="-1.57822">
        <ele>58.7</ele>
        <time>2016-02-04T14:47:52Z</time>
      </trkpt>
      <trkpt lat="47.24219" lon="-1.57823">
        <ele>58.8</ele>
        <time>2016-02-04T14:47:57Z</time>
      </trkpt>
      <trkpt lat="47.24212" lon="-1.57825">
        <ele>58.6</ele>
        <time>2016-02-04T14:48:02Z</time>
      </trkpt>
      <trkpt lat="47.24205" lon="-1.57828">
        <ele>58.7</ele>
        <time>2016-02-04T14:48:08Z</time>
      </trkpt>
      <trkpt lat="47.24198" lon="-1.5783">
        <ele>59.2</ele>
        <time>2016-02-04T14:48:16Z</time>
      </trkpt>
      <trkpt lat="47.24183" lon="-1.57822">
        <ele>60.1</ele>
        <time>2016-02-04T14:48:30Z</time>
      </trkpt>
      <trkpt lat="47.24175" lon="-1.5782">
        <ele>59.7</ele>
        <time>2016-02-04T14:48:36Z</time>
      </trkpt>
      <trkpt lat="47.24168" lon="-1.57821">
        <ele>60.3</ele>
        <time>2016-02-04T14:48:42Z</time>
      </trkpt>
      <trkpt lat="47.24161" lon="-1.57823">
        <ele>60.2</ele>
        <time>2016-02-04T14:48:48Z</time>
      </trkpt>
      <trkpt lat="47.24153" lon="-1.57825">
        <ele>60.7</ele>
        <time>2016-02-04T14:48:56Z</time>
      </trkpt>
      <trkpt lat="47.24145" lon="-1.57825">
        <ele>61.6</ele>
        <time>2016-02-04T14:49:03Z</time>
      </trkpt>
      <trkpt lat="47.24137" lon="-1.57823">
        <ele>62</ele>
        <time>2016-02-04T14:49:09Z</time>
      </trkpt>
      <trkpt lat="47.24129" lon="-1.57825">
        <ele>62.2</ele>
        <time>2016-02-04T14:49:15Z</time>
      </trkpt>
      <trkpt lat="47.24121" lon="-1.57825">
        <ele>62.4</ele>
        <time>2016-02-04T14:49:20Z</time>
      </trkpt>
      <trkpt lat="47.24111" lon="-1.57811">
        <ele>62</ele>
        <time>2016-02-04T14:49:33Z</time>
      </trkpt>
      <trkpt lat="47.24112" lon="-1.57799">
        <ele>62.5</ele>
        <time>2016-02-04T14:49:39Z</time>
      </trkpt>
      <trkpt lat="47.24113" lon="-1.57788">
        <ele>61.5</ele>
        <time>2016-02-04T14:49:44Z</time>
      </trkpt>
      <trkpt lat="47.24114" lon="-1.57776">
        <ele>62.2</ele>
        <time>2016-02-04T14:49:49Z</time>
      </trkpt>
      <trkpt lat="47.24115" lon="-1.57765">
        <ele>62</ele>
        <time>2016-02-04T14:49:54Z</time>
      </trkpt>
      <trkpt lat="47.24116" lon="-1.57754">
        <ele>61.1</ele>
        <time>2016-02-04T14:49:59Z</time>
      </trkpt>
      <trkpt lat="47.24119" lon="-1.57743">
        <ele>61.4</ele>
        <time>2016-02-04T14:50:05Z</time>
      </trkpt>
      <trkpt lat="47.24123" lon="-1.57733">
        <ele>61</ele>
        <time>2016-02-04T14:50:11Z</time>
      </trkpt>
      <trkpt lat="47.24128" lon="-1.57723">
        <ele>61.3</ele>
        <time>2016-02-04T14:50:17Z</time>
      </trkpt>
      <trkpt lat="47.24131" lon="-1.57713">
        <ele>61</ele>
        <time>2016-02-04T14:50:24Z</time>
      </trkpt>
      <trkpt lat="47.24127" lon="-1.5769">
        <ele>60.6</ele>
        <time>2016-02-04T14:50:36Z</time>
      </trkpt>
      <trkpt lat="47.24128" lon="-1.57678">
        <ele>60.5</ele>
        <time>2016-02-04T14:50:43Z</time>
      </trkpt>
      <trkpt lat="47.24129" lon="-1.57666">
        <ele>60.4</ele>
        <time>2016-02-04T14:50:50Z</time>
      </trkpt>
      <trkpt lat="47.24129" lon="-1.57655">
        <ele>60.7</ele>
        <time>2016-02-04T14:50:56Z</time>
      </trkpt>
      <trkpt lat="47.24131" lon="-1.57643">
        <ele>60.4</ele>
        <time>2016-02-04T14:51:02Z</time>
      </trkpt>
      <trkpt lat="47.24134" lon="-1.57633">
        <ele>60.3</ele>
        <time>2016-02-04T14:51:07Z</time>
      </trkpt>
      <trkpt lat="47.24137" lon="-1.57622">
        <ele>60.5</ele>
        <time>2016-02-04T14:51:12Z</time>
      </trkpt>
      <trkpt lat="47.24141" lon="-1.57611">
        <ele>61.2</ele>
        <time>2016-02-04T14:51:18Z</time>
      </trkpt>
      <trkpt lat="47.24143" lon="-1.57602">
        <ele>61.3</ele>
        <time>2016-02-04T14:51:23Z</time>
      </trkpt>
      <trkpt lat="47.24145" lon="-1.57591">
        <ele>61.1</ele>
        <time>2016-02-04T14:51:28Z</time>
      </trkpt>
      <trkpt lat="47.2414" lon="-1.5757">
        <ele>60.3</ele>
        <time>2016-02-04T14:51:38Z</time>
      </trkpt>
      <trkpt lat="47.24137" lon="-1.57559">
        <ele>60.9</ele>
        <time>2016-02-04T14:51:43Z</time>
      </trkpt>
      <trkpt lat="47.24135" lon="-1.57546">
        <ele>60.7</ele>
        <time>2016-02-04T14:51:49Z</time>
      </trkpt>
      <trkpt lat="47.24134" lon="-1.57535">
        <ele>60.8</ele>
        <time>2016-02-04T14:51:54Z</time>
      </trkpt>
      <trkpt lat="47.2413" lon="-1.57524">
        <ele>60.8</ele>
        <time>2016-02-04T14:51:59Z</time>
      </trkpt>
      <trkpt lat="47.24127" lon="-1.57512">
        <ele>60.1</ele>
        <time>2016-02-04T14:52:05Z</time>
      </trkpt>
      <trkpt lat="47.24125" lon="-1.57502">
        <ele>60.9</ele>
        <time>2016-02-04T14:52:10Z</time>
      </trkpt>
      <trkpt lat="47.24128" lon="-1.57491">
        <ele>61.2</ele>
        <time>2016-02-04T14:52:16Z</time>
      </trkpt>
      <trkpt lat="47.24132" lon="-1.57482">
        <ele>60.8</ele>
        <time>2016-02-04T14:52:21Z</time>
      </trkpt>
      <trkpt lat="47.24135" lon="-1.57471">
        <ele>61.1</ele>
        <time>2016-02-04T14:52:26Z</time>
      </trkpt>
      <trkpt lat="47.24139" lon="-1.57461">
        <ele>61.1</ele>
        <time>2016-02-04T14:52:30Z</time>
      </trkpt>
      <trkpt lat="47.24147" lon="-1.57441">
        <ele>60.9</ele>
        <time>2016-02-04T14:52:39Z</time>
      </trkpt>
      <trkpt lat="47.24148" lon="-1.57429">
        <ele>61.1</ele>
        <time>2016-02-04T14:52:45Z</time>
      </trkpt>
      <trkpt lat="47.24151" lon="-1.57418">
        <ele>60.5</ele>
        <time>2016-02-04T14:52:51Z</time>
      </trkpt>
      <trkpt lat="47.2415" lon="-1.57407">
        <ele>60.7</ele>
        <time>2016-02-04T14:52:56Z</time>
      </trkpt>
      <trkpt lat="47.2415" lon="-1.57396">
        <ele>60.8</ele>
        <time>2016-02-04T14:53:02Z</time>
      </trkpt>
      <trkpt lat="47.2415" lon="-1.57385">
        <ele>60.3</ele>
        <time>2016-02-04T14:53:08Z</time>
      </trkpt>
      <trkpt lat="47.24149" lon="-1.57373">
        <ele>60.4</ele>
        <time>2016-02-04T14:53:15Z</time>
      </trkpt>
      <trkpt lat="47.24154" lon="-1.57364">
        <ele>59.8</ele>
        <time>2016-02-04T14:53:33Z</time>
      </trkpt>
      <trkpt lat="47.24159" lon="-1.57344">
        <ele>60</ele>
        <time>2016-02-04T14:53:51Z</time>
      </trkpt>
      <trkpt lat="47.24155" lon="-1.57334">
        <ele>59.7</ele>
        <time>2016-02-04T14:53:58Z</time>
      </trkpt>
      <trkpt lat="47.24157" lon="-1.57323">
        <ele>59.3</ele>
        <time>2016-02-04T14:54:06Z</time>
      </trkpt>
      <trkpt lat="47.24157" lon="-1.57312">
        <ele>60.4</ele>
        <time>2016-02-04T14:54:13Z</time>
      </trkpt>
      <trkpt lat="47.2416" lon="-1.57301">
        <ele>59.9</ele>
        <time>2016-02-04T14:54:20Z</time>
      </trkpt>
      <trkpt lat="47.24162" lon="-1.57289">
        <ele>59.6</ele>
        <time>2016-02-04T14:54:26Z</time>
      </trkpt>
      <trkpt lat="47.24165" lon="-1.57279">
        <ele>59.2</ele>
        <time>2016-02-04T14:54:31Z</time>
      </trkpt>
      <trkpt lat="47.24167" lon="-1.57268">
        <ele>59.8</ele>
        <time>2016-02-04T14:54:37Z</time>
      </trkpt>
      <trkpt lat="47.24172" lon="-1.57245">
        <ele>60.1</ele>
        <time>2016-02-04T14:54:49Z</time>
      </trkpt>
      <trkpt lat="47.24174" lon="-1.57235">
        <ele>60.1</ele>
        <time>2016-02-04T14:54:54Z</time>
      </trkpt>
      <trkpt lat="47.24177" lon="-1.57224">
        <ele>59.4</ele>
        <time>2016-02-04T14:55:00Z</time>
      </trkpt>
      <trkpt lat="47.24178" lon="-1.57214">
        <ele>58.4</ele>
        <time>2016-02-04T14:55:05Z</time>
      </trkpt>
      <trkpt lat="47.24179" lon="-1.57203">
        <ele>57.4</ele>
        <time>2016-02-04T14:55:10Z</time>
      </trkpt>
      <trkpt lat="47.2418" lon="-1.57191">
        <ele>58.2</ele>
        <time>2016-02-04T14:55:16Z</time>
      </trkpt>
      <trkpt lat="47.24181" lon="-1.57181">
        <ele>57.9</ele>
        <time>2016-02-04T14:55:22Z</time>
      </trkpt>
      <trkpt lat="47.24182" lon="-1.57169">
        <ele>57.3</ele>
        <time>2016-02-04T14:55:29Z</time>
      </trkpt>
      <trkpt lat="47.24183" lon="-1.57157">
        <ele>56.8</ele>
        <time>2016-02-04T14:55:36Z</time>
      </trkpt>
      <trkpt lat="47.24184" lon="-1.57145">
        <ele>56.4</ele>
        <time>2016-02-04T14:55:43Z</time>
      </trkpt>
      <trkpt lat="47.2418" lon="-1.57124">
        <ele>55.2</ele>
        <time>2016-02-04T14:55:57Z</time>
      </trkpt>
      <trkpt lat="47.24179" lon="-1.57112">
        <ele>54.5</ele>
        <time>2016-02-04T14:56:03Z</time>
      </trkpt>
      <trkpt lat="47.2418" lon="-1.57102">
        <ele>54.2</ele>
        <time>2016-02-04T14:56:08Z</time>
      </trkpt>
      <trkpt lat="47.2418" lon="-1.5709">
        <ele>53.9</ele>
        <time>2016-02-04T14:56:13Z</time>
      </trkpt>
      <trkpt lat="47.24178" lon="-1.57079">
        <ele>53.3</ele>
        <time>2016-02-04T14:56:18Z</time>
      </trkpt>
      <trkpt lat="47.24178" lon="-1.57068">
        <ele>54</ele>
        <time>2016-02-04T14:56:23Z</time>
      </trkpt>
      <trkpt lat="47.24176" lon="-1.57057">
        <ele>54.5</ele>
        <time>2016-02-04T14:56:28Z</time>
      </trkpt>
      <trkpt lat="47.24173" lon="-1.57046">
        <ele>54.2</ele>
        <time>2016-02-04T14:56:33Z</time>
      </trkpt>
      <trkpt lat="47.2417" lon="-1.57035">
        <ele>53.8</ele>
        <time>2016-02-04T14:56:39Z</time>
      </trkpt>
      <trkpt lat="47.24167" lon="-1.57024">
        <ele>53.8</ele>
        <time>2016-02-04T14:56:45Z</time>
      </trkpt>
      <trkpt lat="47.24163" lon="-1.57">
        <ele>53.3</ele>
        <time>2016-02-04T14:56:57Z</time>
      </trkpt>
      <trkpt lat="47.2416" lon="-1.56989">
        <ele>53</ele>
        <time>2016-02-04T14:57:02Z</time>
      </trkpt>
      <trkpt lat="47.24159" lon="-1.56979">
        <ele>53</ele>
        <time>2016-02-04T14:57:07Z</time>
      </trkpt>
      <trkpt lat="47.24156" lon="-1.56968">
        <ele>52.4</ele>
        <time>2016-02-04T14:57:12Z</time>
      </trkpt>
      <trkpt lat="47.24154" lon="-1.56956">
        <ele>52.8</ele>
        <time>2016-02-04T14:57:18Z</time>
      </trkpt>
      <trkpt lat="47.24152" lon="-1.56946">
        <ele>51.7</ele>
        <time>2016-02-04T14:57:24Z</time>
      </trkpt>
      <trkpt lat="47.24149" lon="-1.56933">
        <ele>51.6</ele>
        <time>2016-02-04T14:57:30Z</time>
      </trkpt>
      <trkpt lat="47.24149" lon="-1.56922">
        <ele>52</ele>
        <time>2016-02-04T14:57:35Z</time>
      </trkpt>
      <trkpt lat="47.24152" lon="-1.56911">
        <ele>51.5</ele>
        <time>2016-02-04T14:57:43Z</time>
      </trkpt>
      <trkpt lat="47.24159" lon="-1.56904">
        <ele>50.1</ele>
        <time>2016-02-04T14:57:49Z</time>
      </trkpt>
      <trkpt lat="47.24174" lon="-1.56893">
        <ele>49.6</ele>
        <time>2016-02-04T14:57:59Z</time>
      </trkpt>
      <trkpt lat="47.24181" lon="-1.56892">
        <ele>49.7</ele>
        <time>2016-02-04T14:58:05Z</time>
      </trkpt>
      <trkpt lat="47.24189" lon="-1.56895">
        <ele>49.5</ele>
        <time>2016-02-04T14:58:12Z</time>
      </trkpt>
      <trkpt lat="47.24194" lon="-1.56903">
        <ele>49.1</ele>
        <time>2016-02-04T14:58:17Z</time>
      </trkpt>
      <trkpt lat="47.242" lon="-1.56912">
        <ele>49.1</ele>
        <time>2016-02-04T14:58:22Z</time>
      </trkpt>
      <trkpt lat="47.24207" lon="-1.56919">
        <ele>48.6</ele>
        <time>2016-02-04T14:58:28Z</time>
      </trkpt>
      <trkpt lat="47.24212" lon="-1.56926">
        <ele>49</ele>
        <time>2016-02-04T14:58:33Z</time>
      </trkpt>
      <trkpt lat="47.24219" lon="-1.56931">
        <ele>47.5</ele>
        <time>2016-02-04T14:58:44Z</time>
      </trkpt>
      <trkpt lat="47.24228" lon="-1.56932">
        <ele>46.6</ele>
        <time>2016-02-04T14:58:52Z</time>
      </trkpt>
      <trkpt lat="47.24237" lon="-1.56923">
        <ele>43.8</ele>
        <time>2016-02-04T14:59:20Z</time>
      </trkpt>
      <trkpt lat="47.24245" lon="-1.56921">
        <ele>43.1</ele>
        <time>2016-02-04T14:59:28Z</time>
      </trkpt>
      <trkpt lat="47.24252" lon="-1.56919">
        <ele>41.7</ele>
        <time>2016-02-04T14:59:34Z</time>
      </trkpt>
      <trkpt lat="47.24259" lon="-1.56915">
        <ele>40.2</ele>
        <time>2016-02-04T14:59:41Z</time>
      </trkpt>
      <trkpt lat="47.24265" lon="-1.56906">
        <ele>38.7</ele>
        <time>2016-02-04T14:59:48Z</time>
      </trkpt>
      <trkpt lat="47.24272" lon="-1.56901">
        <ele>37.6</ele>
        <time>2016-02-04T14:59:55Z</time>
      </trkpt>
      <trkpt lat="47.24286" lon="-1.56896">
        <ele>35.6</ele>
        <time>2016-02-04T15:00:09Z</time>
      </trkpt>
      <trkpt lat="47.24294" lon="-1.56893">
        <ele>34.5</ele>
        <time>2016-02-04T15:00:16Z</time>
      </trkpt>
      <trkpt lat="47.24299" lon="-1.56885">
        <ele>33.2</ele>
        <time>2016-02-04T15:00:25Z</time>
      </trkpt>
      <trkpt lat="47.24302" lon="-1.56874">
        <ele>33.8</ele>
        <time>2016-02-04T15:00:41Z</time>
      </trkpt>
      <trkpt lat="47.24308" lon="-1.56866">
        <ele>34.4</ele>
        <time>2016-02-04T15:00:47Z</time>
      </trkpt>
      <trkpt lat="47.24311" lon="-1.56855">
        <ele>33.5</ele>
        <time>2016-02-04T15:00:56Z</time>
      </trkpt>
      <trkpt lat="47.24311" lon="-1.56834">
        <ele>33.7</ele>
        <time>2016-02-04T15:01:08Z</time>
      </trkpt>
      <trkpt lat="47.24311" lon="-1.56823">
        <ele>34</ele>
        <time>2016-02-04T15:01:16Z</time>
      </trkpt>
      <trkpt lat="47.24313" lon="-1.56813">
        <ele>34.2</ele>
        <time>2016-02-04T15:01:22Z</time>
      </trkpt>
      <trkpt lat="47.24313" lon="-1.56801">
        <ele>33.5</ele>
        <time>2016-02-04T15:01:28Z</time>
      </trkpt>
      <trkpt lat="47.24316" lon="-1.5679">
        <ele>33.4</ele>
        <time>2016-02-04T15:01:34Z</time>
      </trkpt>
      <trkpt lat="47.24315" lon="-1.56778">
        <ele>33.8</ele>
        <time>2016-02-04T15:01:41Z</time>
      </trkpt>
      <trkpt lat="47.24314" lon="-1.56767">
        <ele>34.3</ele>
        <time>2016-02-04T15:01:48Z</time>
      </trkpt>
      <trkpt lat="47.24312" lon="-1.56756">
        <ele>34.5</ele>
        <time>2016-02-04T15:01:55Z</time>
      </trkpt>
      <trkpt lat="47.24309" lon="-1.56746">
        <ele>36.5</ele>
        <time>2016-02-04T15:02:03Z</time>
      </trkpt>
      <trkpt lat="47.24304" lon="-1.56724">
        <ele>35.9</ele>
        <time>2016-02-04T15:02:17Z</time>
      </trkpt>
      <trkpt lat="47.24303" lon="-1.56713">
        <ele>37.9</ele>
        <time>2016-02-04T15:02:25Z</time>
      </trkpt>
      <trkpt lat="47.243" lon="-1.56701">
        <ele>39.6</ele>
        <time>2016-02-04T15:02:33Z</time>
      </trkpt>
      <trkpt lat="47.24299" lon="-1.5669">
        <ele>40.4</ele>
        <time>2016-02-04T15:02:39Z</time>
      </trkpt>
      <trkpt lat="47.24298" lon="-1.56678">
        <ele>42.3</ele>
        <time>2016-02-04T15:02:47Z</time>
      </trkpt>
      <trkpt lat="47.24296" lon="-1.56667">
        <ele>43.7</ele>
        <time>2016-02-04T15:02:54Z</time>
      </trkpt>
      <trkpt lat="47.24295" lon="-1.56656">
        <ele>44.7</ele>
        <time>2016-02-04T15:03:01Z</time>
      </trkpt>
      <trkpt lat="47.24293" lon="-1.56645">
        <ele>46.1</ele>
        <time>2016-02-04T15:03:08Z</time>
      </trkpt>
      <trkpt lat="47.24288" lon="-1.56623">
        <ele>46.9</ele>
        <time>2016-02-04T15:03:20Z</time>
      </trkpt>
      <trkpt lat="47.24288" lon="-1.56612">
        <ele>47.6</ele>
        <time>2016-02-04T15:03:26Z</time>
      </trkpt>
      <trkpt lat="47.24289" lon="-1.566">
        <ele>47.9</ele>
        <time>2016-02-04T15:03:33Z</time>
      </trkpt>
      <trkpt lat="47.2429" lon="-1.56589">
        <ele>47.7</ele>
        <time>2016-02-04T15:03:39Z</time>
      </trkpt>
      <trkpt lat="47.2429" lon="-1.56578">
        <ele>47.6</ele>
        <time>2016-02-04T15:03:44Z</time>
      </trkpt>
      <trkpt lat="47.24289" lon="-1.56567">
        <ele>46.4</ele>
        <time>2016-02-04T15:03:49Z</time>
      </trkpt>
      <trkpt lat="47.2429" lon="-1.56557">
        <ele>46.3</ele>
        <time>2016-02-04T15:03:55Z</time>
      </trkpt>
      <trkpt lat="47.24292" lon="-1.56546">
        <ele>45.5</ele>
        <time>2016-02-04T15:04:00Z</time>
      </trkpt>
      <trkpt lat="47.24295" lon="-1.56535">
        <ele>45.5</ele>
        <time>2016-02-04T15:04:06Z</time>
      </trkpt>
      <trkpt lat="47.24299" lon="-1.56523">
        <ele>44.8</ele>
        <time>2016-02-04T15:04:11Z</time>
      </trkpt>
      <trkpt lat="47.24309" lon="-1.56507">
        <ele>43.6</ele>
        <time>2016-02-04T15:04:23Z</time>
      </trkpt>
      <trkpt lat="47.24313" lon="-1.56497">
        <ele>41.9</ele>
        <time>2016-02-04T15:04:30Z</time>
      </trkpt>
      <trkpt lat="47.24315" lon="-1.56485">
        <ele>41.5</ele>
        <time>2016-02-04T15:04:36Z</time>
      </trkpt>
      <trkpt lat="47.24316" lon="-1.56475">
        <ele>41.1</ele>
        <time>2016-02-04T15:04:40Z</time>
      </trkpt>
      <trkpt lat="47.24317" lon="-1.56463">
        <ele>40.9</ele>
        <time>2016-02-04T15:04:47Z</time>
      </trkpt>
      <trkpt lat="47.2432" lon="-1.56453">
        <ele>40.6</ele>
        <time>2016-02-04T15:04:53Z</time>
      </trkpt>
      <trkpt lat="47.24324" lon="-1.56443">
        <ele>40</ele>
        <time>2016-02-04T15:04:58Z</time>
      </trkpt>
      <trkpt lat="47.24328" lon="-1.56433">
        <ele>38.5</ele>
        <time>2016-02-04T15:05:04Z</time>
      </trkpt>
      <trkpt lat="47.24333" lon="-1.56424">
        <ele>37.6</ele>
        <time>2016-02-04T15:05:12Z</time>
      </trkpt>
      <trkpt lat="47.24347" lon="-1.56413">
        <ele>35.4</ele>
        <time>2016-02-04T15:05:34Z</time>
      </trkpt>
      <trkpt lat="47.24354" lon="-1.56411">
        <ele>33.5</ele>
        <time>2016-02-04T15:05:56Z</time>
      </trkpt>
      <trkpt lat="47.24361" lon="-1.56405">
        <ele>32.7</ele>
        <time>2016-02-04T15:06:02Z</time>
      </trkpt>
      <trkpt lat="47.24363" lon="-1.56395">
        <ele>30.2</ele>
        <time>2016-02-04T15:06:11Z</time>
      </trkpt>
      <trkpt lat="47.24362" lon="-1.56384">
        <ele>29.2</ele>
        <time>2016-02-04T15:06:21Z</time>
      </trkpt>
      <trkpt lat="47.24361" lon="-1.56363">
        <ele>28.9</ele>
        <time>2016-02-04T15:06:34Z</time>
      </trkpt>
      <trkpt lat="47.24362" lon="-1.56352">
        <ele>29.1</ele>
        <time>2016-02-04T15:06:40Z</time>
      </trkpt>
      <trkpt lat="47.24365" lon="-1.56339">
        <ele>28.8</ele>
        <time>2016-02-04T15:06:48Z</time>
      </trkpt>
      <trkpt lat="47.24366" lon="-1.56328">
        <ele>30.3</ele>
        <time>2016-02-04T15:06:55Z</time>
      </trkpt>
      <trkpt lat="47.24368" lon="-1.56316">
        <ele>30.7</ele>
        <time>2016-02-04T15:07:01Z</time>
      </trkpt>
      <trkpt lat="47.24371" lon="-1.56305">
        <ele>30.5</ele>
        <time>2016-02-04T15:07:08Z</time>
      </trkpt>
      <trkpt lat="47.24374" lon="-1.56295">
        <ele>30.1</ele>
        <time>2016-02-04T15:07:13Z</time>
      </trkpt>
      <trkpt lat="47.24377" lon="-1.56284">
        <ele>30.1</ele>
        <time>2016-02-04T15:07:19Z</time>
      </trkpt>
      <trkpt lat="47.24378" lon="-1.56272">
        <ele>29.9</ele>
        <time>2016-02-04T15:07:25Z</time>
      </trkpt>
      <trkpt lat="47.24375" lon="-1.56248">
        <ele>29.7</ele>
        <time>2016-02-04T15:07:38Z</time>
      </trkpt>
      <trkpt lat="47.24372" lon="-1.56237">
        <ele>29.4</ele>
        <time>2016-02-04T15:07:45Z</time>
      </trkpt>
      <trkpt lat="47.24366" lon="-1.56228">
        <ele>29.9</ele>
        <time>2016-02-04T15:07:53Z</time>
      </trkpt>
      <trkpt lat="47.24363" lon="-1.56218">
        <ele>30.7</ele>
        <time>2016-02-04T15:08:01Z</time>
      </trkpt>
      <trkpt lat="47.24357" lon="-1.5621">
        <ele>30.7</ele>
        <time>2016-02-04T15:08:07Z</time>
      </trkpt>
      <trkpt lat="47.24351" lon="-1.56201">
        <ele>30.1</ele>
        <time>2016-02-04T15:08:13Z</time>
      </trkpt>
      <trkpt lat="47.24347" lon="-1.56191">
        <ele>30</ele>
        <time>2016-02-04T15:08:19Z</time>
      </trkpt>
      <trkpt lat="47.24341" lon="-1.56181">
        <ele>29.8</ele>
        <time>2016-02-04T15:08:24Z</time>
      </trkpt>
      <trkpt lat="47.24336" lon="-1.56174">
        <ele>30.5</ele>
        <time>2016-02-04T15:08:29Z</time>
      </trkpt>
      <trkpt lat="47.24325" lon="-1.56156">
        <ele>30.8</ele>
        <time>2016-02-04T15:08:41Z</time>
      </trkpt>
      <trkpt lat="47.24318" lon="-1.56149">
        <ele>30.8</ele>
        <time>2016-02-04T15:08:46Z</time>
      </trkpt>
      <trkpt lat="47.24311" lon="-1.56142">
        <ele>29.8</ele>
        <time>2016-02-04T15:08:52Z</time>
      </trkpt>
      <trkpt lat="47.24304" lon="-1.56136">
        <ele>30.2</ele>
        <time>2016-02-04T15:08:57Z</time>
      </trkpt>
      <trkpt lat="47.24298" lon="-1.56129">
        <ele>31.2</ele>
        <time>2016-02-04T15:09:03Z</time>
      </trkpt>
      <trkpt lat="47.24293" lon="-1.5612">
        <ele>31.1</ele>
        <time>2016-02-04T15:09:08Z</time>
      </trkpt>
      <trkpt lat="47.24287" lon="-1.56112">
        <ele>31.1</ele>
        <time>2016-02-04T15:09:14Z</time>
      </trkpt>
      <trkpt lat="47.2428" lon="-1.56106">
        <ele>30.4</ele>
        <time>2016-02-04T15:09:19Z</time>
      </trkpt>
      <trkpt lat="47.24274" lon="-1.56097">
        <ele>30.8</ele>
        <time>2016-02-04T15:09:25Z</time>
      </trkpt>
      <trkpt lat="47.24269" lon="-1.56087">
        <ele>30.4</ele>
        <time>2016-02-04T15:09:30Z</time>
      </trkpt>
      <trkpt lat="47.24263" lon="-1.56065">
        <ele>30.4</ele>
        <time>2016-02-04T15:09:42Z</time>
      </trkpt>
      <trkpt lat="47.24267" lon="-1.56054">
        <ele>29.7</ele>
        <time>2016-02-04T15:09:50Z</time>
      </trkpt>
      <trkpt lat="47.24264" lon="-1.56043">
        <ele>29.9</ele>
        <time>2016-02-04T15:09:55Z</time>
      </trkpt>
      <trkpt lat="47.24262" lon="-1.56032">
        <ele>29.6</ele>
        <time>2016-02-04T15:10:03Z</time>
      </trkpt>
      <trkpt lat="47.24259" lon="-1.56022">
        <ele>30.2</ele>
        <time>2016-02-04T15:10:11Z</time>
      </trkpt>
      <trkpt lat="47.24256" lon="-1.56012">
        <ele>29.2</ele>
        <time>2016-02-04T15:10:18Z</time>
      </trkpt>
      <trkpt lat="47.24255" lon="-1.56">
        <ele>29.9</ele>
        <time>2016-02-04T15:10:24Z</time>
      </trkpt>
      <trkpt lat="47.24254" lon="-1.55989">
        <ele>29.1</ele>
        <time>2016-02-04T15:10:30Z</time>
      </trkpt>
      <trkpt lat="47.24252" lon="-1.55977">
        <ele>29.8</ele>
        <time>2016-02-04T15:10:35Z</time>
      </trkpt>
      <trkpt lat="47.24248" lon="-1.55956">
        <ele>29.7</ele>
        <time>2016-02-04T15:10:44Z</time>
      </trkpt>
      <trkpt lat="47.24247" lon="-1.55944">
        <ele>29.8</ele>
        <time>2016-02-04T15:10:49Z</time>
      </trkpt>
      <trkpt lat="47.24246" lon="-1.55932">
        <ele>29.5</ele>
        <time>2016-02-04T15:10:54Z</time>
      </trkpt>
      <trkpt lat="47.24245" lon="-1.55921">
        <ele>29.2</ele>
        <time>2016-02-04T15:10:58Z</time>
      </trkpt>
      <trkpt lat="47.24243" lon="-1.5591">
        <ele>29.3</ele>
        <time>2016-02-04T15:11:03Z</time>
      </trkpt>
      <trkpt lat="47.24241" lon="-1.55898">
        <ele>29.4</ele>
        <time>2016-02-04T15:11:08Z</time>
      </trkpt>
      <trkpt lat="47.2424" lon="-1.55886">
        <ele>29.3</ele>
        <time>2016-02-04T15:11:13Z</time>
      </trkpt>
      <trkpt lat="47.24239" lon="-1.55875">
        <ele>29.4</ele>
        <time>2016-02-04T15:11:19Z</time>
      </trkpt>
      <trkpt lat="47.24238" lon="-1.55863">
        <ele>29</ele>
        <time>2016-02-04T15:11:25Z</time>
      </trkpt>
      <trkpt lat="47.24238" lon="-1.55852">
        <ele>29</ele>
        <time>2016-02-04T15:11:31Z</time>
      </trkpt>
      <trkpt lat="47.24238" lon="-1.5584">
        <ele>29.4</ele>
        <time>2016-02-04T15:11:38Z</time>
      </trkpt>
      <trkpt lat="47.24237" lon="-1.55816">
        <ele>30.5</ele>
        <time>2016-02-04T15:11:50Z</time>
      </trkpt>
      <trkpt lat="47.24238" lon="-1.55805">
        <ele>30.4</ele>
        <time>2016-02-04T15:11:55Z</time>
      </trkpt>
      <trkpt lat="47.24238" lon="-1.55793">
        <ele>29.9</ele>
        <time>2016-02-04T15:12:02Z</time>
      </trkpt>
      <trkpt lat="47.24238" lon="-1.55781">
        <ele>29.5</ele>
        <time>2016-02-04T15:12:08Z</time>
      </trkpt>
      <trkpt lat="47.24236" lon="-1.5577">
        <ele>30</ele>
        <time>2016-02-04T15:12:15Z</time>
      </trkpt>
      <trkpt lat="47.24233" lon="-1.55759">
        <ele>29.5</ele>
        <time>2016-02-04T15:12:21Z</time>
      </trkpt>
      <trkpt lat="47.24231" lon="-1.55748">
        <ele>29.2</ele>
        <time>2016-02-04T15:12:27Z</time>
      </trkpt>
      <trkpt lat="47.24233" lon="-1.55735">
        <ele>30</ele>
        <time>2016-02-04T15:12:32Z</time>
      </trkpt>
      <trkpt lat="47.24233" lon="-1.55724">
        <ele>30.7</ele>
        <time>2016-02-04T15:12:38Z</time>
      </trkpt>
      <trkpt lat="47.24231" lon="-1.55714">
        <ele>31.7</ele>
        <time>2016-02-04T15:12:43Z</time>
      </trkpt>
      <trkpt lat="47.24229" lon="-1.55691">
        <ele>32.1</ele>
        <time>2016-02-04T15:12:53Z</time>
      </trkpt>
      <trkpt lat="47.24227" lon="-1.5568">
        <ele>34</ele>
        <time>2016-02-04T15:13:02Z</time>
      </trkpt>
      <trkpt lat="47.24229" lon="-1.55669">
        <ele>33.7</ele>
        <time>2016-02-04T15:13:19Z</time>
      </trkpt>
      <trkpt lat="47.24229" lon="-1.55658">
        <ele>33.9</ele>
        <time>2016-02-04T15:13:26Z</time>
      </trkpt>
      <trkpt lat="47.24228" lon="-1.55647">
        <ele>34.3</ele>
        <time>2016-02-04T15:13:32Z</time>
      </trkpt>
      <trkpt lat="47.24227" lon="-1.55636">
        <ele>34</ele>
        <time>2016-02-04T15:13:38Z</time>
      </trkpt>
      <trkpt lat="47.24224" lon="-1.55626">
        <ele>33.1</ele>
        <time>2016-02-04T15:13:44Z</time>
      </trkpt>
      <trkpt lat="47.24222" lon="-1.55603">
        <ele>31</ele>
        <time>2016-02-04T15:13:58Z</time>
      </trkpt>
      <trkpt lat="47.24221" lon="-1.55592">
        <ele>30.7</ele>
        <time>2016-02-04T15:14:04Z</time>
      </trkpt>
      <trkpt lat="47.24225" lon="-1.55582">
        <ele>30.7</ele>
        <time>2016-02-04T15:14:10Z</time>
      </trkpt>
      <trkpt lat="47.2423" lon="-1.55573">
        <ele>30.9</ele>
        <time>2016-02-04T15:14:16Z</time>
      </trkpt>
      <trkpt lat="47.24233" lon="-1.55563">
        <ele>31</ele>
        <time>2016-02-04T15:14:21Z</time>
      </trkpt>
      <trkpt lat="47.24239" lon="-1.55554">
        <ele>31.1</ele>
        <time>2016-02-04T15:14:26Z</time>
      </trkpt>
      <trkpt lat="47.24241" lon="-1.55542">
        <ele>30.4</ele>
        <time>2016-02-04T15:14:31Z</time>
      </trkpt>
      <trkpt lat="47.24243" lon="-1.5553">
        <ele>30.8</ele>
        <time>2016-02-04T15:14:36Z</time>
      </trkpt>
      <trkpt lat="47.24244" lon="-1.55517">
        <ele>30.2</ele>
        <time>2016-02-04T15:14:41Z</time>
      </trkpt>
      <trkpt lat="47.24245" lon="-1.55505">
        <ele>29.5</ele>
        <time>2016-02-04T15:14:48Z</time>
      </trkpt>
      <trkpt lat="47.24239" lon="-1.55484">
        <ele>29.8</ele>
        <time>2016-02-04T15:15:06Z</time>
      </trkpt>
      <trkpt lat="47.2424" lon="-1.55473">
        <ele>30.3</ele>
        <time>2016-02-04T15:15:12Z</time>
      </trkpt>
      <trkpt lat="47.24241" lon="-1.55462">
        <ele>30</ele>
        <time>2016-02-04T15:15:18Z</time>
      </trkpt>
      <trkpt lat="47.24242" lon="-1.55451">
        <ele>30.6</ele>
        <time>2016-02-04T15:15:23Z</time>
      </trkpt>
      <trkpt lat="47.24244" lon="-1.5544">
        <ele>29.8</ele>
        <time>2016-02-04T15:15:29Z</time>
      </trkpt>
      <trkpt lat="47.24247" lon="-1.5543">
        <ele>29.1</ele>
        <time>2016-02-04T15:15:33Z</time>
      </trkpt>
      <trkpt lat="47.2425" lon="-1.5542">
        <ele>28.8</ele>
        <time>2016-02-04T15:15:37Z</time>
      </trkpt>
      <trkpt lat="47.24253" lon="-1.55408">
        <ele>29.2</ele>
        <time>2016-02-04T15:15:41Z</time>
      </trkpt>
      <trkpt lat="47.24256" lon="-1.55398">
        <ele>29.6</ele>
        <time>2016-02-04T15:15:46Z</time>
      </trkpt>
      <trkpt lat="47.24262" lon="-1.55388">
        <ele>30</ele>
        <time>2016-02-04T15:15:51Z</time>
      </trkpt>
      <trkpt lat="47.24274" lon="-1.55375">
        <ele>29.4</ele>
        <time>2016-02-04T15:16:01Z</time>
      </trkpt>
      <trkpt lat="47.24281" lon="-1.55372">
        <ele>30.2</ele>
        <time>2016-02-04T15:16:09Z</time>
      </trkpt>
      <trkpt lat="47.2428" lon="-1.55361">
        <ele>30.4</ele>
        <time>2016-02-04T15:16:21Z</time>
      </trkpt>
      <trkpt lat="47.24282" lon="-1.5535">
        <ele>29.2</ele>
        <time>2016-02-04T15:16:29Z</time>
      </trkpt>
      <trkpt lat="47.24288" lon="-1.55341">
        <ele>30.2</ele>
        <time>2016-02-04T15:16:36Z</time>
      </trkpt>
      <trkpt lat="47.24293" lon="-1.55331">
        <ele>30.6</ele>
        <time>2016-02-04T15:16:42Z</time>
      </trkpt>
      <trkpt lat="47.24297" lon="-1.55321">
        <ele>30.2</ele>
        <time>2016-02-04T15:16:47Z</time>
      </trkpt>
      <trkpt lat="47.24301" lon="-1.5531">
        <ele>30.4</ele>
        <time>2016-02-04T15:16:53Z</time>
      </trkpt>
      <trkpt lat="47.24306" lon="-1.55287">
        <ele>30.8</ele>
        <time>2016-02-04T15:17:05Z</time>
      </trkpt>
      <trkpt lat="47.24308" lon="-1.55276">
        <ele>31.1</ele>
        <time>2016-02-04T15:17:11Z</time>
      </trkpt>
      <trkpt lat="47.2431" lon="-1.55265">
        <ele>31.4</ele>
        <time>2016-02-04T15:17:16Z</time>
      </trkpt>
      <trkpt lat="47.24311" lon="-1.55253">
        <ele>32.1</ele>
        <time>2016-02-04T15:17:22Z</time>
      </trkpt>
      <trkpt lat="47.24312" lon="-1.55241">
        <ele>32.6</ele>
        <time>2016-02-04T15:17:28Z</time>
      </trkpt>
      <trkpt lat="47.24315" lon="-1.55229">
        <ele>33</ele>
        <time>2016-02-04T15:17:34Z</time>
      </trkpt>
      <trkpt lat="47.24317" lon="-1.55218">
        <ele>32.5</ele>
        <time>2016-02-04T15:17:40Z</time>
      </trkpt>
      <trkpt lat="47.24318" lon="-1.55206">
        <ele>33.1</ele>
        <time>2016-02-04T15:17:45Z</time>
      </trkpt>
      <trkpt lat="47.24321" lon="-1.55195">
        <ele>32.8</ele>
        <time>2016-02-04T15:17:51Z</time>
      </trkpt>
      <trkpt lat="47.24324" lon="-1.55183">
        <ele>33.1</ele>
        <time>2016-02-04T15:17:57Z</time>
      </trkpt>
      <trkpt lat="47.24328" lon="-1.5516">
        <ele>34.5</ele>
        <time>2016-02-04T15:18:08Z</time>
      </trkpt>
      <trkpt lat="47.24332" lon="-1.5515">
        <ele>34.8</ele>
        <time>2016-02-04T15:18:14Z</time>
      </trkpt>
      <trkpt lat="47.24336" lon="-1.5514">
        <ele>35.4</ele>
        <time>2016-02-04T15:18:20Z</time>
      </trkpt>
      <trkpt lat="47.24337" lon="-1.55128">
        <ele>34.9</ele>
        <time>2016-02-04T15:18:26Z</time>
      </trkpt>
      <trkpt lat="47.24339" lon="-1.55118">
        <ele>34.7</ele>
        <time>2016-02-04T15:18:32Z</time>
      </trkpt>
      <trkpt lat="47.2434" lon="-1.55106">
        <ele>34.4</ele>
        <time>2016-02-04T15:18:39Z</time>
      </trkpt>
      <trkpt lat="47.24341" lon="-1.55095">
        <ele>34.5</ele>
        <time>2016-02-04T15:18:45Z</time>
      </trkpt>
      <trkpt lat="47.24341" lon="-1.55084">
        <ele>34.4</ele>
        <time>2016-02-04T15:18:52Z</time>
      </trkpt>
      <trkpt lat="47.24342" lon="-1.55072">
        <ele>34.5</ele>
        <time>2016-02-04T15:18:58Z</time>
      </trkpt>
      <trkpt lat="47.24343" lon="-1.5505">
        <ele>33.9</ele>
        <time>2016-02-04T15:19:08Z</time>
      </trkpt>
      <trkpt lat="47.24341" lon="-1.55039">
        <ele>33.3</ele>
        <time>2016-02-04T15:19:13Z</time>
      </trkpt>
      <trkpt lat="47.2434" lon="-1.55027">
        <ele>32.9</ele>
        <time>2016-02-04T15:19:20Z</time>
      </trkpt>
      <trkpt lat="47.2434" lon="-1.55015">
        <ele>33.1</ele>
        <time>2016-02-04T15:19:27Z</time>
      </trkpt>
      <trkpt lat="47.24339" lon="-1.55002">
        <ele>33</ele>
        <time>2016-02-04T15:19:33Z</time>
      </trkpt>
      <trkpt lat="47.2434" lon="-1.5499">
        <ele>33.2</ele>
        <time>2016-02-04T15:19:39Z</time>
      </trkpt>
      <trkpt lat="47.24341" lon="-1.54979">
        <ele>32.6</ele>
        <time>2016-02-04T15:19:44Z</time>
      </trkpt>
      <trkpt lat="47.24342" lon="-1.54968">
        <ele>32.5</ele>
        <time>2016-02-04T15:19:49Z</time>
      </trkpt>
      <trkpt lat="47.24346" lon="-1.54958">
        <ele>32.8</ele>
        <time>2016-02-04T15:19:54Z</time>
      </trkpt>
      <trkpt lat="47.24348" lon="-1.54947">
        <ele>34.2</ele>
        <time>2016-02-04T15:19:59Z</time>
      </trkpt>
      <trkpt lat="47.24348" lon="-1.54923">
        <ele>34.3</ele>
        <time>2016-02-04T15:20:10Z</time>
      </trkpt>
      <trkpt lat="47.24347" lon="-1.54911">
        <ele>33.7</ele>
        <time>2016-02-04T15:20:17Z</time>
      </trkpt>
      <trkpt lat="47.24346" lon="-1.549">
        <ele>33.3</ele>
        <time>2016-02-04T15:20:23Z</time>
      </trkpt>
      <trkpt lat="47.24346" lon="-1.54888">
        <ele>32.6</ele>
        <time>2016-02-04T15:20:30Z</time>
      </trkpt>
      <trkpt lat="47.24348" lon="-1.54877">
        <ele>32.9</ele>
        <time>2016-02-04T15:20:35Z</time>
      </trkpt>
      <trkpt lat="47.2435" lon="-1.54866">
        <ele>33.8</ele>
        <time>2016-02-04T15:20:41Z</time>
      </trkpt>
      <trkpt lat="47.24352" lon="-1.54855">
        <ele>34.4</ele>
        <time>2016-02-04T15:20:46Z</time>
      </trkpt>
      <trkpt lat="47.24354" lon="-1.54843">
        <ele>35.2</ele>
        <time>2016-02-04T15:20:52Z</time>
      </trkpt>
      <trkpt lat="47.24354" lon="-1.54831">
        <ele>35.7</ele>
        <time>2016-02-04T15:20:59Z</time>
      </trkpt>
      <trkpt lat="47.24354" lon="-1.54809">
        <ele>36.7</ele>
        <time>2016-02-04T15:21:15Z</time>
      </trkpt>
      <trkpt lat="47.24356" lon="-1.54798">
        <ele>36.4</ele>
        <time>2016-02-04T15:21:21Z</time>
      </trkpt>
      <trkpt lat="47.24359" lon="-1.54788">
        <ele>36.5</ele>
        <time>2016-02-04T15:21:26Z</time>
      </trkpt>
      <trkpt lat="47.24364" lon="-1.54778">
        <ele>36.7</ele>
        <time>2016-02-04T15:21:32Z</time>
      </trkpt>
      <trkpt lat="47.2437" lon="-1.54769">
        <ele>37</ele>
        <time>2016-02-04T15:21:38Z</time>
      </trkpt>
      <trkpt lat="47.24375" lon="-1.54761">
        <ele>37.1</ele>
        <time>2016-02-04T15:21:44Z</time>
      </trkpt>
      <trkpt lat="47.24381" lon="-1.54753">
        <ele>37.4</ele>
        <time>2016-02-04T15:21:49Z</time>
      </trkpt>
      <trkpt lat="47.24386" lon="-1.54745">
        <ele>37.4</ele>
        <time>2016-02-04T15:21:55Z</time>
      </trkpt>
      <trkpt lat="47.24393" lon="-1.54739">
        <ele>37.3</ele>
        <time>2016-02-04T15:22:00Z</time>
      </trkpt>
      <trkpt lat="47.24399" lon="-1.54733">
        <ele>38.4</ele>
        <time>2016-02-04T15:22:05Z</time>
      </trkpt>
      <trkpt lat="47.24411" lon="-1.54719">
        <ele>38.5</ele>
        <time>2016-02-04T15:22:17Z</time>
      </trkpt>
      <trkpt lat="47.24417" lon="-1.54714">
        <ele>38.5</ele>
        <time>2016-02-04T15:22:23Z</time>
      </trkpt>
      <trkpt lat="47.24425" lon="-1.54711">
        <ele>38.7</ele>
        <time>2016-02-04T15:22:28Z</time>
      </trkpt>
      <trkpt lat="47.24434" lon="-1.54711">
        <ele>38.2</ele>
        <time>2016-02-04T15:22:33Z</time>
      </trkpt>
      <trkpt lat="47.24442" lon="-1.5471">
        <ele>38.4</ele>
        <time>2016-02-04T15:22:38Z</time>
      </trkpt>
      <trkpt lat="47.24451" lon="-1.54708">
        <ele>38.2</ele>
        <time>2016-02-04T15:22:43Z</time>
      </trkpt>
      <trkpt lat="47.24459" lon="-1.54707">
        <ele>38.2</ele>
        <time>2016-02-04T15:22:49Z</time>
      </trkpt>
      <trkpt lat="47.24467" lon="-1.54706">
        <ele>37.5</ele>
        <time>2016-02-04T15:22:55Z</time>
      </trkpt>
      <trkpt lat="47.24475" lon="-1.54704">
        <ele>38.4</ele>
        <time>2016-02-04T15:23:01Z</time>
      </trkpt>
      <trkpt lat="47.24484" lon="-1.54701">
        <ele>39.1</ele>
        <time>2016-02-04T15:23:06Z</time>
      </trkpt>
      <trkpt lat="47.24498" lon="-1.54693">
        <ele>37.3</ele>
        <time>2016-02-04T15:23:18Z</time>
      </trkpt>
      <trkpt lat="47.24506" lon="-1.5469">
        <ele>37.2</ele>
        <time>2016-02-04T15:23:24Z</time>
      </trkpt>
      <trkpt lat="47.24512" lon="-1.54685">
        <ele>36.9</ele>
        <time>2016-02-04T15:23:30Z</time>
      </trkpt>
      <trkpt lat="47.24521" lon="-1.54684">
        <ele>36.7</ele>
        <time>2016-02-04T15:23:35Z</time>
      </trkpt>
      <trkpt lat="47.24529" lon="-1.54685">
        <ele>37.2</ele>
        <time>2016-02-04T15:23:39Z</time>
      </trkpt>
      <trkpt lat="47.24537" lon="-1.54685">
        <ele>37</ele>
        <time>2016-02-04T15:23:44Z</time>
      </trkpt>
      <trkpt lat="47.24545" lon="-1.54686">
        <ele>37</ele>
        <time>2016-02-04T15:23:49Z</time>
      </trkpt>
      <trkpt lat="47.24553" lon="-1.54687">
        <ele>37</ele>
        <time>2016-02-04T15:23:54Z</time>
      </trkpt>
      <trkpt lat="47.24561" lon="-1.54689">
        <ele>36.6</ele>
        <time>2016-02-04T15:24:00Z</time>
      </trkpt>
      <trkpt lat="47.2457" lon="-1.54691">
        <ele>37.2</ele>
        <time>2016-02-04T15:24:06Z</time>
      </trkpt>
      <trkpt lat="47.24578" lon="-1.5469">
        <ele>37.6</ele>
        <time>2016-02-04T15:24:14Z</time>
      </trkpt>
      <trkpt lat="47.24594" lon="-1.54689">
        <ele>38.7</ele>
        <time>2016-02-04T15:24:30Z</time>
      </trkpt>
      <trkpt lat="47.24602" lon="-1.54688">
        <ele>38.5</ele>
        <time>2016-02-04T15:24:37Z</time>
      </trkpt>
      <trkpt lat="47.2461" lon="-1.54689">
        <ele>38</ele>
        <time>2016-02-04T15:24:43Z</time>
      </trkpt>
      <trkpt lat="47.24618" lon="-1.5469">
        <ele>38.9</ele>
        <time>2016-02-04T15:24:49Z</time>
      </trkpt>
      <trkpt lat="47.24624" lon="-1.54686">
        <ele>38.7</ele>
        <time>2016-02-04T15:24:55Z</time>
      </trkpt>
      <trkpt lat="47.24632" lon="-1.54681">
        <ele>39</ele>
        <time>2016-02-04T15:25:00Z</time>
      </trkpt>
      <trkpt lat="47.24637" lon="-1.54673">
        <ele>39.3</ele>
        <time>2016-02-04T15:25:06Z</time>
      </trkpt>
      <trkpt lat="47.24641" lon="-1.54664">
        <ele>39.8</ele>
        <time>2016-02-04T15:25:13Z</time>
      </trkpt>
      <trkpt lat="47.24642" lon="-1.54653">
        <ele>38.8</ele>
        <time>2016-02-04T15:25:19Z</time>
      </trkpt>
      <trkpt lat="47.24645" lon="-1.5463">
        <ele>36.2</ele>
        <time>2016-02-04T15:25:36Z</time>
      </trkpt>
      <trkpt lat="47.24641" lon="-1.54622">
        <ele>35.2</ele>
        <time>2016-02-04T15:25:45Z</time>
      </trkpt>
      <trkpt lat="47.24637" lon="-1.54611">
        <ele>32.1</ele>
        <time>2016-02-04T15:25:57Z</time>
      </trkpt>
      <trkpt lat="47.24642" lon="-1.54601">
        <ele>30.4</ele>
        <time>2016-02-04T15:26:04Z</time>
      </trkpt>
      <trkpt lat="47.24648" lon="-1.54595">
        <ele>29.2</ele>
        <time>2016-02-04T15:26:10Z</time>
      </trkpt>
      <trkpt lat="47.24656" lon="-1.54591">
        <ele>29.2</ele>
        <time>2016-02-04T15:26:15Z</time>
      </trkpt>
      <trkpt lat="47.24663" lon="-1.54587">
        <ele>28.5</ele>
        <time>2016-02-04T15:26:20Z</time>
      </trkpt>
      <trkpt lat="47.24679" lon="-1.54576">
        <ele>29.3</ele>
        <time>2016-02-04T15:26:32Z</time>
      </trkpt>
      <trkpt lat="47.24686" lon="-1.54571">
        <ele>29.6</ele>
        <time>2016-02-04T15:26:37Z</time>
      </trkpt>
      <trkpt lat="47.24694" lon="-1.54568">
        <ele>29.4</ele>
        <time>2016-02-04T15:26:42Z</time>
      </trkpt>
      <trkpt lat="47.24702" lon="-1.54565">
        <ele>29.5</ele>
        <time>2016-02-04T15:26:48Z</time>
      </trkpt>
      <trkpt lat="47.24708" lon="-1.54559">
        <ele>29.2</ele>
        <time>2016-02-04T15:26:54Z</time>
      </trkpt>
      <trkpt lat="47.24715" lon="-1.54553">
        <ele>29.1</ele>
        <time>2016-02-04T15:27:01Z</time>
      </trkpt>
      <trkpt lat="47.24723" lon="-1.54551">
        <ele>29.1</ele>
        <time>2016-02-04T15:27:05Z</time>
      </trkpt>
      <trkpt lat="47.24729" lon="-1.54545">
        <ele>29.2</ele>
        <time>2016-02-04T15:27:13Z</time>
      </trkpt>
      <trkpt lat="47.24736" lon="-1.54539">
        <ele>29.5</ele>
        <time>2016-02-04T15:27:19Z</time>
      </trkpt>
      <trkpt lat="47.24743" lon="-1.54534">
        <ele>29.2</ele>
        <time>2016-02-04T15:27:24Z</time>
      </trkpt>
      <trkpt lat="47.24756" lon="-1.54519">
        <ele>29</ele>
        <time>2016-02-04T15:27:36Z</time>
      </trkpt>
      <trkpt lat="47.24763" lon="-1.54513">
        <ele>29.8</ele>
        <time>2016-02-04T15:27:43Z</time>
      </trkpt>
      <trkpt lat="47.24768" lon="-1.54505">
        <ele>29.3</ele>
        <time>2016-02-04T15:27:48Z</time>
      </trkpt>
      <trkpt lat="47.24772" lon="-1.54495">
        <ele>29.7</ele>
        <time>2016-02-04T15:27:53Z</time>
      </trkpt>
      <trkpt lat="47.24778" lon="-1.54487">
        <ele>30.2</ele>
        <time>2016-02-04T15:27:59Z</time>
      </trkpt>
      <trkpt lat="47.24785" lon="-1.54482">
        <ele>31.4</ele>
        <time>2016-02-04T15:28:04Z</time>
      </trkpt>
      <trkpt lat="47.24792" lon="-1.54476">
        <ele>30.8</ele>
        <time>2016-02-04T15:28:09Z</time>
      </trkpt>
      <trkpt lat="47.24798" lon="-1.5447">
        <ele>30.8</ele>
        <time>2016-02-04T15:28:14Z</time>
      </trkpt>
      <trkpt lat="47.24804" lon="-1.54463">
        <ele>31.2</ele>
        <time>2016-02-04T15:28:19Z</time>
      </trkpt>
      <trkpt lat="47.24808" lon="-1.54453">
        <ele>31.1</ele>
        <time>2016-02-04T15:28:24Z</time>
      </trkpt>
      <trkpt lat="47.24821" lon="-1.54437">
        <ele>30.6</ele>
        <time>2016-02-04T15:28:36Z</time>
      </trkpt>
      <trkpt lat="47.24827" lon="-1.5443">
        <ele>30.7</ele>
        <time>2016-02-04T15:28:41Z</time>
      </trkpt>
      <trkpt lat="47.24833" lon="-1.54422">
        <ele>31.5</ele>
        <time>2016-02-04T15:28:47Z</time>
      </trkpt>
      <trkpt lat="47.2484" lon="-1.54416">
        <ele>32</ele>
        <time>2016-02-04T15:28:53Z</time>
      </trkpt>
      <trkpt lat="47.24847" lon="-1.54411">
        <ele>31.5</ele>
        <time>2016-02-04T15:28:58Z</time>
      </trkpt>
      <trkpt lat="47.24853" lon="-1.54403">
        <ele>31.3</ele>
        <time>2016-02-04T15:29:04Z</time>
      </trkpt>
      <trkpt lat="47.24861" lon="-1.54396">
        <ele>31.4</ele>
        <time>2016-02-04T15:29:10Z</time>
      </trkpt>
      <trkpt lat="47.24866" lon="-1.54388">
        <ele>31.1</ele>
        <time>2016-02-04T15:29:15Z</time>
      </trkpt>
      <trkpt lat="47.24873" lon="-1.54382">
        <ele>30.8</ele>
        <time>2016-02-04T15:29:21Z</time>
      </trkpt>
      <trkpt lat="47.2488" lon="-1.54375">
        <ele>30.7</ele>
        <time>2016-02-04T15:29:26Z</time>
      </trkpt>
      <trkpt lat="47.2489" lon="-1.5436">
        <ele>31.6</ele>
        <time>2016-02-04T15:29:37Z</time>
      </trkpt>
      <trkpt lat="47.24897" lon="-1.54353">
        <ele>31.3</ele>
        <time>2016-02-04T15:29:44Z</time>
      </trkpt>
      <trkpt lat="47.24903" lon="-1.54346">
        <ele>31.2</ele>
        <time>2016-02-04T15:29:50Z</time>
      </trkpt>
      <trkpt lat="47.24908" lon="-1.54338">
        <ele>30.7</ele>
        <time>2016-02-04T15:29:55Z</time>
      </trkpt>
      <trkpt lat="47.24914" lon="-1.5433">
        <ele>31.3</ele>
        <time>2016-02-04T15:30:00Z</time>
      </trkpt>
      <trkpt lat="47.2492" lon="-1.54322">
        <ele>31.1</ele>
        <time>2016-02-04T15:30:05Z</time>
      </trkpt>
      <trkpt lat="47.24926" lon="-1.54315">
        <ele>30.9</ele>
        <time>2016-02-04T15:30:10Z</time>
      </trkpt>
      <trkpt lat="47.24931" lon="-1.54307">
        <ele>31</ele>
        <time>2016-02-04T15:30:15Z</time>
      </trkpt>
      <trkpt lat="47.24937" lon="-1.543">
        <ele>30.3</ele>
        <time>2016-02-04T15:30:19Z</time>
      </trkpt>
      <trkpt lat="47.24944" lon="-1.54292">
        <ele>31.1</ele>
        <time>2016-02-04T15:30:24Z</time>
      </trkpt>
      <trkpt lat="47.24949" lon="-1.54283">
        <ele>31.7</ele>
        <time>2016-02-04T15:30:29Z</time>
      </trkpt>
      <trkpt lat="47.24957" lon="-1.54264">
        <ele>30.7</ele>
        <time>2016-02-04T15:30:41Z</time>
      </trkpt>
      <trkpt lat="47.24964" lon="-1.54257">
        <ele>30.4</ele>
        <time>2016-02-04T15:30:47Z</time>
      </trkpt>
      <trkpt lat="47.2497" lon="-1.54251">
        <ele>29.6</ele>
        <time>2016-02-04T15:30:54Z</time>
      </trkpt>
      <trkpt lat="47.24977" lon="-1.54245">
        <ele>29.3</ele>
        <time>2016-02-04T15:31:00Z</time>
      </trkpt>
      <trkpt lat="47.24983" lon="-1.54238">
        <ele>28.9</ele>
        <time>2016-02-04T15:31:05Z</time>
      </trkpt>
      <trkpt lat="47.24991" lon="-1.54232">
        <ele>29.5</ele>
        <time>2016-02-04T15:31:11Z</time>
      </trkpt>
      <trkpt lat="47.24997" lon="-1.54225">
        <ele>29.5</ele>
        <time>2016-02-04T15:31:17Z</time>
      </trkpt>
      <trkpt lat="47.25003" lon="-1.54217">
        <ele>29.5</ele>
        <time>2016-02-04T15:31:23Z</time>
      </trkpt>
      <trkpt lat="47.25009" lon="-1.54209">
        <ele>28.8</ele>
        <time>2016-02-04T15:31:29Z</time>
      </trkpt>
      <trkpt lat="47.25015" lon="-1.54201">
        <ele>29.3</ele>
        <time>2016-02-04T15:31:35Z</time>
      </trkpt>
      <trkpt lat="47.25028" lon="-1.54188">
        <ele>29.2</ele>
        <time>2016-02-04T15:31:45Z</time>
      </trkpt>
      <trkpt lat="47.25034" lon="-1.54182">
        <ele>29.2</ele>
        <time>2016-02-04T15:31:50Z</time>
      </trkpt>
      <trkpt lat="47.2504" lon="-1.54174">
        <ele>28.9</ele>
        <time>2016-02-04T15:31:56Z</time>
      </trkpt>
      <trkpt lat="47.25046" lon="-1.54166">
        <ele>28.9</ele>
        <time>2016-02-04T15:32:01Z</time>
      </trkpt>
      <trkpt lat="47.25052" lon="-1.5416">
        <ele>28.7</ele>
        <time>2016-02-04T15:32:06Z</time>
      </trkpt>
      <trkpt lat="47.25058" lon="-1.54151">
        <ele>29</ele>
        <time>2016-02-04T15:32:12Z</time>
      </trkpt>
      <trkpt lat="47.25064" lon="-1.54143">
        <ele>29.1</ele>
        <time>2016-02-04T15:32:18Z</time>
      </trkpt>
      <trkpt lat="47.2507" lon="-1.54135">
        <ele>28.9</ele>
        <time>2016-02-04T15:32:24Z</time>
      </trkpt>
      <trkpt lat="47.25076" lon="-1.54129">
        <ele>29.2</ele>
        <time>2016-02-04T15:32:29Z</time>
      </trkpt>
      <trkpt lat="47.25082" lon="-1.54123">
        <ele>28.7</ele>
        <time>2016-02-04T15:32:35Z</time>
      </trkpt>
      <trkpt lat="47.2509" lon="-1.54119">
        <ele>28.3</ele>
        <time>2016-02-04T15:32:40Z</time>
      </trkpt>
      <trkpt lat="47.25104" lon="-1.5411">
        <ele>29</ele>
        <time>2016-02-04T15:32:52Z</time>
      </trkpt>
      <trkpt lat="47.25112" lon="-1.54106">
        <ele>28.7</ele>
        <time>2016-02-04T15:32:57Z</time>
      </trkpt>
      <trkpt lat="47.25118" lon="-1.541">
        <ele>29.1</ele>
        <time>2016-02-04T15:33:02Z</time>
      </trkpt>
      <trkpt lat="47.25123" lon="-1.5409">
        <ele>28.9</ele>
        <time>2016-02-04T15:33:08Z</time>
      </trkpt>
      <trkpt lat="47.25129" lon="-1.54083">
        <ele>28.7</ele>
        <time>2016-02-04T15:33:13Z</time>
      </trkpt>
      <trkpt lat="47.25136" lon="-1.54077">
        <ele>28.1</ele>
        <time>2016-02-04T15:33:19Z</time>
      </trkpt>
      <trkpt lat="47.25144" lon="-1.54072">
        <ele>28.8</ele>
        <time>2016-02-04T15:33:24Z</time>
      </trkpt>
      <trkpt lat="47.25151" lon="-1.54069">
        <ele>28.3</ele>
        <time>2016-02-04T15:33:29Z</time>
      </trkpt>
      <trkpt lat="47.25159" lon="-1.54067">
        <ele>28.1</ele>
        <time>2016-02-04T15:33:34Z</time>
      </trkpt>
      <trkpt lat="47.25167" lon="-1.54066">
        <ele>28.4</ele>
        <time>2016-02-04T15:33:39Z</time>
      </trkpt>
      <trkpt lat="47.25174" lon="-1.54063">
        <ele>28.5</ele>
        <time>2016-02-04T15:33:44Z</time>
      </trkpt>
      <trkpt lat="47.25189" lon="-1.5406">
        <ele>28.8</ele>
        <time>2016-02-04T15:33:54Z</time>
      </trkpt>
      <trkpt lat="47.25197" lon="-1.54058">
        <ele>28.2</ele>
        <time>2016-02-04T15:34:00Z</time>
      </trkpt>
      <trkpt lat="47.25205" lon="-1.54056">
        <ele>28.6</ele>
        <time>2016-02-04T15:34:06Z</time>
      </trkpt>
      <trkpt lat="47.25212" lon="-1.54054">
        <ele>28.6</ele>
        <time>2016-02-04T15:34:11Z</time>
      </trkpt>
      <trkpt lat="47.2522" lon="-1.54054">
        <ele>28.9</ele>
        <time>2016-02-04T15:34:16Z</time>
      </trkpt>
      <trkpt lat="47.25228" lon="-1.54052">
        <ele>29.6</ele>
        <time>2016-02-04T15:34:21Z</time>
      </trkpt>
      <trkpt lat="47.25236" lon="-1.54049">
        <ele>28.8</ele>
        <time>2016-02-04T15:34:27Z</time>
      </trkpt>
      <trkpt lat="47.25243" lon="-1.54048">
        <ele>28.8</ele>
        <time>2016-02-04T15:34:32Z</time>
      </trkpt>
      <trkpt lat="47.25251" lon="-1.54048">
        <ele>28.9</ele>
        <time>2016-02-04T15:34:39Z</time>
      </trkpt>
      <trkpt lat="47.25259" lon="-1.54046">
        <ele>29.1</ele>
        <time>2016-02-04T15:34:45Z</time>
      </trkpt>
      <trkpt lat="47.25275" lon="-1.54043">
        <ele>29.1</ele>
        <time>2016-02-04T15:34:57Z</time>
      </trkpt>
      <trkpt lat="47.25283" lon="-1.5404">
        <ele>30</ele>
        <time>2016-02-04T15:35:03Z</time>
      </trkpt>
      <trkpt lat="47.25291" lon="-1.54039">
        <ele>28.9</ele>
        <time>2016-02-04T15:35:08Z</time>
      </trkpt>
      <trkpt lat="47.25299" lon="-1.54037">
        <ele>29.5</ele>
        <time>2016-02-04T15:35:14Z</time>
      </trkpt>
      <trkpt lat="47.25307" lon="-1.54036">
        <ele>29.6</ele>
        <time>2016-02-04T15:35:19Z</time>
      </trkpt>
      <trkpt lat="47.25314" lon="-1.54033">
        <ele>29.7</ele>
        <time>2016-02-04T15:35:24Z</time>
      </trkpt>
      <trkpt lat="47.25322" lon="-1.54034">
        <ele>29.8</ele>
        <time>2016-02-04T15:35:29Z</time>
      </trkpt>
      <trkpt lat="47.2533" lon="-1.54037">
        <ele>30.5</ele>
        <time>2016-02-04T15:35:34Z</time>
      </trkpt>
      <trkpt lat="47.25337" lon="-1.54039">
        <ele>31.1</ele>
        <time>2016-02-04T15:35:39Z</time>
      </trkpt>
      <trkpt lat="47.25345" lon="-1.54038">
        <ele>31.6</ele>
        <time>2016-02-04T15:35:44Z</time>
      </trkpt>
      <trkpt lat="47.25353" lon="-1.54036">
        <ele>31.8</ele>
        <time>2016-02-04T15:35:49Z</time>
      </trkpt>
      <trkpt lat="47.25368" lon="-1.54031">
        <ele>30.9</ele>
        <time>2016-02-04T15:36:01Z</time>
      </trkpt>
      <trkpt lat="47.25376" lon="-1.54029">
        <ele>30.7</ele>
        <time>2016-02-04T15:36:08Z</time>
      </trkpt>
      <trkpt lat="47.25384" lon="-1.54025">
        <ele>31.4</ele>
        <time>2016-02-04T15:36:15Z</time>
      </trkpt>
      <trkpt lat="47.25391" lon="-1.54022">
        <ele>30.6</ele>
        <time>2016-02-04T15:36:21Z</time>
      </trkpt>
      <trkpt lat="47.25399" lon="-1.5402">
        <ele>30.4</ele>
        <time>2016-02-04T15:36:27Z</time>
      </trkpt>
      <trkpt lat="47.25406" lon="-1.54017">
        <ele>31.1</ele>
        <time>2016-02-04T15:36:33Z</time>
      </trkpt>
      <trkpt lat="47.25414" lon="-1.54015">
        <ele>30.7</ele>
        <time>2016-02-04T15:36:39Z</time>
      </trkpt>
      <trkpt lat="47.25421" lon="-1.54014">
        <ele>30.4</ele>
        <time>2016-02-04T15:36:44Z</time>
      </trkpt>
      <trkpt lat="47.25429" lon="-1.54013">
        <ele>30.6</ele>
        <time>2016-02-04T15:36:50Z</time>
      </trkpt>
      <trkpt lat="47.25446" lon="-1.5401">
        <ele>30.2</ele>
        <time>2016-02-04T15:37:00Z</time>
      </trkpt>
      <trkpt lat="47.25454" lon="-1.54009">
        <ele>30.2</ele>
        <time>2016-02-04T15:37:05Z</time>
      </trkpt>
      <trkpt lat="47.25461" lon="-1.54008">
        <ele>30.2</ele>
        <time>2016-02-04T15:37:10Z</time>
      </trkpt>
      <trkpt lat="47.25469" lon="-1.54008">
        <ele>30.3</ele>
        <time>2016-02-04T15:37:17Z</time>
      </trkpt>
      <trkpt lat="47.25477" lon="-1.54008">
        <ele>30.5</ele>
        <time>2016-02-04T15:37:21Z</time>
      </trkpt>
      <trkpt lat="47.25485" lon="-1.5401">
        <ele>31.2</ele>
        <time>2016-02-04T15:37:28Z</time>
      </trkpt>
      <trkpt lat="47.25492" lon="-1.5401">
        <ele>31.5</ele>
        <time>2016-02-04T15:37:35Z</time>
      </trkpt>
      <trkpt lat="47.25499" lon="-1.54006">
        <ele>31.5</ele>
        <time>2016-02-04T15:37:41Z</time>
      </trkpt>
      <trkpt lat="47.25506" lon="-1.54001">
        <ele>31.5</ele>
        <time>2016-02-04T15:37:48Z</time>
      </trkpt>
      <trkpt lat="47.25512" lon="-1.53995">
        <ele>31.6</ele>
        <time>2016-02-04T15:37:55Z</time>
      </trkpt>
      <trkpt lat="47.25528" lon="-1.53988">
        <ele>31.2</ele>
        <time>2016-02-04T15:38:06Z</time>
      </trkpt>
      <trkpt lat="47.25536" lon="-1.53986">
        <ele>31.5</ele>
        <time>2016-02-04T15:38:11Z</time>
      </trkpt>
      <trkpt lat="47.25544" lon="-1.53985">
        <ele>32.2</ele>
        <time>2016-02-04T15:38:16Z</time>
      </trkpt>
      <trkpt lat="47.25551" lon="-1.53983">
        <ele>32.3</ele>
        <time>2016-02-04T15:38:21Z</time>
      </trkpt>
      <trkpt lat="47.25559" lon="-1.5398">
        <ele>31.4</ele>
        <time>2016-02-04T15:38:27Z</time>
      </trkpt>
      <trkpt lat="47.25565" lon="-1.53972">
        <ele>31.9</ele>
        <time>2016-02-04T15:38:33Z</time>
      </trkpt>
      <trkpt lat="47.25571" lon="-1.53965">
        <ele>31.2</ele>
        <time>2016-02-04T15:38:40Z</time>
      </trkpt>
      <trkpt lat="47.25578" lon="-1.53961">
        <ele>30.4</ele>
        <time>2016-02-04T15:38:47Z</time>
      </trkpt>
      <trkpt lat="47.25585" lon="-1.53956">
        <ele>30.7</ele>
        <time>2016-02-04T15:38:52Z</time>
      </trkpt>
      <trkpt lat="47.25592" lon="-1.53958">
        <ele>31.1</ele>
        <time>2016-02-04T15:38:58Z</time>
      </trkpt>
      <trkpt lat="47.25606" lon="-1.53946">
        <ele>31.7</ele>
        <time>2016-02-04T15:39:12Z</time>
      </trkpt>
      <trkpt lat="47.25614" lon="-1.53943">
        <ele>31.5</ele>
        <time>2016-02-04T15:39:18Z</time>
      </trkpt>
      <trkpt lat="47.25621" lon="-1.53946">
        <ele>31.8</ele>
        <time>2016-02-04T15:39:24Z</time>
      </trkpt>
      <trkpt lat="47.25628" lon="-1.53945">
        <ele>32.1</ele>
        <time>2016-02-04T15:39:29Z</time>
      </trkpt>
      <trkpt lat="47.25636" lon="-1.53941">
        <ele>31.6</ele>
        <time>2016-02-04T15:39:35Z</time>
      </trkpt>
      <trkpt lat="47.25644" lon="-1.53939">
        <ele>31.5</ele>
        <time>2016-02-04T15:39:40Z</time>
      </trkpt>
      <trkpt lat="47.25652" lon="-1.53937">
        <ele>31.2</ele>
        <time>2016-02-04T15:39:45Z</time>
      </trkpt>
      <trkpt lat="47.2566" lon="-1.53935">
        <ele>31.4</ele>
        <time>2016-02-04T15:39:50Z</time>
      </trkpt>
      <trkpt lat="47.25668" lon="-1.53933">
        <ele>31.8</ele>
        <time>2016-02-04T15:39:55Z</time>
      </trkpt>
      <trkpt lat="47.25676" lon="-1.53931">
        <ele>31.8</ele>
        <time>2016-02-04T15:39:59Z</time>
      </trkpt>
      <trkpt lat="47.25683" lon="-1.53925">
        <ele>31.7</ele>
        <time>2016-02-04T15:40:04Z</time>
      </trkpt>
      <trkpt lat="47.25698" lon="-1.53916">
        <ele>31.4</ele>
        <time>2016-02-04T15:40:16Z</time>
      </trkpt>
      <trkpt lat="47.25705" lon="-1.53913">
        <ele>31.7</ele>
        <time>2016-02-04T15:40:21Z</time>
      </trkpt>
      <trkpt lat="47.25713" lon="-1.53914">
        <ele>31.6</ele>
        <time>2016-02-04T15:40:27Z</time>
      </trkpt>
      <trkpt lat="47.25719" lon="-1.53919">
        <ele>31.7</ele>
        <time>2016-02-04T15:40:33Z</time>
      </trkpt>
      <trkpt lat="47.25725" lon="-1.53927">
        <ele>30.5</ele>
        <time>2016-02-04T15:40:39Z</time>
      </trkpt>
      <trkpt lat="47.25731" lon="-1.53935">
        <ele>32</ele>
        <time>2016-02-04T15:40:44Z</time>
      </trkpt>
      <trkpt lat="47.25737" lon="-1.53942">
        <ele>31.5</ele>
        <time>2016-02-04T15:40:49Z</time>
      </trkpt>
      <trkpt lat="47.25745" lon="-1.53946">
        <ele>32.3</ele>
        <time>2016-02-04T15:40:54Z</time>
      </trkpt>
      <trkpt lat="47.25751" lon="-1.53953">
        <ele>33</ele>
        <time>2016-02-04T15:41:01Z</time>
      </trkpt>
      <trkpt lat="47.25759" lon="-1.53959">
        <ele>33.2</ele>
        <time>2016-02-04T15:41:08Z</time>
      </trkpt>
      <trkpt lat="47.25774" lon="-1.53958">
        <ele>31.7</ele>
        <time>2016-02-04T15:41:20Z</time>
      </trkpt>
      <trkpt lat="47.25782" lon="-1.53956">
        <ele>31.7</ele>
        <time>2016-02-04T15:41:26Z</time>
      </trkpt>
      <trkpt lat="47.2579" lon="-1.53955">
        <ele>31.7</ele>
        <time>2016-02-04T15:41:31Z</time>
      </trkpt>
      <trkpt lat="47.25797" lon="-1.53952">
        <ele>31.9</ele>
        <time>2016-02-04T15:41:37Z</time>
      </trkpt>
      <trkpt lat="47.25805" lon="-1.53948">
        <ele>31.6</ele>
        <time>2016-02-04T15:41:44Z</time>
      </trkpt>
      <trkpt lat="47.25813" lon="-1.53946">
        <ele>31.4</ele>
        <time>2016-02-04T15:41:50Z</time>
      </trkpt>
      <trkpt lat="47.25821" lon="-1.53946">
        <ele>32.2</ele>
        <time>2016-02-04T15:41:55Z</time>
      </trkpt>
      <trkpt lat="47.25829" lon="-1.53945">
        <ele>32</ele>
        <time>2016-02-04T15:42:00Z</time>
      </trkpt>
      <trkpt lat="47.25837" lon="-1.53942">
        <ele>32.3</ele>
        <time>2016-02-04T15:42:05Z</time>
      </trkpt>
      <trkpt lat="47.25845" lon="-1.53939">
        <ele>32.4</ele>
        <time>2016-02-04T15:42:11Z</time>
      </trkpt>
      <trkpt lat="47.25857" lon="-1.53927">
        <ele>31.9</ele>
        <time>2016-02-04T15:42:23Z</time>
      </trkpt>
      <trkpt lat="47.25865" lon="-1.53921">
        <ele>31.3</ele>
        <time>2016-02-04T15:42:29Z</time>
      </trkpt>
      <trkpt lat="47.25872" lon="-1.53917">
        <ele>30.5</ele>
        <time>2016-02-04T15:42:34Z</time>
      </trkpt>
      <trkpt lat="47.25879" lon="-1.53913">
        <ele>31.2</ele>
        <time>2016-02-04T15:42:39Z</time>
      </trkpt>
      <trkpt lat="47.25887" lon="-1.53908">
        <ele>31.6</ele>
        <time>2016-02-04T15:42:44Z</time>
      </trkpt>
      <trkpt lat="47.25894" lon="-1.53902">
        <ele>31.8</ele>
        <time>2016-02-04T15:42:50Z</time>
      </trkpt>
      <trkpt lat="47.25901" lon="-1.539">
        <ele>31.5</ele>
        <time>2016-02-04T15:42:54Z</time>
      </trkpt>
      <trkpt lat="47.25909" lon="-1.53896">
        <ele>32.3</ele>
        <time>2016-02-04T15:42:59Z</time>
      </trkpt>
      <trkpt lat="47.25916" lon="-1.53893">
        <ele>32.1</ele>
        <time>2016-02-04T15:43:04Z</time>
      </trkpt>
      <trkpt lat="47.25923" lon="-1.5389">
        <ele>32.6</ele>
        <time>2016-02-04T15:43:09Z</time>
      </trkpt>
      <trkpt lat="47.2593" lon="-1.53886">
        <ele>32</ele>
        <time>2016-02-04T15:43:14Z</time>
      </trkpt>
      <trkpt lat="47.25944" lon="-1.53876">
        <ele>32</ele>
        <time>2016-02-04T15:43:29Z</time>
      </trkpt>
      <trkpt lat="47.2595" lon="-1.53869">
        <ele>31.9</ele>
        <time>2016-02-04T15:43:35Z</time>
      </trkpt>
      <trkpt lat="47.25958" lon="-1.53864">
        <ele>31.5</ele>
        <time>2016-02-04T15:43:40Z</time>
      </trkpt>
      <trkpt lat="47.25966" lon="-1.53859">
        <ele>31.4</ele>
        <time>2016-02-04T15:43:45Z</time>
      </trkpt>
      <trkpt lat="47.25973" lon="-1.53853">
        <ele>31.7</ele>
        <time>2016-02-04T15:43:52Z</time>
      </trkpt>
      <trkpt lat="47.2598" lon="-1.53849">
        <ele>30.9</ele>
        <time>2016-02-04T15:43:58Z</time>
      </trkpt>
      <trkpt lat="47.25987" lon="-1.53845">
        <ele>30.6</ele>
        <time>2016-02-04T15:44:04Z</time>
      </trkpt>
      <trkpt lat="47.25995" lon="-1.53844">
        <ele>30.5</ele>
        <time>2016-02-04T15:44:09Z</time>
      </trkpt>
      <trkpt lat="47.26002" lon="-1.53842">
        <ele>30.3</ele>
        <time>2016-02-04T15:44:15Z</time>
      </trkpt>
      <trkpt lat="47.26019" lon="-1.5384">
        <ele>30.3</ele>
        <time>2016-02-04T15:44:27Z</time>
      </trkpt>
      <trkpt lat="47.26028" lon="-1.5384">
        <ele>30.5</ele>
        <time>2016-02-04T15:44:33Z</time>
      </trkpt>
      <trkpt lat="47.26035" lon="-1.5384">
        <ele>30.4</ele>
        <time>2016-02-04T15:44:39Z</time>
      </trkpt>
      <trkpt lat="47.26043" lon="-1.53841">
        <ele>30.6</ele>
        <time>2016-02-04T15:44:46Z</time>
      </trkpt>
      <trkpt lat="47.26052" lon="-1.53841">
        <ele>30.9</ele>
        <time>2016-02-04T15:44:53Z</time>
      </trkpt>
      <trkpt lat="47.26059" lon="-1.53842">
        <ele>31.3</ele>
        <time>2016-02-04T15:44:58Z</time>
      </trkpt>
      <trkpt lat="47.26067" lon="-1.53842">
        <ele>30.8</ele>
        <time>2016-02-04T15:45:04Z</time>
      </trkpt>
      <trkpt lat="47.26074" lon="-1.53843">
        <ele>31.4</ele>
        <time>2016-02-04T15:45:10Z</time>
      </trkpt>
      <trkpt lat="47.26082" lon="-1.5384">
        <ele>32.4</ele>
        <time>2016-02-04T15:45:16Z</time>
      </trkpt>
      <trkpt lat="47.26089" lon="-1.53837">
        <ele>31.8</ele>
        <time>2016-02-04T15:45:22Z</time>
      </trkpt>
      <trkpt lat="47.26105" lon="-1.53833">
        <ele>31.6</ele>
        <time>2016-02-04T15:45:33Z</time>
      </trkpt>
      <trkpt lat="47.26112" lon="-1.53833">
        <ele>32.4</ele>
        <time>2016-02-04T15:45:39Z</time>
      </trkpt>
      <trkpt lat="47.26121" lon="-1.53834">
        <ele>33</ele>
        <time>2016-02-04T15:45:46Z</time>
      </trkpt>
      <trkpt lat="47.26128" lon="-1.53834">
        <ele>33.7</ele>
        <time>2016-02-04T15:45:51Z</time>
      </trkpt>
      <trkpt lat="47.26136" lon="-1.53835">
        <ele>33.5</ele>
        <time>2016-02-04T15:45:56Z</time>
      </trkpt>
      <trkpt lat="47.26144" lon="-1.53836">
        <ele>33.7</ele>
        <time>2016-02-04T15:46:01Z</time>
      </trkpt>
      <trkpt lat="47.26151" lon="-1.53838">
        <ele>34.2</ele>
        <time>2016-02-04T15:46:07Z</time>
      </trkpt>
      <trkpt lat="47.26159" lon="-1.5384">
        <ele>34</ele>
        <time>2016-02-04T15:46:13Z</time>
      </trkpt>
      <trkpt lat="47.26166" lon="-1.53842">
        <ele>34.3</ele>
        <time>2016-02-04T15:46:18Z</time>
      </trkpt>
      <trkpt lat="47.26173" lon="-1.53843">
        <ele>34.9</ele>
        <time>2016-02-04T15:46:23Z</time>
      </trkpt>
      <trkpt lat="47.26187" lon="-1.5385">
        <ele>35.3</ele>
        <time>2016-02-04T15:46:34Z</time>
      </trkpt>
      <trkpt lat="47.26195" lon="-1.53855">
        <ele>35.3</ele>
        <time>2016-02-04T15:46:39Z</time>
      </trkpt>
      <trkpt lat="47.26202" lon="-1.5386">
        <ele>35.2</ele>
        <time>2016-02-04T15:46:46Z</time>
      </trkpt>
      <trkpt lat="47.26209" lon="-1.53865">
        <ele>35.9</ele>
        <time>2016-02-04T15:46:51Z</time>
      </trkpt>
      <trkpt lat="47.26217" lon="-1.5387">
        <ele>36.5</ele>
        <time>2016-02-04T15:46:57Z</time>
      </trkpt>
      <trkpt lat="47.26224" lon="-1.53874">
        <ele>35.8</ele>
        <time>2016-02-04T15:47:01Z</time>
      </trkpt>
      <trkpt lat="47.26231" lon="-1.53881">
        <ele>36.5</ele>
        <time>2016-02-04T15:47:07Z</time>
      </trkpt>
      <trkpt lat="47.26239" lon="-1.53887">
        <ele>35.9</ele>
        <time>2016-02-04T15:47:13Z</time>
      </trkpt>
      <trkpt lat="47.26245" lon="-1.53893">
        <ele>36.1</ele>
        <time>2016-02-04T15:47:19Z</time>
      </trkpt>
      <trkpt lat="47.26252" lon="-1.53898">
        <ele>36.6</ele>
        <time>2016-02-04T15:47:24Z</time>
      </trkpt>
      <trkpt lat="47.2626" lon="-1.53905">
        <ele>36.4</ele>
        <time>2016-02-04T15:47:31Z</time>
      </trkpt>
      <trkpt lat="47.26271" lon="-1.53918">
        <ele>37</ele>
        <time>2016-02-04T15:47:42Z</time>
      </trkpt>
      <trkpt lat="47.26278" lon="-1.53924">
        <ele>36.5</ele>
        <time>2016-02-04T15:47:47Z</time>
      </trkpt>
      <trkpt lat="47.26285" lon="-1.5393">
        <ele>36.1</ele>
        <time>2016-02-04T15:47:51Z</time>
      </trkpt>
      <trkpt lat="47.26291" lon="-1.53937">
        <ele>36.6</ele>
        <time>2016-02-04T15:47:56Z</time>
      </trkpt>
      <trkpt lat="47.26299" lon="-1.53944">
        <ele>37.1</ele>
        <time>2016-02-04T15:48:02Z</time>
      </trkpt>
      <trkpt lat="47.26305" lon="-1.5395">
        <ele>37.2</ele>
        <time>2016-02-04T15:48:07Z</time>
      </trkpt>
      <trkpt lat="47.26312" lon="-1.53955">
        <ele>36.5</ele>
        <time>2016-02-04T15:48:11Z</time>
      </trkpt>
      <trkpt lat="47.2632" lon="-1.5396">
        <ele>36.8</ele>
        <time>2016-02-04T15:48:16Z</time>
      </trkpt>
      <trkpt lat="47.26327" lon="-1.53965">
        <ele>35.7</ele>
        <time>2016-02-04T15:48:21Z</time>
      </trkpt>
      <trkpt lat="47.26334" lon="-1.5397">
        <ele>35.3</ele>
        <time>2016-02-04T15:48:27Z</time>
      </trkpt>
      <trkpt lat="47.26342" lon="-1.53972">
        <ele>33.8</ele>
        <time>2016-02-04T15:48:34Z</time>
      </trkpt>
      <trkpt lat="47.26357" lon="-1.53981">
        <ele>31.8</ele>
        <time>2016-02-04T15:48:45Z</time>
      </trkpt>
      <trkpt lat="47.26365" lon="-1.53983">
        <ele>31.9</ele>
        <time>2016-02-04T15:48:51Z</time>
      </trkpt>
      <trkpt lat="47.26373" lon="-1.53984">
        <ele>31.6</ele>
        <time>2016-02-04T15:48:58Z</time>
      </trkpt>
      <trkpt lat="47.26381" lon="-1.53986">
        <ele>31.8</ele>
        <time>2016-02-04T15:49:04Z</time>
      </trkpt>
      <trkpt lat="47.26389" lon="-1.53988">
        <ele>31.9</ele>
        <time>2016-02-04T15:49:10Z</time>
      </trkpt>
      <trkpt lat="47.26397" lon="-1.5399">
        <ele>31.8</ele>
        <time>2016-02-04T15:49:16Z</time>
      </trkpt>
      <trkpt lat="47.26404" lon="-1.53991">
        <ele>31.2</ele>
        <time>2016-02-04T15:49:22Z</time>
      </trkpt>
      <trkpt lat="47.26412" lon="-1.53991">
        <ele>31.5</ele>
        <time>2016-02-04T15:49:30Z</time>
      </trkpt>
      <trkpt lat="47.26419" lon="-1.53994">
        <ele>31.9</ele>
        <time>2016-02-04T15:49:35Z</time>
      </trkpt>
      <trkpt lat="47.26436" lon="-1.54">
        <ele>31.9</ele>
        <time>2016-02-04T15:49:44Z</time>
      </trkpt>
      <trkpt lat="47.26444" lon="-1.54001">
        <ele>31.5</ele>
        <time>2016-02-04T15:49:49Z</time>
      </trkpt>
      <trkpt lat="47.26452" lon="-1.54004">
        <ele>31.3</ele>
        <time>2016-02-04T15:49:53Z</time>
      </trkpt>
      <trkpt lat="47.26459" lon="-1.54008">
        <ele>31.8</ele>
        <time>2016-02-04T15:49:59Z</time>
      </trkpt>
      <trkpt lat="47.26465" lon="-1.54015">
        <ele>33.3</ele>
        <time>2016-02-04T15:50:09Z</time>
      </trkpt>
      <trkpt lat="47.26472" lon="-1.54019">
        <ele>32.9</ele>
        <time>2016-02-04T15:50:20Z</time>
      </trkpt>
      <trkpt lat="47.26479" lon="-1.54022">
        <ele>32.7</ele>
        <time>2016-02-04T15:50:26Z</time>
      </trkpt>
      <trkpt lat="47.26487" lon="-1.54027">
        <ele>33.6</ele>
        <time>2016-02-04T15:50:32Z</time>
      </trkpt>
      <trkpt lat="47.26495" lon="-1.54032">
        <ele>34.1</ele>
        <time>2016-02-04T15:50:38Z</time>
      </trkpt>
      <trkpt lat="47.2651" lon="-1.54043">
        <ele>34.8</ele>
        <time>2016-02-04T15:50:51Z</time>
      </trkpt>
      <trkpt lat="47.26516" lon="-1.5405">
        <ele>34.6</ele>
        <time>2016-02-04T15:50:56Z</time>
      </trkpt>
      <trkpt lat="47.26522" lon="-1.54058">
        <ele>36</ele>
        <time>2016-02-04T15:51:01Z</time>
      </trkpt>
      <trkpt lat="47.26527" lon="-1.54067">
        <ele>34.8</ele>
        <time>2016-02-04T15:51:06Z</time>
      </trkpt>
      <trkpt lat="47.26532" lon="-1.54077">
        <ele>35.5</ele>
        <time>2016-02-04T15:51:11Z</time>
      </trkpt>
      <trkpt lat="47.26537" lon="-1.54087">
        <ele>36</ele>
        <time>2016-02-04T15:51:17Z</time>
      </trkpt>
      <trkpt lat="47.26541" lon="-1.54096">
        <ele>36.2</ele>
        <time>2016-02-04T15:51:22Z</time>
      </trkpt>
      <trkpt lat="47.26546" lon="-1.54106">
        <ele>36.8</ele>
        <time>2016-02-04T15:51:28Z</time>
      </trkpt>
      <trkpt lat="47.26551" lon="-1.54117">
        <ele>36.3</ele>
        <time>2016-02-04T15:51:35Z</time>
      </trkpt>
      <trkpt lat="47.26555" lon="-1.54127">
        <ele>37.1</ele>
        <time>2016-02-04T15:51:41Z</time>
      </trkpt>
      <trkpt lat="47.26565" lon="-1.54144">
        <ele>38.2</ele>
        <time>2016-02-04T15:51:50Z</time>
      </trkpt>
      <trkpt lat="47.2657" lon="-1.54154">
        <ele>38.9</ele>
        <time>2016-02-04T15:51:55Z</time>
      </trkpt>
      <trkpt lat="47.26575" lon="-1.54163">
        <ele>38.8</ele>
        <time>2016-02-04T15:52:01Z</time>
      </trkpt>
      <trkpt lat="47.26581" lon="-1.54172">
        <ele>39.5</ele>
        <time>2016-02-04T15:52:07Z</time>
      </trkpt>
      <trkpt lat="47.26587" lon="-1.5418">
        <ele>39.8</ele>
        <time>2016-02-04T15:52:13Z</time>
      </trkpt>
      <trkpt lat="47.2659" lon="-1.54191">
        <ele>39.9</ele>
        <time>2016-02-04T15:52:21Z</time>
      </trkpt>
      <trkpt lat="47.26594" lon="-1.54201">
        <ele>40.8</ele>
        <time>2016-02-04T15:52:28Z</time>
      </trkpt>
      <trkpt lat="47.26598" lon="-1.5421">
        <ele>42.3</ele>
        <time>2016-02-04T15:52:35Z</time>
      </trkpt>
      <trkpt lat="47.26602" lon="-1.54219">
        <ele>42.6</ele>
        <time>2016-02-04T15:52:41Z</time>
      </trkpt>
      <trkpt lat="47.26606" lon="-1.54229">
        <ele>42.6</ele>
        <time>2016-02-04T15:52:47Z</time>
      </trkpt>
      <trkpt lat="47.26614" lon="-1.54248">
        <ele>44.9</ele>
        <time>2016-02-04T15:53:01Z</time>
      </trkpt>
      <trkpt lat="47.26619" lon="-1.54257">
        <ele>44.7</ele>
        <time>2016-02-04T15:53:06Z</time>
      </trkpt>
      <trkpt lat="47.26624" lon="-1.54267">
        <ele>44.5</ele>
        <time>2016-02-04T15:53:11Z</time>
      </trkpt>
      <trkpt lat="47.26631" lon="-1.54275">
        <ele>45.1</ele>
        <time>2016-02-04T15:53:16Z</time>
      </trkpt>
      <trkpt lat="47.26635" lon="-1.54284">
        <ele>45.8</ele>
        <time>2016-02-04T15:53:21Z</time>
      </trkpt>
      <trkpt lat="47.26637" lon="-1.54295">
        <ele>45.9</ele>
        <time>2016-02-04T15:53:26Z</time>
      </trkpt>
      <trkpt lat="47.26641" lon="-1.54305">
        <ele>45.5</ele>
        <time>2016-02-04T15:53:31Z</time>
      </trkpt>
      <trkpt lat="47.26642" lon="-1.54316">
        <ele>45.9</ele>
        <time>2016-02-04T15:53:37Z</time>
      </trkpt>
      <trkpt lat="47.26644" lon="-1.54327">
        <ele>46.1</ele>
        <time>2016-02-04T15:53:43Z</time>
      </trkpt>
      <trkpt lat="47.26644" lon="-1.54339">
        <ele>46.7</ele>
        <time>2016-02-04T15:53:49Z</time>
      </trkpt>
      <trkpt lat="47.26637" lon="-1.54361">
        <ele>48.4</ele>
        <time>2016-02-04T15:54:00Z</time>
      </trkpt>
      <trkpt lat="47.26631" lon="-1.5437">
        <ele>48</ele>
        <time>2016-02-04T15:54:06Z</time>
      </trkpt>
      <trkpt lat="47.26625" lon="-1.54375">
        <ele>48.4</ele>
        <time>2016-02-04T15:54:11Z</time>
      </trkpt>
      <trkpt lat="47.26618" lon="-1.54378">
        <ele>48.9</ele>
        <time>2016-02-04T15:54:16Z</time>
      </trkpt>
      <trkpt lat="47.2661" lon="-1.54381">
        <ele>49</ele>
        <time>2016-02-04T15:54:22Z</time>
      </trkpt>
      <trkpt lat="47.26603" lon="-1.54384">
        <ele>49.1</ele>
        <time>2016-02-04T15:54:27Z</time>
      </trkpt>
      <trkpt lat="47.26596" lon="-1.54388">
        <ele>49.6</ele>
        <time>2016-02-04T15:54:33Z</time>
      </trkpt>
      <trkpt lat="47.2659" lon="-1.54396">
        <ele>50.3</ele>
        <time>2016-02-04T15:54:39Z</time>
      </trkpt>
      <trkpt lat="47.26587" lon="-1.54405">
        <ele>50.4</ele>
        <time>2016-02-04T15:54:45Z</time>
      </trkpt>
      <trkpt lat="47.26587" lon="-1.54416">
        <ele>51.9</ele>
        <time>2016-02-04T15:54:52Z</time>
      </trkpt>
      <trkpt lat="47.26587" lon="-1.54438">
        <ele>52.4</ele>
        <time>2016-02-04T15:55:07Z</time>
      </trkpt>
      <trkpt lat="47.26589" lon="-1.5445">
        <ele>51.5</ele>
        <time>2016-02-04T15:55:14Z</time>
      </trkpt>
      <trkpt lat="47.26594" lon="-1.54458">
        <ele>51.3</ele>
        <time>2016-02-04T15:55:21Z</time>
      </trkpt>
      <trkpt lat="47.26601" lon="-1.54461">
        <ele>51.1</ele>
        <time>2016-02-04T15:55:28Z</time>
      </trkpt>
      <trkpt lat="47.26609" lon="-1.54461">
        <ele>50.9</ele>
        <time>2016-02-04T15:55:33Z</time>
      </trkpt>
      <trkpt lat="47.26617" lon="-1.54459">
        <ele>50.7</ele>
        <time>2016-02-04T15:55:39Z</time>
      </trkpt>
      <trkpt lat="47.26626" lon="-1.54459">
        <ele>51.8</ele>
        <time>2016-02-04T15:55:46Z</time>
      </trkpt>
      <trkpt lat="47.26633" lon="-1.54456">
        <ele>51.4</ele>
        <time>2016-02-04T15:55:52Z</time>
      </trkpt>
      <trkpt lat="47.26641" lon="-1.54456">
        <ele>51.6</ele>
        <time>2016-02-04T15:55:59Z</time>
      </trkpt>
      <trkpt lat="47.26655" lon="-1.54453">
        <ele>52</ele>
        <time>2016-02-04T15:56:09Z</time>
      </trkpt>
      <trkpt lat="47.26663" lon="-1.54452">
        <ele>51.7</ele>
        <time>2016-02-04T15:56:15Z</time>
      </trkpt>
      <trkpt lat="47.26671" lon="-1.54452">
        <ele>52.4</ele>
        <time>2016-02-04T15:56:21Z</time>
      </trkpt>
      <trkpt lat="47.26679" lon="-1.54453">
        <ele>52.3</ele>
        <time>2016-02-04T15:56:27Z</time>
      </trkpt>
      <trkpt lat="47.26688" lon="-1.54455">
        <ele>52.5</ele>
        <time>2016-02-04T15:56:35Z</time>
      </trkpt>
      <trkpt lat="47.26695" lon="-1.54456">
        <ele>52.4</ele>
        <time>2016-02-04T15:56:41Z</time>
      </trkpt>
      <trkpt lat="47.26703" lon="-1.54458">
        <ele>53.2</ele>
        <time>2016-02-04T15:56:47Z</time>
      </trkpt>
      <trkpt lat="47.26711" lon="-1.5446">
        <ele>53</ele>
        <time>2016-02-04T15:56:53Z</time>
      </trkpt>
      <trkpt lat="47.26718" lon="-1.54461">
        <ele>53.2</ele>
        <time>2016-02-04T15:56:58Z</time>
      </trkpt>
      <trkpt lat="47.26725" lon="-1.54463">
        <ele>53.5</ele>
        <time>2016-02-04T15:57:03Z</time>
      </trkpt>
      <trkpt lat="47.26739" lon="-1.54474">
        <ele>53.3</ele>
        <time>2016-02-04T15:57:15Z</time>
      </trkpt>
      <trkpt lat="47.26745" lon="-1.54482">
        <ele>53.7</ele>
        <time>2016-02-04T15:57:21Z</time>
      </trkpt>
      <trkpt lat="47.2675" lon="-1.5449">
        <ele>54.7</ele>
        <time>2016-02-04T15:57:27Z</time>
      </trkpt>
      <trkpt lat="47.26758" lon="-1.54494">
        <ele>55.2</ele>
        <time>2016-02-04T15:57:33Z</time>
      </trkpt>
      <trkpt lat="47.26766" lon="-1.54496">
        <ele>55.2</ele>
        <time>2016-02-04T15:57:39Z</time>
      </trkpt>
      <trkpt lat="47.26774" lon="-1.54499">
        <ele>55.2</ele>
        <time>2016-02-04T15:57:44Z</time>
      </trkpt>
      <trkpt lat="47.26782" lon="-1.54502">
        <ele>55.8</ele>
        <time>2016-02-04T15:57:49Z</time>
      </trkpt>
      <trkpt lat="47.2679" lon="-1.54506">
        <ele>55.8</ele>
        <time>2016-02-04T15:57:54Z</time>
      </trkpt>
      <trkpt lat="47.26797" lon="-1.54512">
        <ele>55.9</ele>
        <time>2016-02-04T15:57:59Z</time>
      </trkpt>
      <trkpt lat="47.26804" lon="-1.54517">
        <ele>55.3</ele>
        <time>2016-02-04T15:58:04Z</time>
      </trkpt>
      <trkpt lat="47.2681" lon="-1.54524">
        <ele>56.2</ele>
        <time>2016-02-04T15:58:09Z</time>
      </trkpt>
      <trkpt lat="47.26822" lon="-1.54537">
        <ele>56.9</ele>
        <time>2016-02-04T15:58:20Z</time>
      </trkpt>
      <trkpt lat="47.26829" lon="-1.54542">
        <ele>56.9</ele>
        <time>2016-02-04T15:58:25Z</time>
      </trkpt>
      <trkpt lat="47.26836" lon="-1.54546">
        <ele>56.6</ele>
        <time>2016-02-04T15:58:30Z</time>
      </trkpt>
      <trkpt lat="47.26845" lon="-1.54548">
        <ele>56.4</ele>
        <time>2016-02-04T15:58:36Z</time>
      </trkpt>
      <trkpt lat="47.26853" lon="-1.5455">
        <ele>56.4</ele>
        <time>2016-02-04T15:58:42Z</time>
      </trkpt>
      <trkpt lat="47.26861" lon="-1.54553">
        <ele>56.3</ele>
        <time>2016-02-04T15:58:48Z</time>
      </trkpt>
      <trkpt lat="47.26869" lon="-1.54555">
        <ele>55.9</ele>
        <time>2016-02-04T15:58:53Z</time>
      </trkpt>
      <trkpt lat="47.26874" lon="-1.54562">
        <ele>56.7</ele>
        <time>2016-02-04T15:58:59Z</time>
      </trkpt>
      <trkpt lat="47.26876" lon="-1.54574">
        <ele>57.6</ele>
        <time>2016-02-04T15:59:07Z</time>
      </trkpt>
      <trkpt lat="47.26877" lon="-1.54585">
        <ele>58.1</ele>
        <time>2016-02-04T15:59:13Z</time>
      </trkpt>
      <trkpt lat="47.26873" lon="-1.54606">
        <ele>57.9</ele>
        <time>2016-02-04T15:59:27Z</time>
      </trkpt>
      <trkpt lat="47.26869" lon="-1.54615">
        <ele>58.3</ele>
        <time>2016-02-04T15:59:33Z</time>
      </trkpt>
      <trkpt lat="47.26867" lon="-1.54626">
        <ele>57.8</ele>
        <time>2016-02-04T15:59:39Z</time>
      </trkpt>
      <trkpt lat="47.26868" lon="-1.54637">
        <ele>57.3</ele>
        <time>2016-02-04T15:59:45Z</time>
      </trkpt>
      <trkpt lat="47.26868" lon="-1.54649">
        <ele>57.8</ele>
        <time>2016-02-04T15:59:51Z</time>
      </trkpt>
      <trkpt lat="47.26872" lon="-1.5466">
        <ele>57.1</ele>
        <time>2016-02-04T15:59:57Z</time>
      </trkpt>
      <trkpt lat="47.26875" lon="-1.54671">
        <ele>57.3</ele>
        <time>2016-02-04T16:00:03Z</time>
      </trkpt>
      <trkpt lat="47.26877" lon="-1.54682">
        <ele>57.3</ele>
        <time>2016-02-04T16:00:10Z</time>
      </trkpt>
      <trkpt lat="47.2688" lon="-1.54691">
        <ele>57.8</ele>
        <time>2016-02-04T16:00:16Z</time>
      </trkpt>
      <trkpt lat="47.26886" lon="-1.54711">
        <ele>57.2</ele>
        <time>2016-02-04T16:00:28Z</time>
      </trkpt>
      <trkpt lat="47.26888" lon="-1.54722">
        <ele>57.7</ele>
        <time>2016-02-04T16:00:34Z</time>
      </trkpt>
      <trkpt lat="47.2689" lon="-1.54732">
        <ele>58.1</ele>
        <time>2016-02-04T16:00:40Z</time>
      </trkpt>
      <trkpt lat="47.26893" lon="-1.54744">
        <ele>56.8</ele>
        <time>2016-02-04T16:00:46Z</time>
      </trkpt>
      <trkpt lat="47.26896" lon="-1.54755">
        <ele>56.4</ele>
        <time>2016-02-04T16:00:52Z</time>
      </trkpt>
      <trkpt lat="47.269" lon="-1.54766">
        <ele>56.3</ele>
        <time>2016-02-04T16:00:58Z</time>
      </trkpt>
      <trkpt lat="47.26903" lon="-1.54777">
        <ele>56.1</ele>
        <time>2016-02-04T16:01:04Z</time>
      </trkpt>
      <trkpt lat="47.26905" lon="-1.54788">
        <ele>55.8</ele>
        <time>2016-02-04T16:01:10Z</time>
      </trkpt>
      <trkpt lat="47.26908" lon="-1.548">
        <ele>55.4</ele>
        <time>2016-02-04T16:01:16Z</time>
      </trkpt>
      <trkpt lat="47.26909" lon="-1.54811">
        <ele>55.2</ele>
        <time>2016-02-04T16:01:22Z</time>
      </trkpt>
      <trkpt lat="47.26912" lon="-1.54833">
        <ele>54.9</ele>
        <time>2016-02-04T16:01:34Z</time>
      </trkpt>
      <trkpt lat="47.26915" lon="-1.54845">
        <ele>54.3</ele>
        <time>2016-02-04T16:01:40Z</time>
      </trkpt>
      <trkpt lat="47.26917" lon="-1.54856">
        <ele>53.7</ele>
        <time>2016-02-04T16:01:46Z</time>
      </trkpt>
      <trkpt lat="47.26919" lon="-1.54868">
        <ele>52.9</ele>
        <time>2016-02-04T16:01:52Z</time>
      </trkpt>
      <trkpt lat="47.2692" lon="-1.5488">
        <ele>52.2</ele>
        <time>2016-02-04T16:01:58Z</time>
      </trkpt>
      <trkpt lat="47.26923" lon="-1.54891">
        <ele>52.7</ele>
        <time>2016-02-04T16:02:04Z</time>
      </trkpt>
      <trkpt lat="47.26926" lon="-1.54902">
        <ele>52.7</ele>
        <time>2016-02-04T16:02:10Z</time>
      </trkpt>
      <trkpt lat="47.26928" lon="-1.54914">
        <ele>52.4</ele>
        <time>2016-02-04T16:02:15Z</time>
      </trkpt>
      <trkpt lat="47.26929" lon="-1.54926">
        <ele>52.1</ele>
        <time>2016-02-04T16:02:20Z</time>
      </trkpt>
      <trkpt lat="47.2693" lon="-1.54938">
        <ele>52</ele>
        <time>2016-02-04T16:02:25Z</time>
      </trkpt>
      <trkpt lat="47.26927" lon="-1.54961">
        <ele>50.8</ele>
        <time>2016-02-04T16:02:34Z</time>
      </trkpt>
      <trkpt lat="47.26925" lon="-1.54971">
        <ele>50</ele>
        <time>2016-02-04T16:02:39Z</time>
      </trkpt>
      <trkpt lat="47.26923" lon="-1.54983">
        <ele>49.5</ele>
        <time>2016-02-04T16:02:44Z</time>
      </trkpt>
      <trkpt lat="47.26924" lon="-1.54994">
        <ele>49.4</ele>
        <time>2016-02-04T16:02:50Z</time>
      </trkpt>
      <trkpt lat="47.26925" lon="-1.55005">
        <ele>49.3</ele>
        <time>2016-02-04T16:02:56Z</time>
      </trkpt>
      <trkpt lat="47.26925" lon="-1.55017">
        <ele>50.1</ele>
        <time>2016-02-04T16:03:03Z</time>
      </trkpt>
      <trkpt lat="47.26925" lon="-1.55027">
        <ele>51.2</ele>
        <time>2016-02-04T16:03:09Z</time>
      </trkpt>
      <trkpt lat="47.26925" lon="-1.55038">
        <ele>51.1</ele>
        <time>2016-02-04T16:03:16Z</time>
      </trkpt>
      <trkpt lat="47.26927" lon="-1.55049">
        <ele>51</ele>
        <time>2016-02-04T16:03:24Z</time>
      </trkpt>
      <trkpt lat="47.26928" lon="-1.5506">
        <ele>51</ele>
        <time>2016-02-04T16:03:30Z</time>
      </trkpt>
      <trkpt lat="47.26934" lon="-1.55081">
        <ele>52.9</ele>
        <time>2016-02-04T16:03:42Z</time>
      </trkpt>
      <trkpt lat="47.26937" lon="-1.55091">
        <ele>52.7</ele>
        <time>2016-02-04T16:03:48Z</time>
      </trkpt>
      <trkpt lat="47.26938" lon="-1.55102">
        <ele>53.5</ele>
        <time>2016-02-04T16:03:53Z</time>
      </trkpt>
      <trkpt lat="47.2694" lon="-1.55114">
        <ele>54.1</ele>
        <time>2016-02-04T16:03:59Z</time>
      </trkpt>
      <trkpt lat="47.26942" lon="-1.55126">
        <ele>53.9</ele>
        <time>2016-02-04T16:04:05Z</time>
      </trkpt>
      <trkpt lat="47.26944" lon="-1.55138">
        <ele>53.7</ele>
        <time>2016-02-04T16:04:11Z</time>
      </trkpt>
      <trkpt lat="47.26946" lon="-1.55148">
        <ele>52.8</ele>
        <time>2016-02-04T16:04:16Z</time>
      </trkpt>
      <trkpt lat="47.2695" lon="-1.55157">
        <ele>53.5</ele>
        <time>2016-02-04T16:04:21Z</time>
      </trkpt>
      <trkpt lat="47.26954" lon="-1.55167">
        <ele>54.1</ele>
        <time>2016-02-04T16:04:26Z</time>
      </trkpt>
      <trkpt lat="47.26956" lon="-1.55178">
        <ele>54.1</ele>
        <time>2016-02-04T16:04:32Z</time>
      </trkpt>
      <trkpt lat="47.26963" lon="-1.55197">
        <ele>53.4</ele>
        <time>2016-02-04T16:04:44Z</time>
      </trkpt>
      <trkpt lat="47.26969" lon="-1.55203">
        <ele>53.6</ele>
        <time>2016-02-04T16:04:51Z</time>
      </trkpt>
      <trkpt lat="47.26977" lon="-1.55202">
        <ele>53.5</ele>
        <time>2016-02-04T16:04:58Z</time>
      </trkpt>
      <trkpt lat="47.26984" lon="-1.55204">
        <ele>54.5</ele>
        <time>2016-02-04T16:05:04Z</time>
      </trkpt>
      <trkpt lat="47.2699" lon="-1.5521">
        <ele>54.1</ele>
        <time>2016-02-04T16:05:10Z</time>
      </trkpt>
      <trkpt lat="47.26996" lon="-1.55216">
        <ele>56.3</ele>
        <time>2016-02-04T16:05:44Z</time>
      </trkpt>
    </trkseg>
  </trk>
</gpx>